<?xml version="1.0" encoding="UTF-8" standalone="no" ?>
<gpx xmlns="http://www.topografix.com/GPX/1/1" xmlns:xsi="http://www.w3.org/2001/XMLSchema-instance" xsi:schemaLocation="http://www.topografix.com/GPX/1/1 http://www.topografix.com/GPX/1/1/gpx.xsd" version="1.1" creator="VisuGPX - https://www.visugpx.com">
  <metadata>
    <name>salles</name>
    <desc><![CDATA[nocturne salles]]></desc>
  </metadata>
  <trk>
    <name><![CDATA[Tracé 9 oct. 2015 20:09:53]]></name>
    <trkseg>
      <trkpt lat="44.6049" lon="-0.93931">
        <ele>-75</ele>
        <time>2015-10-09T18:09:53Z</time>
      </trkpt>
      <trkpt lat="44.6049" lon="-0.93931">
        <ele>-75</ele>
        <time>2015-10-09T18:14:30Z</time>
      </trkpt>
      <trkpt lat="44.60523" lon="-0.93903">
        <ele>-53</ele>
        <time>2015-10-09T18:14:33Z</time>
      </trkpt>
      <trkpt lat="44.60504" lon="-0.93885">
        <ele>-53</ele>
        <time>2015-10-09T18:14:37Z</time>
      </trkpt>
      <trkpt lat="44.6049" lon="-0.93868">
        <ele>-52</ele>
        <time>2015-10-09T18:14:41Z</time>
      </trkpt>
      <trkpt lat="44.60476" lon="-0.9385">
        <ele>-52</ele>
        <time>2015-10-09T18:14:45Z</time>
      </trkpt>
      <trkpt lat="44.60463" lon="-0.93808">
        <ele>-52</ele>
        <time>2015-10-09T18:14:49Z</time>
      </trkpt>
      <trkpt lat="44.6045" lon="-0.93779">
        <ele>-52</ele>
        <time>2015-10-09T18:14:53Z</time>
      </trkpt>
      <trkpt lat="44.60441" lon="-0.93752">
        <ele>-52</ele>
        <time>2015-10-09T18:14:57Z</time>
      </trkpt>
      <trkpt lat="44.60432" lon="-0.93727">
        <ele>-52</ele>
        <time>2015-10-09T18:15:02Z</time>
      </trkpt>
      <trkpt lat="44.60423" lon="-0.93712">
        <ele>-53</ele>
        <time>2015-10-09T18:15:06Z</time>
      </trkpt>
      <trkpt lat="44.60416" lon="-0.93696">
        <ele>-53</ele>
        <time>2015-10-09T18:15:09Z</time>
      </trkpt>
      <trkpt lat="44.60409" lon="-0.93677">
        <ele>-53</ele>
        <time>2015-10-09T18:15:13Z</time>
      </trkpt>
      <trkpt lat="44.60404" lon="-0.93656">
        <ele>-53</ele>
        <time>2015-10-09T18:15:16Z</time>
      </trkpt>
      <trkpt lat="44.60391" lon="-0.93621">
        <ele>-53</ele>
        <time>2015-10-09T18:15:21Z</time>
      </trkpt>
      <trkpt lat="44.60383" lon="-0.93599">
        <ele>-53</ele>
        <time>2015-10-09T18:15:25Z</time>
      </trkpt>
      <trkpt lat="44.60373" lon="-0.93578">
        <ele>-53</ele>
        <time>2015-10-09T18:15:29Z</time>
      </trkpt>
      <trkpt lat="44.60361" lon="-0.93556">
        <ele>-53</ele>
        <time>2015-10-09T18:15:33Z</time>
      </trkpt>
      <trkpt lat="44.60345" lon="-0.93529">
        <ele>-52</ele>
        <time>2015-10-09T18:15:38Z</time>
      </trkpt>
      <trkpt lat="44.60335" lon="-0.93504">
        <ele>-52</ele>
        <time>2015-10-09T18:15:42Z</time>
      </trkpt>
      <trkpt lat="44.60332" lon="-0.93475">
        <ele>-52</ele>
        <time>2015-10-09T18:15:46Z</time>
      </trkpt>
      <trkpt lat="44.60329" lon="-0.93444">
        <ele>-52</ele>
        <time>2015-10-09T18:15:50Z</time>
      </trkpt>
      <trkpt lat="44.60323" lon="-0.93421">
        <ele>-52</ele>
        <time>2015-10-09T18:15:54Z</time>
      </trkpt>
      <trkpt lat="44.60306" lon="-0.9338">
        <ele>-52</ele>
        <time>2015-10-09T18:15:59Z</time>
      </trkpt>
      <trkpt lat="44.60294" lon="-0.93353">
        <ele>-51</ele>
        <time>2015-10-09T18:16:03Z</time>
      </trkpt>
      <trkpt lat="44.60284" lon="-0.93332">
        <ele>-51</ele>
        <time>2015-10-09T18:16:07Z</time>
      </trkpt>
      <trkpt lat="44.60272" lon="-0.93295">
        <ele>-51</ele>
        <time>2015-10-09T18:16:11Z</time>
      </trkpt>
      <trkpt lat="44.60269" lon="-0.93273">
        <ele>-51</ele>
        <time>2015-10-09T18:16:15Z</time>
      </trkpt>
      <trkpt lat="44.60261" lon="-0.93241">
        <ele>-50</ele>
        <time>2015-10-09T18:16:19Z</time>
      </trkpt>
      <trkpt lat="44.60254" lon="-0.93213">
        <ele>-50</ele>
        <time>2015-10-09T18:16:23Z</time>
      </trkpt>
      <trkpt lat="44.60246" lon="-0.93177">
        <ele>-49</ele>
        <time>2015-10-09T18:16:28Z</time>
      </trkpt>
      <trkpt lat="44.60242" lon="-0.93146">
        <ele>-49</ele>
        <time>2015-10-09T18:16:32Z</time>
      </trkpt>
      <trkpt lat="44.60238" lon="-0.93116">
        <ele>-49</ele>
        <time>2015-10-09T18:16:36Z</time>
      </trkpt>
      <trkpt lat="44.60231" lon="-0.93084">
        <ele>-48</ele>
        <time>2015-10-09T18:16:41Z</time>
      </trkpt>
      <trkpt lat="44.60225" lon="-0.93068">
        <ele>-48</ele>
        <time>2015-10-09T18:16:44Z</time>
      </trkpt>
      <trkpt lat="44.60221" lon="-0.93038">
        <ele>-47</ele>
        <time>2015-10-09T18:16:49Z</time>
      </trkpt>
      <trkpt lat="44.60224" lon="-0.93012">
        <ele>-47</ele>
        <time>2015-10-09T18:16:53Z</time>
      </trkpt>
      <trkpt lat="44.60226" lon="-0.92982">
        <ele>-47</ele>
        <time>2015-10-09T18:16:57Z</time>
      </trkpt>
      <trkpt lat="44.60225" lon="-0.92959">
        <ele>-46</ele>
        <time>2015-10-09T18:17:00Z</time>
      </trkpt>
      <trkpt lat="44.6022" lon="-0.9293">
        <ele>-46</ele>
        <time>2015-10-09T18:17:05Z</time>
      </trkpt>
      <trkpt lat="44.60211" lon="-0.92887">
        <ele>-45</ele>
        <time>2015-10-09T18:17:10Z</time>
      </trkpt>
      <trkpt lat="44.60206" lon="-0.92866">
        <ele>-45</ele>
        <time>2015-10-09T18:17:13Z</time>
      </trkpt>
      <trkpt lat="44.60201" lon="-0.92838">
        <ele>-44</ele>
        <time>2015-10-09T18:17:17Z</time>
      </trkpt>
      <trkpt lat="44.60197" lon="-0.92808">
        <ele>-44</ele>
        <time>2015-10-09T18:17:21Z</time>
      </trkpt>
      <trkpt lat="44.60203" lon="-0.92774">
        <ele>-45</ele>
        <time>2015-10-09T18:17:26Z</time>
      </trkpt>
      <trkpt lat="44.60218" lon="-0.9275">
        <ele>-45</ele>
        <time>2015-10-09T18:17:30Z</time>
      </trkpt>
      <trkpt lat="44.60233" lon="-0.92727">
        <ele>-45</ele>
        <time>2015-10-09T18:17:34Z</time>
      </trkpt>
      <trkpt lat="44.60244" lon="-0.9271">
        <ele>-45</ele>
        <time>2015-10-09T18:17:37Z</time>
      </trkpt>
      <trkpt lat="44.60259" lon="-0.92683">
        <ele>-44</ele>
        <time>2015-10-09T18:17:42Z</time>
      </trkpt>
      <trkpt lat="44.60268" lon="-0.92668">
        <ele>-44</ele>
        <time>2015-10-09T18:17:46Z</time>
      </trkpt>
      <trkpt lat="44.60272" lon="-0.92658">
        <ele>-43</ele>
        <time>2015-10-09T18:17:58Z</time>
      </trkpt>
      <trkpt lat="44.60274" lon="-0.9265">
        <ele>-45</ele>
        <time>2015-10-09T18:18:03Z</time>
      </trkpt>
      <trkpt lat="44.60284" lon="-0.92633">
        <ele>-47</ele>
        <time>2015-10-09T18:18:08Z</time>
      </trkpt>
      <trkpt lat="44.60288" lon="-0.92626">
        <ele>-47</ele>
        <time>2015-10-09T18:18:12Z</time>
      </trkpt>
      <trkpt lat="44.60299" lon="-0.92609">
        <ele>-47</ele>
        <time>2015-10-09T18:18:17Z</time>
      </trkpt>
      <trkpt lat="44.60292" lon="-0.92616">
        <ele>-46</ele>
        <time>2015-10-09T18:19:19Z</time>
      </trkpt>
      <trkpt lat="44.60288" lon="-0.92625">
        <ele>-46</ele>
        <time>2015-10-09T18:19:25Z</time>
      </trkpt>
      <trkpt lat="44.60285" lon="-0.92637">
        <ele>-45</ele>
        <time>2015-10-09T18:19:28Z</time>
      </trkpt>
      <trkpt lat="44.60277" lon="-0.92658">
        <ele>-44</ele>
        <time>2015-10-09T18:19:32Z</time>
      </trkpt>
      <trkpt lat="44.60265" lon="-0.92681">
        <ele>-43</ele>
        <time>2015-10-09T18:19:36Z</time>
      </trkpt>
      <trkpt lat="44.60247" lon="-0.92709">
        <ele>-43</ele>
        <time>2015-10-09T18:19:41Z</time>
      </trkpt>
      <trkpt lat="44.60233" lon="-0.92732">
        <ele>-42</ele>
        <time>2015-10-09T18:19:45Z</time>
      </trkpt>
      <trkpt lat="44.60219" lon="-0.92753">
        <ele>-42</ele>
        <time>2015-10-09T18:19:49Z</time>
      </trkpt>
      <trkpt lat="44.60208" lon="-0.92772">
        <ele>-42</ele>
        <time>2015-10-09T18:19:53Z</time>
      </trkpt>
      <trkpt lat="44.60194" lon="-0.92788">
        <ele>-42</ele>
        <time>2015-10-09T18:19:57Z</time>
      </trkpt>
      <trkpt lat="44.60177" lon="-0.92791">
        <ele>-42</ele>
        <time>2015-10-09T18:20:01Z</time>
      </trkpt>
      <trkpt lat="44.60157" lon="-0.92787">
        <ele>-41</ele>
        <time>2015-10-09T18:20:05Z</time>
      </trkpt>
      <trkpt lat="44.60138" lon="-0.92781">
        <ele>-41</ele>
        <time>2015-10-09T18:20:09Z</time>
      </trkpt>
      <trkpt lat="44.6012" lon="-0.92776">
        <ele>-40</ele>
        <time>2015-10-09T18:20:14Z</time>
      </trkpt>
      <trkpt lat="44.60098" lon="-0.92777">
        <ele>-40</ele>
        <time>2015-10-09T18:20:18Z</time>
      </trkpt>
      <trkpt lat="44.60076" lon="-0.9279">
        <ele>-39</ele>
        <time>2015-10-09T18:20:22Z</time>
      </trkpt>
      <trkpt lat="44.60058" lon="-0.92803">
        <ele>-39</ele>
        <time>2015-10-09T18:20:26Z</time>
      </trkpt>
      <trkpt lat="44.6004" lon="-0.92814">
        <ele>-39</ele>
        <time>2015-10-09T18:20:30Z</time>
      </trkpt>
      <trkpt lat="44.60028" lon="-0.92823">
        <ele>-39</ele>
        <time>2015-10-09T18:20:33Z</time>
      </trkpt>
      <trkpt lat="44.60011" lon="-0.92835">
        <ele>-38</ele>
        <time>2015-10-09T18:20:37Z</time>
      </trkpt>
      <trkpt lat="44.60003" lon="-0.92844">
        <ele>-38</ele>
        <time>2015-10-09T18:20:39Z</time>
      </trkpt>
      <trkpt lat="44.59998" lon="-0.92853">
        <ele>-38</ele>
        <time>2015-10-09T18:20:42Z</time>
      </trkpt>
      <trkpt lat="44.59983" lon="-0.92875">
        <ele>-38</ele>
        <time>2015-10-09T18:20:46Z</time>
      </trkpt>
      <trkpt lat="44.59973" lon="-0.92887">
        <ele>-38</ele>
        <time>2015-10-09T18:20:50Z</time>
      </trkpt>
      <trkpt lat="44.59963" lon="-0.92901">
        <ele>-38</ele>
        <time>2015-10-09T18:20:54Z</time>
      </trkpt>
      <trkpt lat="44.59955" lon="-0.92911">
        <ele>-38</ele>
        <time>2015-10-09T18:20:58Z</time>
      </trkpt>
      <trkpt lat="44.59946" lon="-0.92927">
        <ele>-38</ele>
        <time>2015-10-09T18:21:03Z</time>
      </trkpt>
      <trkpt lat="44.5994" lon="-0.92936">
        <ele>-38</ele>
        <time>2015-10-09T18:21:07Z</time>
      </trkpt>
      <trkpt lat="44.59935" lon="-0.92932">
        <ele>-38</ele>
        <time>2015-10-09T18:21:11Z</time>
      </trkpt>
      <trkpt lat="44.59925" lon="-0.92917">
        <ele>-38</ele>
        <time>2015-10-09T18:21:15Z</time>
      </trkpt>
      <trkpt lat="44.59916" lon="-0.92889">
        <ele>-37</ele>
        <time>2015-10-09T18:21:20Z</time>
      </trkpt>
      <trkpt lat="44.59909" lon="-0.92871">
        <ele>-37</ele>
        <time>2015-10-09T18:21:23Z</time>
      </trkpt>
      <trkpt lat="44.59901" lon="-0.92846">
        <ele>-36</ele>
        <time>2015-10-09T18:21:27Z</time>
      </trkpt>
      <trkpt lat="44.59897" lon="-0.9283">
        <ele>-35</ele>
        <time>2015-10-09T18:21:31Z</time>
      </trkpt>
      <trkpt lat="44.59889" lon="-0.9283">
        <ele>-35</ele>
        <time>2015-10-09T18:21:35Z</time>
      </trkpt>
      <trkpt lat="44.59875" lon="-0.92848">
        <ele>-35</ele>
        <time>2015-10-09T18:21:40Z</time>
      </trkpt>
      <trkpt lat="44.59863" lon="-0.92858">
        <ele>-34</ele>
        <time>2015-10-09T18:21:45Z</time>
      </trkpt>
      <trkpt lat="44.59854" lon="-0.92857">
        <ele>-33</ele>
        <time>2015-10-09T18:21:48Z</time>
      </trkpt>
      <trkpt lat="44.59844" lon="-0.92858">
        <ele>-32</ele>
        <time>2015-10-09T18:21:51Z</time>
      </trkpt>
      <trkpt lat="44.59832" lon="-0.92862">
        <ele>-30</ele>
        <time>2015-10-09T18:21:55Z</time>
      </trkpt>
      <trkpt lat="44.59815" lon="-0.92869">
        <ele>-27</ele>
        <time>2015-10-09T18:22:00Z</time>
      </trkpt>
      <trkpt lat="44.59801" lon="-0.92874">
        <ele>-24</ele>
        <time>2015-10-09T18:22:04Z</time>
      </trkpt>
      <trkpt lat="44.59791" lon="-0.92876">
        <ele>-23</ele>
        <time>2015-10-09T18:22:08Z</time>
      </trkpt>
      <trkpt lat="44.5977" lon="-0.92884">
        <ele>-22</ele>
        <time>2015-10-09T18:22:13Z</time>
      </trkpt>
      <trkpt lat="44.59752" lon="-0.92891">
        <ele>-20</ele>
        <time>2015-10-09T18:22:17Z</time>
      </trkpt>
      <trkpt lat="44.59737" lon="-0.929">
        <ele>-19</ele>
        <time>2015-10-09T18:22:22Z</time>
      </trkpt>
      <trkpt lat="44.59732" lon="-0.92912">
        <ele>-18</ele>
        <time>2015-10-09T18:22:27Z</time>
      </trkpt>
      <trkpt lat="44.59728" lon="-0.92925">
        <ele>-17</ele>
        <time>2015-10-09T18:22:31Z</time>
      </trkpt>
      <trkpt lat="44.59725" lon="-0.92938">
        <ele>-16</ele>
        <time>2015-10-09T18:22:34Z</time>
      </trkpt>
      <trkpt lat="44.59725" lon="-0.92954">
        <ele>-16</ele>
        <time>2015-10-09T18:22:38Z</time>
      </trkpt>
      <trkpt lat="44.59725" lon="-0.92969">
        <ele>-15</ele>
        <time>2015-10-09T18:22:42Z</time>
      </trkpt>
      <trkpt lat="44.59717" lon="-0.92976">
        <ele>-14</ele>
        <time>2015-10-09T18:22:46Z</time>
      </trkpt>
      <trkpt lat="44.59702" lon="-0.92977">
        <ele>-13</ele>
        <time>2015-10-09T18:22:50Z</time>
      </trkpt>
      <trkpt lat="44.59689" lon="-0.92977">
        <ele>-13</ele>
        <time>2015-10-09T18:22:54Z</time>
      </trkpt>
      <trkpt lat="44.59677" lon="-0.92979">
        <ele>-12</ele>
        <time>2015-10-09T18:22:58Z</time>
      </trkpt>
      <trkpt lat="44.59664" lon="-0.92986">
        <ele>-10</ele>
        <time>2015-10-09T18:23:03Z</time>
      </trkpt>
      <trkpt lat="44.59655" lon="-0.92993">
        <ele>-10</ele>
        <time>2015-10-09T18:23:06Z</time>
      </trkpt>
      <trkpt lat="44.59647" lon="-0.93004">
        <ele>-9</ele>
        <time>2015-10-09T18:23:09Z</time>
      </trkpt>
      <trkpt lat="44.59637" lon="-0.9301">
        <ele>-8</ele>
        <time>2015-10-09T18:23:13Z</time>
      </trkpt>
      <trkpt lat="44.59624" lon="-0.93013">
        <ele>-7</ele>
        <time>2015-10-09T18:23:16Z</time>
      </trkpt>
      <trkpt lat="44.59607" lon="-0.93016">
        <ele>-6</ele>
        <time>2015-10-09T18:23:21Z</time>
      </trkpt>
      <trkpt lat="44.59595" lon="-0.93018">
        <ele>-5</ele>
        <time>2015-10-09T18:23:25Z</time>
      </trkpt>
      <trkpt lat="44.59589" lon="-0.93014">
        <ele>-4</ele>
        <time>2015-10-09T18:23:28Z</time>
      </trkpt>
      <trkpt lat="44.59583" lon="-0.93009">
        <ele>-2</ele>
        <time>2015-10-09T18:23:33Z</time>
      </trkpt>
      <trkpt lat="44.5958" lon="-0.92996">
        <ele>-1</ele>
        <time>2015-10-09T18:23:37Z</time>
      </trkpt>
      <trkpt lat="44.59574" lon="-0.92981">
        <ele>6</ele>
        <time>2015-10-09T18:23:41Z</time>
      </trkpt>
      <trkpt lat="44.59569" lon="-0.92971">
        <ele>6.1</ele>
        <time>2015-10-09T18:23:45Z</time>
      </trkpt>
      <trkpt lat="44.5956" lon="-0.92958">
        <ele>1</ele>
        <time>2015-10-09T18:23:49Z</time>
      </trkpt>
      <trkpt lat="44.59548" lon="-0.92938">
        <ele>2</ele>
        <time>2015-10-09T18:23:53Z</time>
      </trkpt>
      <trkpt lat="44.59544" lon="-0.9293">
        <ele>3</ele>
        <time>2015-10-09T18:23:55Z</time>
      </trkpt>
      <trkpt lat="44.5954" lon="-0.92914">
        <ele>4</ele>
        <time>2015-10-09T18:23:58Z</time>
      </trkpt>
      <trkpt lat="44.59533" lon="-0.92902">
        <ele>5</ele>
        <time>2015-10-09T18:24:02Z</time>
      </trkpt>
      <trkpt lat="44.59529" lon="-0.92898">
        <ele>5</ele>
        <time>2015-10-09T18:24:05Z</time>
      </trkpt>
      <trkpt lat="44.59521" lon="-0.92896">
        <ele>6</ele>
        <time>2015-10-09T18:24:08Z</time>
      </trkpt>
      <trkpt lat="44.59504" lon="-0.92893">
        <ele>4</ele>
        <time>2015-10-09T18:24:13Z</time>
      </trkpt>
      <trkpt lat="44.59496" lon="-0.92892">
        <ele>5</ele>
        <time>2015-10-09T18:24:19Z</time>
      </trkpt>
      <trkpt lat="44.5949" lon="-0.92888">
        <ele>6</ele>
        <time>2015-10-09T18:24:22Z</time>
      </trkpt>
      <trkpt lat="44.59484" lon="-0.92886">
        <ele>8</ele>
        <time>2015-10-09T18:24:34Z</time>
      </trkpt>
      <trkpt lat="44.5947" lon="-0.92887">
        <ele>2</ele>
        <time>2015-10-09T18:24:37Z</time>
      </trkpt>
      <trkpt lat="44.59463" lon="-0.92879">
        <ele>-3</ele>
        <time>2015-10-09T18:24:54Z</time>
      </trkpt>
      <trkpt lat="44.59463" lon="-0.92872">
        <ele>-4</ele>
        <time>2015-10-09T18:24:58Z</time>
      </trkpt>
      <trkpt lat="44.59459" lon="-0.92863">
        <ele>-4</ele>
        <time>2015-10-09T18:25:03Z</time>
      </trkpt>
      <trkpt lat="44.59455" lon="-0.92854">
        <ele>-5</ele>
        <time>2015-10-09T18:25:07Z</time>
      </trkpt>
      <trkpt lat="44.59449" lon="-0.92846">
        <ele>-5</ele>
        <time>2015-10-09T18:25:11Z</time>
      </trkpt>
      <trkpt lat="44.59437" lon="-0.92838">
        <ele>-5</ele>
        <time>2015-10-09T18:25:15Z</time>
      </trkpt>
      <trkpt lat="44.59428" lon="-0.9283">
        <ele>-5</ele>
        <time>2015-10-09T18:25:19Z</time>
      </trkpt>
      <trkpt lat="44.59418" lon="-0.92818">
        <ele>-5</ele>
        <time>2015-10-09T18:25:24Z</time>
      </trkpt>
      <trkpt lat="44.59412" lon="-0.92809">
        <ele>-5</ele>
        <time>2015-10-09T18:25:28Z</time>
      </trkpt>
      <trkpt lat="44.59402" lon="-0.92801">
        <ele>-4</ele>
        <time>2015-10-09T18:25:33Z</time>
      </trkpt>
      <trkpt lat="44.59391" lon="-0.92796">
        <ele>-4</ele>
        <time>2015-10-09T18:25:36Z</time>
      </trkpt>
      <trkpt lat="44.59386" lon="-0.92783">
        <ele>-4</ele>
        <time>2015-10-09T18:25:41Z</time>
      </trkpt>
      <trkpt lat="44.59376" lon="-0.92772">
        <ele>-3</ele>
        <time>2015-10-09T18:25:45Z</time>
      </trkpt>
      <trkpt lat="44.59366" lon="-0.9276">
        <ele>-3</ele>
        <time>2015-10-09T18:25:49Z</time>
      </trkpt>
      <trkpt lat="44.59361" lon="-0.9275">
        <ele>-2</ele>
        <time>2015-10-09T18:26:02Z</time>
      </trkpt>
      <trkpt lat="44.59348" lon="-0.92746">
        <ele>-5</ele>
        <time>2015-10-09T18:26:07Z</time>
      </trkpt>
      <trkpt lat="44.59345" lon="-0.92737">
        <ele>-5</ele>
        <time>2015-10-09T18:26:16Z</time>
      </trkpt>
      <trkpt lat="44.59339" lon="-0.92732">
        <ele>-5</ele>
        <time>2015-10-09T18:26:20Z</time>
      </trkpt>
      <trkpt lat="44.59332" lon="-0.92727">
        <ele>-5</ele>
        <time>2015-10-09T18:26:26Z</time>
      </trkpt>
      <trkpt lat="44.59325" lon="-0.92722">
        <ele>-5</ele>
        <time>2015-10-09T18:26:35Z</time>
      </trkpt>
      <trkpt lat="44.59318" lon="-0.92715">
        <ele>-5</ele>
        <time>2015-10-09T18:26:43Z</time>
      </trkpt>
      <trkpt lat="44.59312" lon="-0.9271">
        <ele>-5</ele>
        <time>2015-10-09T18:26:48Z</time>
      </trkpt>
      <trkpt lat="44.59305" lon="-0.92708">
        <ele>-5</ele>
        <time>2015-10-09T18:26:54Z</time>
      </trkpt>
      <trkpt lat="44.59298" lon="-0.92707">
        <ele>-6</ele>
        <time>2015-10-09T18:27:01Z</time>
      </trkpt>
      <trkpt lat="44.59286" lon="-0.92701">
        <ele>-5</ele>
        <time>2015-10-09T18:27:05Z</time>
      </trkpt>
      <trkpt lat="44.59267" lon="-0.92693">
        <ele>-5</ele>
        <time>2015-10-09T18:27:09Z</time>
      </trkpt>
      <trkpt lat="44.59254" lon="-0.92693">
        <ele>-4</ele>
        <time>2015-10-09T18:27:13Z</time>
      </trkpt>
      <trkpt lat="44.59248" lon="-0.92693">
        <ele>-4</ele>
        <time>2015-10-09T18:27:17Z</time>
      </trkpt>
      <trkpt lat="44.59239" lon="-0.92693">
        <ele>-3</ele>
        <time>2015-10-09T18:27:21Z</time>
      </trkpt>
      <trkpt lat="44.59228" lon="-0.9269">
        <ele>-3</ele>
        <time>2015-10-09T18:27:25Z</time>
      </trkpt>
      <trkpt lat="44.59216" lon="-0.92688">
        <ele>-2</ele>
        <time>2015-10-09T18:27:30Z</time>
      </trkpt>
      <trkpt lat="44.59208" lon="-0.92691">
        <ele>-1</ele>
        <time>2015-10-09T18:27:34Z</time>
      </trkpt>
      <trkpt lat="44.59201" lon="-0.9269">
        <ele>-1</ele>
        <time>2015-10-09T18:27:37Z</time>
      </trkpt>
      <trkpt lat="44.5919" lon="-0.92693">
        <ele>8</ele>
        <time>2015-10-09T18:27:41Z</time>
      </trkpt>
      <trkpt lat="44.59177" lon="-0.92698">
        <ele>7.8</ele>
        <time>2015-10-09T18:27:45Z</time>
      </trkpt>
      <trkpt lat="44.59165" lon="-0.92702">
        <ele>7.5</ele>
        <time>2015-10-09T18:27:49Z</time>
      </trkpt>
      <trkpt lat="44.59153" lon="-0.92701">
        <ele>7.8</ele>
        <time>2015-10-09T18:27:53Z</time>
      </trkpt>
      <trkpt lat="44.59141" lon="-0.927">
        <ele>1</ele>
        <time>2015-10-09T18:27:57Z</time>
      </trkpt>
      <trkpt lat="44.59125" lon="-0.92706">
        <ele>1</ele>
        <time>2015-10-09T18:28:02Z</time>
      </trkpt>
      <trkpt lat="44.59114" lon="-0.9271">
        <ele>2</ele>
        <time>2015-10-09T18:28:05Z</time>
      </trkpt>
      <trkpt lat="44.59101" lon="-0.92722">
        <ele>2</ele>
        <time>2015-10-09T18:28:10Z</time>
      </trkpt>
      <trkpt lat="44.59092" lon="-0.92729">
        <ele>3</ele>
        <time>2015-10-09T18:28:14Z</time>
      </trkpt>
      <trkpt lat="44.59082" lon="-0.92736">
        <ele>3</ele>
        <time>2015-10-09T18:28:19Z</time>
      </trkpt>
      <trkpt lat="44.59076" lon="-0.92732">
        <ele>4</ele>
        <time>2015-10-09T18:28:23Z</time>
      </trkpt>
      <trkpt lat="44.59068" lon="-0.92731">
        <ele>4</ele>
        <time>2015-10-09T18:28:28Z</time>
      </trkpt>
      <trkpt lat="44.59063" lon="-0.92733">
        <ele>5</ele>
        <time>2015-10-09T18:28:31Z</time>
      </trkpt>
      <trkpt lat="44.59052" lon="-0.92734">
        <ele>5</ele>
        <time>2015-10-09T18:28:35Z</time>
      </trkpt>
      <trkpt lat="44.59035" lon="-0.92731">
        <ele>6</ele>
        <time>2015-10-09T18:28:40Z</time>
      </trkpt>
      <trkpt lat="44.59024" lon="-0.92734">
        <ele>7</ele>
        <time>2015-10-09T18:28:44Z</time>
      </trkpt>
      <trkpt lat="44.59007" lon="-0.92732">
        <ele>8</ele>
        <time>2015-10-09T18:28:49Z</time>
      </trkpt>
      <trkpt lat="44.58999" lon="-0.92729">
        <ele>8</ele>
        <time>2015-10-09T18:28:52Z</time>
      </trkpt>
      <trkpt lat="44.58991" lon="-0.92726">
        <ele>9</ele>
        <time>2015-10-09T18:28:57Z</time>
      </trkpt>
      <trkpt lat="44.58978" lon="-0.92718">
        <ele>10</ele>
        <time>2015-10-09T18:29:02Z</time>
      </trkpt>
      <trkpt lat="44.5897" lon="-0.92713">
        <ele>11</ele>
        <time>2015-10-09T18:29:05Z</time>
      </trkpt>
      <trkpt lat="44.58956" lon="-0.92708">
        <ele>11</ele>
        <time>2015-10-09T18:29:09Z</time>
      </trkpt>
      <trkpt lat="44.58946" lon="-0.92706">
        <ele>12</ele>
        <time>2015-10-09T18:29:13Z</time>
      </trkpt>
      <trkpt lat="44.58937" lon="-0.92702">
        <ele>13</ele>
        <time>2015-10-09T18:29:17Z</time>
      </trkpt>
      <trkpt lat="44.58927" lon="-0.92693">
        <ele>14</ele>
        <time>2015-10-09T18:29:22Z</time>
      </trkpt>
      <trkpt lat="44.58922" lon="-0.92685">
        <ele>14</ele>
        <time>2015-10-09T18:29:26Z</time>
      </trkpt>
      <trkpt lat="44.58916" lon="-0.9268">
        <ele>15</ele>
        <time>2015-10-09T18:29:30Z</time>
      </trkpt>
      <trkpt lat="44.58909" lon="-0.9268">
        <ele>16</ele>
        <time>2015-10-09T18:29:33Z</time>
      </trkpt>
      <trkpt lat="44.58901" lon="-0.92672">
        <ele>17</ele>
        <time>2015-10-09T18:29:37Z</time>
      </trkpt>
      <trkpt lat="44.58895" lon="-0.92663">
        <ele>17</ele>
        <time>2015-10-09T18:29:42Z</time>
      </trkpt>
      <trkpt lat="44.58887" lon="-0.92658">
        <ele>17</ele>
        <time>2015-10-09T18:29:45Z</time>
      </trkpt>
      <trkpt lat="44.5888" lon="-0.92653">
        <ele>18</ele>
        <time>2015-10-09T18:29:49Z</time>
      </trkpt>
      <trkpt lat="44.58873" lon="-0.92647">
        <ele>19</ele>
        <time>2015-10-09T18:29:56Z</time>
      </trkpt>
      <trkpt lat="44.58865" lon="-0.92646">
        <ele>20</ele>
        <time>2015-10-09T18:30:00Z</time>
      </trkpt>
      <trkpt lat="44.58856" lon="-0.92639">
        <ele>20</ele>
        <time>2015-10-09T18:30:04Z</time>
      </trkpt>
      <trkpt lat="44.58848" lon="-0.92635">
        <ele>21</ele>
        <time>2015-10-09T18:30:07Z</time>
      </trkpt>
      <trkpt lat="44.58839" lon="-0.92629">
        <ele>21</ele>
        <time>2015-10-09T18:30:11Z</time>
      </trkpt>
      <trkpt lat="44.58825" lon="-0.92624">
        <ele>22</ele>
        <time>2015-10-09T18:30:16Z</time>
      </trkpt>
      <trkpt lat="44.58819" lon="-0.92619">
        <ele>23</ele>
        <time>2015-10-09T18:30:20Z</time>
      </trkpt>
      <trkpt lat="44.58813" lon="-0.92614">
        <ele>23</ele>
        <time>2015-10-09T18:30:23Z</time>
      </trkpt>
      <trkpt lat="44.58797" lon="-0.92602">
        <ele>23</ele>
        <time>2015-10-09T18:30:28Z</time>
      </trkpt>
      <trkpt lat="44.58789" lon="-0.92588">
        <ele>24</ele>
        <time>2015-10-09T18:30:32Z</time>
      </trkpt>
      <trkpt lat="44.58778" lon="-0.92577">
        <ele>24</ele>
        <time>2015-10-09T18:30:36Z</time>
      </trkpt>
      <trkpt lat="44.58767" lon="-0.92565">
        <ele>22</ele>
        <time>2015-10-09T18:30:40Z</time>
      </trkpt>
      <trkpt lat="44.5876" lon="-0.92556">
        <ele>22</ele>
        <time>2015-10-09T18:30:44Z</time>
      </trkpt>
      <trkpt lat="44.58755" lon="-0.92548">
        <ele>22</ele>
        <time>2015-10-09T18:30:47Z</time>
      </trkpt>
      <trkpt lat="44.58747" lon="-0.92537">
        <ele>23</ele>
        <time>2015-10-09T18:30:52Z</time>
      </trkpt>
      <trkpt lat="44.58743" lon="-0.9253">
        <ele>23</ele>
        <time>2015-10-09T18:30:56Z</time>
      </trkpt>
      <trkpt lat="44.58736" lon="-0.92522">
        <ele>23</ele>
        <time>2015-10-09T18:31:00Z</time>
      </trkpt>
      <trkpt lat="44.58729" lon="-0.92511">
        <ele>24</ele>
        <time>2015-10-09T18:31:05Z</time>
      </trkpt>
      <trkpt lat="44.58718" lon="-0.92503">
        <ele>24</ele>
        <time>2015-10-09T18:31:09Z</time>
      </trkpt>
      <trkpt lat="44.5871" lon="-0.92495">
        <ele>24</ele>
        <time>2015-10-09T18:31:13Z</time>
      </trkpt>
      <trkpt lat="44.58702" lon="-0.92487">
        <ele>25</ele>
        <time>2015-10-09T18:31:17Z</time>
      </trkpt>
      <trkpt lat="44.587" lon="-0.92475">
        <ele>25</ele>
        <time>2015-10-09T18:31:20Z</time>
      </trkpt>
      <trkpt lat="44.58699" lon="-0.92456">
        <ele>26</ele>
        <time>2015-10-09T18:31:25Z</time>
      </trkpt>
      <trkpt lat="44.58699" lon="-0.92444">
        <ele>26</ele>
        <time>2015-10-09T18:31:29Z</time>
      </trkpt>
      <trkpt lat="44.58695" lon="-0.92435">
        <ele>27</ele>
        <time>2015-10-09T18:31:32Z</time>
      </trkpt>
      <trkpt lat="44.58691" lon="-0.92429">
        <ele>27</ele>
        <time>2015-10-09T18:31:35Z</time>
      </trkpt>
      <trkpt lat="44.58683" lon="-0.92417">
        <ele>27</ele>
        <time>2015-10-09T18:31:38Z</time>
      </trkpt>
      <trkpt lat="44.58677" lon="-0.92405">
        <ele>27</ele>
        <time>2015-10-09T18:31:43Z</time>
      </trkpt>
      <trkpt lat="44.58676" lon="-0.92392">
        <ele>27</ele>
        <time>2015-10-09T18:31:47Z</time>
      </trkpt>
      <trkpt lat="44.5867" lon="-0.92382">
        <ele>27</ele>
        <time>2015-10-09T18:31:51Z</time>
      </trkpt>
      <trkpt lat="44.58669" lon="-0.92368">
        <ele>27</ele>
        <time>2015-10-09T18:31:55Z</time>
      </trkpt>
      <trkpt lat="44.58673" lon="-0.92349">
        <ele>28</ele>
        <time>2015-10-09T18:32:00Z</time>
      </trkpt>
      <trkpt lat="44.58673" lon="-0.92332">
        <ele>28</ele>
        <time>2015-10-09T18:32:04Z</time>
      </trkpt>
      <trkpt lat="44.58671" lon="-0.92322">
        <ele>28</ele>
        <time>2015-10-09T18:32:08Z</time>
      </trkpt>
      <trkpt lat="44.58663" lon="-0.92307">
        <ele>29</ele>
        <time>2015-10-09T18:32:12Z</time>
      </trkpt>
      <trkpt lat="44.58659" lon="-0.923">
        <ele>29</ele>
        <time>2015-10-09T18:32:16Z</time>
      </trkpt>
      <trkpt lat="44.58656" lon="-0.92292">
        <ele>30</ele>
        <time>2015-10-09T18:32:19Z</time>
      </trkpt>
      <trkpt lat="44.58653" lon="-0.92281">
        <ele>30</ele>
        <time>2015-10-09T18:32:23Z</time>
      </trkpt>
      <trkpt lat="44.58649" lon="-0.92267">
        <ele>30</ele>
        <time>2015-10-09T18:32:28Z</time>
      </trkpt>
      <trkpt lat="44.58651" lon="-0.92258">
        <ele>31</ele>
        <time>2015-10-09T18:32:35Z</time>
      </trkpt>
      <trkpt lat="44.58656" lon="-0.92254">
        <ele>31</ele>
        <time>2015-10-09T18:32:38Z</time>
      </trkpt>
      <trkpt lat="44.58663" lon="-0.92246">
        <ele>32</ele>
        <time>2015-10-09T18:32:42Z</time>
      </trkpt>
      <trkpt lat="44.58663" lon="-0.92234">
        <ele>33</ele>
        <time>2015-10-09T18:32:48Z</time>
      </trkpt>
      <trkpt lat="44.5867" lon="-0.92218">
        <ele>33</ele>
        <time>2015-10-09T18:32:52Z</time>
      </trkpt>
      <trkpt lat="44.58673" lon="-0.92193">
        <ele>34</ele>
        <time>2015-10-09T18:32:57Z</time>
      </trkpt>
      <trkpt lat="44.58669" lon="-0.92185">
        <ele>34</ele>
        <time>2015-10-09T18:33:01Z</time>
      </trkpt>
      <trkpt lat="44.58669" lon="-0.9217">
        <ele>35</ele>
        <time>2015-10-09T18:33:06Z</time>
      </trkpt>
      <trkpt lat="44.5867" lon="-0.92159">
        <ele>36</ele>
        <time>2015-10-09T18:33:10Z</time>
      </trkpt>
      <trkpt lat="44.58676" lon="-0.92146">
        <ele>36</ele>
        <time>2015-10-09T18:33:14Z</time>
      </trkpt>
      <trkpt lat="44.58684" lon="-0.92129">
        <ele>37</ele>
        <time>2015-10-09T18:33:18Z</time>
      </trkpt>
      <trkpt lat="44.58686" lon="-0.92125">
        <ele>37</ele>
        <time>2015-10-09T18:33:20Z</time>
      </trkpt>
      <trkpt lat="44.5869" lon="-0.92112">
        <ele>37</ele>
        <time>2015-10-09T18:33:23Z</time>
      </trkpt>
      <trkpt lat="44.58696" lon="-0.92087">
        <ele>37</ele>
        <time>2015-10-09T18:33:27Z</time>
      </trkpt>
      <trkpt lat="44.58699" lon="-0.92073">
        <ele>37</ele>
        <time>2015-10-09T18:33:30Z</time>
      </trkpt>
      <trkpt lat="44.587" lon="-0.92054">
        <ele>37</ele>
        <time>2015-10-09T18:33:34Z</time>
      </trkpt>
      <trkpt lat="44.587" lon="-0.92037">
        <ele>37</ele>
        <time>2015-10-09T18:33:38Z</time>
      </trkpt>
      <trkpt lat="44.58695" lon="-0.92022">
        <ele>37</ele>
        <time>2015-10-09T18:33:42Z</time>
      </trkpt>
      <trkpt lat="44.58696" lon="-0.9201">
        <ele>37</ele>
        <time>2015-10-09T18:33:49Z</time>
      </trkpt>
      <trkpt lat="44.58699" lon="-0.92002">
        <ele>38</ele>
        <time>2015-10-09T18:33:57Z</time>
      </trkpt>
      <trkpt lat="44.58702" lon="-0.91992">
        <ele>38</ele>
        <time>2015-10-09T18:34:02Z</time>
      </trkpt>
      <trkpt lat="44.58704" lon="-0.91984">
        <ele>39</ele>
        <time>2015-10-09T18:34:08Z</time>
      </trkpt>
      <trkpt lat="44.58723" lon="-0.9196">
        <ele>39</ele>
        <time>2015-10-09T18:34:13Z</time>
      </trkpt>
      <trkpt lat="44.58729" lon="-0.91945">
        <ele>39</ele>
        <time>2015-10-09T18:34:16Z</time>
      </trkpt>
      <trkpt lat="44.58733" lon="-0.91938">
        <ele>39</ele>
        <time>2015-10-09T18:34:18Z</time>
      </trkpt>
      <trkpt lat="44.58741" lon="-0.91924">
        <ele>39</ele>
        <time>2015-10-09T18:34:22Z</time>
      </trkpt>
      <trkpt lat="44.58747" lon="-0.91912">
        <ele>39</ele>
        <time>2015-10-09T18:34:25Z</time>
      </trkpt>
      <trkpt lat="44.58749" lon="-0.91896">
        <ele>39</ele>
        <time>2015-10-09T18:34:29Z</time>
      </trkpt>
      <trkpt lat="44.58752" lon="-0.91882">
        <ele>40</ele>
        <time>2015-10-09T18:34:33Z</time>
      </trkpt>
      <trkpt lat="44.58751" lon="-0.91872">
        <ele>40</ele>
        <time>2015-10-09T18:34:37Z</time>
      </trkpt>
      <trkpt lat="44.58754" lon="-0.91856">
        <ele>40</ele>
        <time>2015-10-09T18:34:42Z</time>
      </trkpt>
      <trkpt lat="44.58757" lon="-0.91849">
        <ele>41</ele>
        <time>2015-10-09T18:34:46Z</time>
      </trkpt>
      <trkpt lat="44.58762" lon="-0.91828">
        <ele>41</ele>
        <time>2015-10-09T18:34:50Z</time>
      </trkpt>
      <trkpt lat="44.58765" lon="-0.91813">
        <ele>41</ele>
        <time>2015-10-09T18:34:53Z</time>
      </trkpt>
      <trkpt lat="44.58768" lon="-0.91803">
        <ele>41</ele>
        <time>2015-10-09T18:34:56Z</time>
      </trkpt>
      <trkpt lat="44.58774" lon="-0.91766">
        <ele>41</ele>
        <time>2015-10-09T18:35:01Z</time>
      </trkpt>
      <trkpt lat="44.58774" lon="-0.91749">
        <ele>41</ele>
        <time>2015-10-09T18:35:05Z</time>
      </trkpt>
      <trkpt lat="44.58781" lon="-0.91723">
        <ele>41</ele>
        <time>2015-10-09T18:35:10Z</time>
      </trkpt>
      <trkpt lat="44.5879" lon="-0.91701">
        <ele>42</ele>
        <time>2015-10-09T18:35:14Z</time>
      </trkpt>
      <trkpt lat="44.58797" lon="-0.91685">
        <ele>42</ele>
        <time>2015-10-09T18:35:18Z</time>
      </trkpt>
      <trkpt lat="44.58806" lon="-0.9167">
        <ele>42</ele>
        <time>2015-10-09T18:35:23Z</time>
      </trkpt>
      <trkpt lat="44.58811" lon="-0.91663">
        <ele>43</ele>
        <time>2015-10-09T18:35:26Z</time>
      </trkpt>
      <trkpt lat="44.58822" lon="-0.91645">
        <ele>43</ele>
        <time>2015-10-09T18:35:30Z</time>
      </trkpt>
      <trkpt lat="44.58824" lon="-0.91629">
        <ele>43</ele>
        <time>2015-10-09T18:35:34Z</time>
      </trkpt>
      <trkpt lat="44.58825" lon="-0.9161">
        <ele>43</ele>
        <time>2015-10-09T18:35:38Z</time>
      </trkpt>
      <trkpt lat="44.58823" lon="-0.9159">
        <ele>43</ele>
        <time>2015-10-09T18:35:42Z</time>
      </trkpt>
      <trkpt lat="44.58819" lon="-0.91564">
        <ele>42</ele>
        <time>2015-10-09T18:35:47Z</time>
      </trkpt>
      <trkpt lat="44.58814" lon="-0.91549">
        <ele>42</ele>
        <time>2015-10-09T18:35:51Z</time>
      </trkpt>
      <trkpt lat="44.5881" lon="-0.91535">
        <ele>42</ele>
        <time>2015-10-09T18:35:54Z</time>
      </trkpt>
      <trkpt lat="44.58806" lon="-0.91513">
        <ele>41</ele>
        <time>2015-10-09T18:35:59Z</time>
      </trkpt>
      <trkpt lat="44.58795" lon="-0.91494">
        <ele>40</ele>
        <time>2015-10-09T18:36:04Z</time>
      </trkpt>
      <trkpt lat="44.58782" lon="-0.91477">
        <ele>39</ele>
        <time>2015-10-09T18:36:08Z</time>
      </trkpt>
      <trkpt lat="44.58771" lon="-0.91459">
        <ele>38</ele>
        <time>2015-10-09T18:36:12Z</time>
      </trkpt>
      <trkpt lat="44.58764" lon="-0.91444">
        <ele>38</ele>
        <time>2015-10-09T18:36:16Z</time>
      </trkpt>
      <trkpt lat="44.58754" lon="-0.91433">
        <ele>37</ele>
        <time>2015-10-09T18:36:20Z</time>
      </trkpt>
      <trkpt lat="44.5875" lon="-0.91423">
        <ele>37</ele>
        <time>2015-10-09T18:36:23Z</time>
      </trkpt>
      <trkpt lat="44.58745" lon="-0.9141">
        <ele>36</ele>
        <time>2015-10-09T18:36:27Z</time>
      </trkpt>
      <trkpt lat="44.58747" lon="-0.91396">
        <ele>36</ele>
        <time>2015-10-09T18:36:30Z</time>
      </trkpt>
      <trkpt lat="44.58744" lon="-0.9138">
        <ele>35</ele>
        <time>2015-10-09T18:36:34Z</time>
      </trkpt>
      <trkpt lat="44.58735" lon="-0.91365">
        <ele>35</ele>
        <time>2015-10-09T18:36:38Z</time>
      </trkpt>
      <trkpt lat="44.58733" lon="-0.91361">
        <ele>35</ele>
        <time>2015-10-09T18:36:39Z</time>
      </trkpt>
      <trkpt lat="44.58725" lon="-0.91342">
        <ele>34</ele>
        <time>2015-10-09T18:36:45Z</time>
      </trkpt>
      <trkpt lat="44.58721" lon="-0.91323">
        <ele>34</ele>
        <time>2015-10-09T18:36:50Z</time>
      </trkpt>
      <trkpt lat="44.5872" lon="-0.9131">
        <ele>34</ele>
        <time>2015-10-09T18:36:53Z</time>
      </trkpt>
      <trkpt lat="44.58719" lon="-0.91296">
        <ele>33</ele>
        <time>2015-10-09T18:36:57Z</time>
      </trkpt>
      <trkpt lat="44.58721" lon="-0.91275">
        <ele>32</ele>
        <time>2015-10-09T18:37:01Z</time>
      </trkpt>
      <trkpt lat="44.58722" lon="-0.91261">
        <ele>31</ele>
        <time>2015-10-09T18:37:05Z</time>
      </trkpt>
      <trkpt lat="44.58714" lon="-0.91242">
        <ele>30</ele>
        <time>2015-10-09T18:37:09Z</time>
      </trkpt>
      <trkpt lat="44.58706" lon="-0.91228">
        <ele>29</ele>
        <time>2015-10-09T18:37:13Z</time>
      </trkpt>
      <trkpt lat="44.587" lon="-0.91214">
        <ele>27</ele>
        <time>2015-10-09T18:37:18Z</time>
      </trkpt>
      <trkpt lat="44.58691" lon="-0.91206">
        <ele>27</ele>
        <time>2015-10-09T18:37:22Z</time>
      </trkpt>
      <trkpt lat="44.58686" lon="-0.91194">
        <ele>26</ele>
        <time>2015-10-09T18:37:25Z</time>
      </trkpt>
      <trkpt lat="44.58674" lon="-0.91181">
        <ele>26</ele>
        <time>2015-10-09T18:37:30Z</time>
      </trkpt>
      <trkpt lat="44.58662" lon="-0.91172">
        <ele>25</ele>
        <time>2015-10-09T18:37:34Z</time>
      </trkpt>
      <trkpt lat="44.5866" lon="-0.91161">
        <ele>24</ele>
        <time>2015-10-09T18:37:39Z</time>
      </trkpt>
      <trkpt lat="44.58659" lon="-0.91149">
        <ele>24</ele>
        <time>2015-10-09T18:37:43Z</time>
      </trkpt>
      <trkpt lat="44.58655" lon="-0.91139">
        <ele>23</ele>
        <time>2015-10-09T18:37:47Z</time>
      </trkpt>
      <trkpt lat="44.58645" lon="-0.91121">
        <ele>22</ele>
        <time>2015-10-09T18:37:51Z</time>
      </trkpt>
      <trkpt lat="44.58637" lon="-0.91112">
        <ele>22</ele>
        <time>2015-10-09T18:37:54Z</time>
      </trkpt>
      <trkpt lat="44.58633" lon="-0.91098">
        <ele>22</ele>
        <time>2015-10-09T18:37:58Z</time>
      </trkpt>
      <trkpt lat="44.58616" lon="-0.91081">
        <ele>21</ele>
        <time>2015-10-09T18:38:03Z</time>
      </trkpt>
      <trkpt lat="44.58598" lon="-0.91062">
        <ele>20</ele>
        <time>2015-10-09T18:38:08Z</time>
      </trkpt>
      <trkpt lat="44.58589" lon="-0.91052">
        <ele>19</ele>
        <time>2015-10-09T18:38:11Z</time>
      </trkpt>
      <trkpt lat="44.58581" lon="-0.91044">
        <ele>19</ele>
        <time>2015-10-09T18:38:14Z</time>
      </trkpt>
      <trkpt lat="44.58567" lon="-0.91032">
        <ele>18</ele>
        <time>2015-10-09T18:38:18Z</time>
      </trkpt>
      <trkpt lat="44.58559" lon="-0.91023">
        <ele>18</ele>
        <time>2015-10-09T18:38:21Z</time>
      </trkpt>
      <trkpt lat="44.58545" lon="-0.91011">
        <ele>17</ele>
        <time>2015-10-09T18:38:25Z</time>
      </trkpt>
      <trkpt lat="44.58536" lon="-0.91004">
        <ele>16</ele>
        <time>2015-10-09T18:38:28Z</time>
      </trkpt>
      <trkpt lat="44.58526" lon="-0.90996">
        <ele>16</ele>
        <time>2015-10-09T18:38:32Z</time>
      </trkpt>
      <trkpt lat="44.58511" lon="-0.90982">
        <ele>15</ele>
        <time>2015-10-09T18:38:36Z</time>
      </trkpt>
      <trkpt lat="44.58496" lon="-0.90968">
        <ele>14</ele>
        <time>2015-10-09T18:38:41Z</time>
      </trkpt>
      <trkpt lat="44.5849" lon="-0.90964">
        <ele>14</ele>
        <time>2015-10-09T18:38:43Z</time>
      </trkpt>
      <trkpt lat="44.58478" lon="-0.90951">
        <ele>14</ele>
        <time>2015-10-09T18:38:48Z</time>
      </trkpt>
      <trkpt lat="44.58469" lon="-0.90939">
        <ele>14</ele>
        <time>2015-10-09T18:38:51Z</time>
      </trkpt>
      <trkpt lat="44.58457" lon="-0.90926">
        <ele>14</ele>
        <time>2015-10-09T18:38:55Z</time>
      </trkpt>
      <trkpt lat="44.58439" lon="-0.90908">
        <ele>13</ele>
        <time>2015-10-09T18:38:59Z</time>
      </trkpt>
      <trkpt lat="44.58419" lon="-0.90889">
        <ele>12</ele>
        <time>2015-10-09T18:39:04Z</time>
      </trkpt>
      <trkpt lat="44.58409" lon="-0.90883">
        <ele>12</ele>
        <time>2015-10-09T18:39:07Z</time>
      </trkpt>
      <trkpt lat="44.58388" lon="-0.90865">
        <ele>11</ele>
        <time>2015-10-09T18:39:11Z</time>
      </trkpt>
      <trkpt lat="44.58375" lon="-0.90854">
        <ele>11</ele>
        <time>2015-10-09T18:39:15Z</time>
      </trkpt>
      <trkpt lat="44.58362" lon="-0.90836">
        <ele>10</ele>
        <time>2015-10-09T18:39:19Z</time>
      </trkpt>
      <trkpt lat="44.58356" lon="-0.90822">
        <ele>9</ele>
        <time>2015-10-09T18:39:23Z</time>
      </trkpt>
      <trkpt lat="44.58344" lon="-0.9081">
        <ele>9</ele>
        <time>2015-10-09T18:39:27Z</time>
      </trkpt>
      <trkpt lat="44.58328" lon="-0.90803">
        <ele>8</ele>
        <time>2015-10-09T18:39:30Z</time>
      </trkpt>
      <trkpt lat="44.58317" lon="-0.90792">
        <ele>7</ele>
        <time>2015-10-09T18:39:34Z</time>
      </trkpt>
      <trkpt lat="44.58305" lon="-0.90782">
        <ele>7</ele>
        <time>2015-10-09T18:39:37Z</time>
      </trkpt>
      <trkpt lat="44.5829" lon="-0.90769">
        <ele>6</ele>
        <time>2015-10-09T18:39:41Z</time>
      </trkpt>
      <trkpt lat="44.58274" lon="-0.90755">
        <ele>6</ele>
        <time>2015-10-09T18:39:45Z</time>
      </trkpt>
      <trkpt lat="44.58256" lon="-0.9074">
        <ele>6</ele>
        <time>2015-10-09T18:39:49Z</time>
      </trkpt>
      <trkpt lat="44.58239" lon="-0.90726">
        <ele>5</ele>
        <time>2015-10-09T18:39:52Z</time>
      </trkpt>
      <trkpt lat="44.58219" lon="-0.90712">
        <ele>5</ele>
        <time>2015-10-09T18:39:56Z</time>
      </trkpt>
      <trkpt lat="44.58198" lon="-0.90697">
        <ele>5</ele>
        <time>2015-10-09T18:40:00Z</time>
      </trkpt>
      <trkpt lat="44.58184" lon="-0.90679">
        <ele>5</ele>
        <time>2015-10-09T18:40:05Z</time>
      </trkpt>
      <trkpt lat="44.58149" lon="-0.90646">
        <ele>3</ele>
        <time>2015-10-09T18:40:10Z</time>
      </trkpt>
      <trkpt lat="44.58133" lon="-0.90634">
        <ele>3</ele>
        <time>2015-10-09T18:40:13Z</time>
      </trkpt>
      <trkpt lat="44.58118" lon="-0.90621">
        <ele>3</ele>
        <time>2015-10-09T18:40:17Z</time>
      </trkpt>
      <trkpt lat="44.581" lon="-0.90593">
        <ele>1</ele>
        <time>2015-10-09T18:40:21Z</time>
      </trkpt>
      <trkpt lat="44.58082" lon="-0.90575">
        <ele>1</ele>
        <time>2015-10-09T18:40:25Z</time>
      </trkpt>
      <trkpt lat="44.58067" lon="-0.90561">
        <ele>1</ele>
        <time>2015-10-09T18:40:28Z</time>
      </trkpt>
      <trkpt lat="44.5805" lon="-0.90546">
        <ele>13.2</ele>
        <time>2015-10-09T18:40:32Z</time>
      </trkpt>
      <trkpt lat="44.58034" lon="-0.90533">
        <ele>15.5</ele>
        <time>2015-10-09T18:40:37Z</time>
      </trkpt>
      <trkpt lat="44.5802" lon="-0.90521">
        <ele>16.3</ele>
        <time>2015-10-09T18:40:41Z</time>
      </trkpt>
      <trkpt lat="44.58002" lon="-0.90504">
        <ele>1</ele>
        <time>2015-10-09T18:40:45Z</time>
      </trkpt>
      <trkpt lat="44.57979" lon="-0.90483">
        <ele>2</ele>
        <time>2015-10-09T18:40:50Z</time>
      </trkpt>
      <trkpt lat="44.57967" lon="-0.9047">
        <ele>2</ele>
        <time>2015-10-09T18:40:53Z</time>
      </trkpt>
      <trkpt lat="44.57947" lon="-0.9045">
        <ele>3</ele>
        <time>2015-10-09T18:40:57Z</time>
      </trkpt>
      <trkpt lat="44.57922" lon="-0.90426">
        <ele>3</ele>
        <time>2015-10-09T18:41:02Z</time>
      </trkpt>
      <trkpt lat="44.57903" lon="-0.90405">
        <ele>3</ele>
        <time>2015-10-09T18:41:06Z</time>
      </trkpt>
      <trkpt lat="44.57886" lon="-0.90384">
        <ele>3</ele>
        <time>2015-10-09T18:41:10Z</time>
      </trkpt>
      <trkpt lat="44.57876" lon="-0.90374">
        <ele>3</ele>
        <time>2015-10-09T18:41:12Z</time>
      </trkpt>
      <trkpt lat="44.57862" lon="-0.90355">
        <ele>3</ele>
        <time>2015-10-09T18:41:16Z</time>
      </trkpt>
      <trkpt lat="44.57848" lon="-0.90334">
        <ele>2</ele>
        <time>2015-10-09T18:41:20Z</time>
      </trkpt>
      <trkpt lat="44.57827" lon="-0.90309">
        <ele>2</ele>
        <time>2015-10-09T18:41:25Z</time>
      </trkpt>
      <trkpt lat="44.5781" lon="-0.90292">
        <ele>2</ele>
        <time>2015-10-09T18:41:29Z</time>
      </trkpt>
      <trkpt lat="44.57802" lon="-0.90283">
        <ele>2</ele>
        <time>2015-10-09T18:41:32Z</time>
      </trkpt>
      <trkpt lat="44.57784" lon="-0.90268">
        <ele>2</ele>
        <time>2015-10-09T18:41:35Z</time>
      </trkpt>
      <trkpt lat="44.57762" lon="-0.90246">
        <ele>2</ele>
        <time>2015-10-09T18:41:40Z</time>
      </trkpt>
      <trkpt lat="44.57744" lon="-0.90228">
        <ele>2</ele>
        <time>2015-10-09T18:41:44Z</time>
      </trkpt>
      <trkpt lat="44.57727" lon="-0.90207">
        <ele>2</ele>
        <time>2015-10-09T18:41:49Z</time>
      </trkpt>
      <trkpt lat="44.57715" lon="-0.90186">
        <ele>1</ele>
        <time>2015-10-09T18:41:53Z</time>
      </trkpt>
      <trkpt lat="44.57701" lon="-0.9017">
        <ele>1</ele>
        <time>2015-10-09T18:41:56Z</time>
      </trkpt>
      <trkpt lat="44.57678" lon="-0.90145">
        <ele>1</ele>
        <time>2015-10-09T18:42:01Z</time>
      </trkpt>
      <trkpt lat="44.57656" lon="-0.90123">
        <ele>1</ele>
        <time>2015-10-09T18:42:06Z</time>
      </trkpt>
      <trkpt lat="44.57645" lon="-0.90108">
        <ele>1</ele>
        <time>2015-10-09T18:42:10Z</time>
      </trkpt>
      <trkpt lat="44.5763" lon="-0.90106">
        <ele>17.7</ele>
        <time>2015-10-09T18:42:14Z</time>
      </trkpt>
      <trkpt lat="44.57607" lon="-0.90098">
        <ele>17</ele>
        <time>2015-10-09T18:42:19Z</time>
      </trkpt>
      <trkpt lat="44.57594" lon="-0.90088">
        <ele>-1</ele>
        <time>2015-10-09T18:42:22Z</time>
      </trkpt>
      <trkpt lat="44.57575" lon="-0.9008">
        <ele>-1</ele>
        <time>2015-10-09T18:42:26Z</time>
      </trkpt>
      <trkpt lat="44.57563" lon="-0.90076">
        <ele>-1</ele>
        <time>2015-10-09T18:42:30Z</time>
      </trkpt>
      <trkpt lat="44.57544" lon="-0.90069">
        <ele>-1</ele>
        <time>2015-10-09T18:42:33Z</time>
      </trkpt>
      <trkpt lat="44.5752" lon="-0.90065">
        <ele>-1</ele>
        <time>2015-10-09T18:42:38Z</time>
      </trkpt>
      <trkpt lat="44.57495" lon="-0.90065">
        <ele>-1</ele>
        <time>2015-10-09T18:42:43Z</time>
      </trkpt>
      <trkpt lat="44.57473" lon="-0.90058">
        <ele>-1</ele>
        <time>2015-10-09T18:42:47Z</time>
      </trkpt>
      <trkpt lat="44.57453" lon="-0.90051">
        <ele>-1</ele>
        <time>2015-10-09T18:42:51Z</time>
      </trkpt>
      <trkpt lat="44.5743" lon="-0.90046">
        <ele>-1</ele>
        <time>2015-10-09T18:42:55Z</time>
      </trkpt>
      <trkpt lat="44.57412" lon="-0.9005">
        <ele>-1</ele>
        <time>2015-10-09T18:42:59Z</time>
      </trkpt>
      <trkpt lat="44.5739" lon="-0.90058">
        <ele>-1</ele>
        <time>2015-10-09T18:43:04Z</time>
      </trkpt>
      <trkpt lat="44.57372" lon="-0.90069">
        <ele>-1</ele>
        <time>2015-10-09T18:43:08Z</time>
      </trkpt>
      <trkpt lat="44.57357" lon="-0.90076">
        <ele>-1</ele>
        <time>2015-10-09T18:43:11Z</time>
      </trkpt>
      <trkpt lat="44.5734" lon="-0.90078">
        <ele>-1</ele>
        <time>2015-10-09T18:43:14Z</time>
      </trkpt>
      <trkpt lat="44.57315" lon="-0.90079">
        <ele>-1</ele>
        <time>2015-10-09T18:43:19Z</time>
      </trkpt>
      <trkpt lat="44.57302" lon="-0.90078">
        <ele>-1</ele>
        <time>2015-10-09T18:43:23Z</time>
      </trkpt>
      <trkpt lat="44.57284" lon="-0.90086">
        <ele>-1</ele>
        <time>2015-10-09T18:43:27Z</time>
      </trkpt>
      <trkpt lat="44.57265" lon="-0.9009">
        <ele>-2</ele>
        <time>2015-10-09T18:43:30Z</time>
      </trkpt>
      <trkpt lat="44.57238" lon="-0.90097">
        <ele>-2</ele>
        <time>2015-10-09T18:43:35Z</time>
      </trkpt>
      <trkpt lat="44.57218" lon="-0.90101">
        <ele>-2</ele>
        <time>2015-10-09T18:43:39Z</time>
      </trkpt>
      <trkpt lat="44.57204" lon="-0.90101">
        <ele>-3</ele>
        <time>2015-10-09T18:43:42Z</time>
      </trkpt>
      <trkpt lat="44.57199" lon="-0.90102">
        <ele>-3</ele>
        <time>2015-10-09T18:43:44Z</time>
      </trkpt>
      <trkpt lat="44.57185" lon="-0.90106">
        <ele>-3</ele>
        <time>2015-10-09T18:43:47Z</time>
      </trkpt>
      <trkpt lat="44.57164" lon="-0.9011">
        <ele>-2</ele>
        <time>2015-10-09T18:43:51Z</time>
      </trkpt>
      <trkpt lat="44.57147" lon="-0.90103">
        <ele>-2</ele>
        <time>2015-10-09T18:43:55Z</time>
      </trkpt>
      <trkpt lat="44.57126" lon="-0.90096">
        <ele>-2</ele>
        <time>2015-10-09T18:44:00Z</time>
      </trkpt>
      <trkpt lat="44.57114" lon="-0.90093">
        <ele>-2</ele>
        <time>2015-10-09T18:44:03Z</time>
      </trkpt>
      <trkpt lat="44.57096" lon="-0.90088">
        <ele>-2</ele>
        <time>2015-10-09T18:44:07Z</time>
      </trkpt>
      <trkpt lat="44.57076" lon="-0.90079">
        <ele>-2</ele>
        <time>2015-10-09T18:44:12Z</time>
      </trkpt>
      <trkpt lat="44.57062" lon="-0.9007">
        <ele>-2</ele>
        <time>2015-10-09T18:44:17Z</time>
      </trkpt>
      <trkpt lat="44.57046" lon="-0.90057">
        <ele>-2</ele>
        <time>2015-10-09T18:44:21Z</time>
      </trkpt>
      <trkpt lat="44.57034" lon="-0.90043">
        <ele>-2</ele>
        <time>2015-10-09T18:44:25Z</time>
      </trkpt>
      <trkpt lat="44.5702" lon="-0.90031">
        <ele>-2</ele>
        <time>2015-10-09T18:44:29Z</time>
      </trkpt>
      <trkpt lat="44.57009" lon="-0.90013">
        <ele>-2</ele>
        <time>2015-10-09T18:44:34Z</time>
      </trkpt>
      <trkpt lat="44.57002" lon="-0.9">
        <ele>-2</ele>
        <time>2015-10-09T18:44:37Z</time>
      </trkpt>
      <trkpt lat="44.56999" lon="-0.89985">
        <ele>-2</ele>
        <time>2015-10-09T18:44:41Z</time>
      </trkpt>
      <trkpt lat="44.57" lon="-0.89972">
        <ele>-2</ele>
        <time>2015-10-09T18:44:46Z</time>
      </trkpt>
      <trkpt lat="44.56998" lon="-0.89952">
        <ele>-1</ele>
        <time>2015-10-09T18:44:51Z</time>
      </trkpt>
      <trkpt lat="44.56996" lon="-0.89941">
        <ele>-1</ele>
        <time>2015-10-09T18:44:55Z</time>
      </trkpt>
      <trkpt lat="44.56991" lon="-0.89926">
        <ele>17</ele>
        <time>2015-10-09T18:44:59Z</time>
      </trkpt>
      <trkpt lat="44.56991" lon="-0.89915">
        <ele>17</ele>
        <time>2015-10-09T18:45:02Z</time>
      </trkpt>
      <trkpt lat="44.5699" lon="-0.89902">
        <ele>17</ele>
        <time>2015-10-09T18:45:05Z</time>
      </trkpt>
      <trkpt lat="44.56993" lon="-0.89885">
        <ele>1</ele>
        <time>2015-10-09T18:45:09Z</time>
      </trkpt>
      <trkpt lat="44.56991" lon="-0.89871">
        <ele>2</ele>
        <time>2015-10-09T18:45:13Z</time>
      </trkpt>
      <trkpt lat="44.56989" lon="-0.89851">
        <ele>4</ele>
        <time>2015-10-09T18:45:17Z</time>
      </trkpt>
      <trkpt lat="44.56984" lon="-0.89825">
        <ele>5</ele>
        <time>2015-10-09T18:45:22Z</time>
      </trkpt>
      <trkpt lat="44.56982" lon="-0.89811">
        <ele>6</ele>
        <time>2015-10-09T18:45:26Z</time>
      </trkpt>
      <trkpt lat="44.56984" lon="-0.89799">
        <ele>7</ele>
        <time>2015-10-09T18:45:30Z</time>
      </trkpt>
      <trkpt lat="44.56992" lon="-0.89785">
        <ele>9</ele>
        <time>2015-10-09T18:45:35Z</time>
      </trkpt>
      <trkpt lat="44.57001" lon="-0.89774">
        <ele>10</ele>
        <time>2015-10-09T18:45:39Z</time>
      </trkpt>
      <trkpt lat="44.57013" lon="-0.89757">
        <ele>12</ele>
        <time>2015-10-09T18:45:44Z</time>
      </trkpt>
      <trkpt lat="44.57023" lon="-0.89739">
        <ele>14</ele>
        <time>2015-10-09T18:45:48Z</time>
      </trkpt>
      <trkpt lat="44.5703" lon="-0.89721">
        <ele>15</ele>
        <time>2015-10-09T18:45:52Z</time>
      </trkpt>
      <trkpt lat="44.57042" lon="-0.897">
        <ele>16</ele>
        <time>2015-10-09T18:45:56Z</time>
      </trkpt>
      <trkpt lat="44.57049" lon="-0.89682">
        <ele>18</ele>
        <time>2015-10-09T18:46:01Z</time>
      </trkpt>
      <trkpt lat="44.57056" lon="-0.89666">
        <ele>19</ele>
        <time>2015-10-09T18:46:05Z</time>
      </trkpt>
      <trkpt lat="44.57067" lon="-0.89656">
        <ele>20</ele>
        <time>2015-10-09T18:46:09Z</time>
      </trkpt>
      <trkpt lat="44.57081" lon="-0.8964">
        <ele>20</ele>
        <time>2015-10-09T18:46:14Z</time>
      </trkpt>
      <trkpt lat="44.57088" lon="-0.89638">
        <ele>21</ele>
        <time>2015-10-09T18:46:18Z</time>
      </trkpt>
      <trkpt lat="44.57098" lon="-0.8962">
        <ele>22</ele>
        <time>2015-10-09T18:46:22Z</time>
      </trkpt>
      <trkpt lat="44.57112" lon="-0.89595">
        <ele>24</ele>
        <time>2015-10-09T18:46:27Z</time>
      </trkpt>
      <trkpt lat="44.57118" lon="-0.89585">
        <ele>25</ele>
        <time>2015-10-09T18:46:30Z</time>
      </trkpt>
      <trkpt lat="44.57128" lon="-0.89568">
        <ele>25</ele>
        <time>2015-10-09T18:46:34Z</time>
      </trkpt>
      <trkpt lat="44.57132" lon="-0.89559">
        <ele>26</ele>
        <time>2015-10-09T18:46:36Z</time>
      </trkpt>
      <trkpt lat="44.57146" lon="-0.89545">
        <ele>26</ele>
        <time>2015-10-09T18:46:41Z</time>
      </trkpt>
      <trkpt lat="44.57153" lon="-0.89533">
        <ele>27</ele>
        <time>2015-10-09T18:46:44Z</time>
      </trkpt>
      <trkpt lat="44.5716" lon="-0.89518">
        <ele>27</ele>
        <time>2015-10-09T18:46:47Z</time>
      </trkpt>
      <trkpt lat="44.5717" lon="-0.89507">
        <ele>28</ele>
        <time>2015-10-09T18:46:50Z</time>
      </trkpt>
      <trkpt lat="44.57174" lon="-0.89485">
        <ele>28</ele>
        <time>2015-10-09T18:46:54Z</time>
      </trkpt>
      <trkpt lat="44.57168" lon="-0.89462">
        <ele>28</ele>
        <time>2015-10-09T18:46:58Z</time>
      </trkpt>
      <trkpt lat="44.57162" lon="-0.89441">
        <ele>28</ele>
        <time>2015-10-09T18:47:02Z</time>
      </trkpt>
      <trkpt lat="44.5716" lon="-0.89434">
        <ele>28</ele>
        <time>2015-10-09T18:47:05Z</time>
      </trkpt>
      <trkpt lat="44.57152" lon="-0.89405">
        <ele>27</ele>
        <time>2015-10-09T18:47:10Z</time>
      </trkpt>
      <trkpt lat="44.57145" lon="-0.89397">
        <ele>27</ele>
        <time>2015-10-09T18:47:13Z</time>
      </trkpt>
      <trkpt lat="44.57129" lon="-0.89375">
        <ele>27</ele>
        <time>2015-10-09T18:47:18Z</time>
      </trkpt>
      <trkpt lat="44.5712" lon="-0.89358">
        <ele>27</ele>
        <time>2015-10-09T18:47:22Z</time>
      </trkpt>
      <trkpt lat="44.57109" lon="-0.89344">
        <ele>27</ele>
        <time>2015-10-09T18:47:26Z</time>
      </trkpt>
      <trkpt lat="44.57095" lon="-0.89322">
        <ele>27</ele>
        <time>2015-10-09T18:47:31Z</time>
      </trkpt>
      <trkpt lat="44.5708" lon="-0.89299">
        <ele>27</ele>
        <time>2015-10-09T18:47:35Z</time>
      </trkpt>
      <trkpt lat="44.57063" lon="-0.89267">
        <ele>26</ele>
        <time>2015-10-09T18:47:40Z</time>
      </trkpt>
      <trkpt lat="44.5705" lon="-0.89246">
        <ele>26</ele>
        <time>2015-10-09T18:47:44Z</time>
      </trkpt>
      <trkpt lat="44.57037" lon="-0.89227">
        <ele>26</ele>
        <time>2015-10-09T18:47:48Z</time>
      </trkpt>
      <trkpt lat="44.57024" lon="-0.89203">
        <ele>26</ele>
        <time>2015-10-09T18:47:52Z</time>
      </trkpt>
      <trkpt lat="44.57014" lon="-0.89187">
        <ele>25</ele>
        <time>2015-10-09T18:47:55Z</time>
      </trkpt>
      <trkpt lat="44.57001" lon="-0.89168">
        <ele>24</ele>
        <time>2015-10-09T18:47:59Z</time>
      </trkpt>
      <trkpt lat="44.5699" lon="-0.89155">
        <ele>24</ele>
        <time>2015-10-09T18:48:02Z</time>
      </trkpt>
      <trkpt lat="44.56973" lon="-0.89135">
        <ele>23</ele>
        <time>2015-10-09T18:48:07Z</time>
      </trkpt>
      <trkpt lat="44.56948" lon="-0.8911">
        <ele>22</ele>
        <time>2015-10-09T18:48:12Z</time>
      </trkpt>
      <trkpt lat="44.56934" lon="-0.89096">
        <ele>21</ele>
        <time>2015-10-09T18:48:15Z</time>
      </trkpt>
      <trkpt lat="44.56921" lon="-0.89076">
        <ele>20</ele>
        <time>2015-10-09T18:48:20Z</time>
      </trkpt>
      <trkpt lat="44.56903" lon="-0.89061">
        <ele>20</ele>
        <time>2015-10-09T18:48:25Z</time>
      </trkpt>
      <trkpt lat="44.5689" lon="-0.89043">
        <ele>19</ele>
        <time>2015-10-09T18:48:29Z</time>
      </trkpt>
      <trkpt lat="44.56883" lon="-0.8902">
        <ele>18</ele>
        <time>2015-10-09T18:48:34Z</time>
      </trkpt>
      <trkpt lat="44.56872" lon="-0.88996">
        <ele>18</ele>
        <time>2015-10-09T18:48:39Z</time>
      </trkpt>
      <trkpt lat="44.56861" lon="-0.88979">
        <ele>17</ele>
        <time>2015-10-09T18:48:43Z</time>
      </trkpt>
      <trkpt lat="44.56842" lon="-0.88953">
        <ele>17</ele>
        <time>2015-10-09T18:48:48Z</time>
      </trkpt>
      <trkpt lat="44.56833" lon="-0.88945">
        <ele>16</ele>
        <time>2015-10-09T18:48:50Z</time>
      </trkpt>
      <trkpt lat="44.56816" lon="-0.88924">
        <ele>16</ele>
        <time>2015-10-09T18:48:54Z</time>
      </trkpt>
      <trkpt lat="44.56794" lon="-0.88896">
        <ele>14</ele>
        <time>2015-10-09T18:48:59Z</time>
      </trkpt>
      <trkpt lat="44.56785" lon="-0.88883">
        <ele>14</ele>
        <time>2015-10-09T18:49:03Z</time>
      </trkpt>
      <trkpt lat="44.56768" lon="-0.88858">
        <ele>14</ele>
        <time>2015-10-09T18:49:07Z</time>
      </trkpt>
      <trkpt lat="44.5675" lon="-0.88832">
        <ele>14</ele>
        <time>2015-10-09T18:49:12Z</time>
      </trkpt>
      <trkpt lat="44.56735" lon="-0.88816">
        <ele>14</ele>
        <time>2015-10-09T18:49:16Z</time>
      </trkpt>
      <trkpt lat="44.56717" lon="-0.88793">
        <ele>14</ele>
        <time>2015-10-09T18:49:21Z</time>
      </trkpt>
      <trkpt lat="44.567" lon="-0.88774">
        <ele>14</ele>
        <time>2015-10-09T18:49:25Z</time>
      </trkpt>
      <trkpt lat="44.56689" lon="-0.88754">
        <ele>15</ele>
        <time>2015-10-09T18:49:29Z</time>
      </trkpt>
      <trkpt lat="44.56678" lon="-0.88731">
        <ele>14</ele>
        <time>2015-10-09T18:49:33Z</time>
      </trkpt>
      <trkpt lat="44.5666" lon="-0.88704">
        <ele>13</ele>
        <time>2015-10-09T18:49:38Z</time>
      </trkpt>
      <trkpt lat="44.56651" lon="-0.8868">
        <ele>12</ele>
        <time>2015-10-09T18:49:42Z</time>
      </trkpt>
      <trkpt lat="44.56634" lon="-0.8865">
        <ele>10</ele>
        <time>2015-10-09T18:49:47Z</time>
      </trkpt>
      <trkpt lat="44.56618" lon="-0.8863">
        <ele>9</ele>
        <time>2015-10-09T18:49:51Z</time>
      </trkpt>
      <trkpt lat="44.566" lon="-0.88609">
        <ele>8</ele>
        <time>2015-10-09T18:49:55Z</time>
      </trkpt>
      <trkpt lat="44.56583" lon="-0.88589">
        <ele>7</ele>
        <time>2015-10-09T18:49:59Z</time>
      </trkpt>
      <trkpt lat="44.56569" lon="-0.8857">
        <ele>6</ele>
        <time>2015-10-09T18:50:03Z</time>
      </trkpt>
      <trkpt lat="44.56552" lon="-0.88547">
        <ele>6</ele>
        <time>2015-10-09T18:50:08Z</time>
      </trkpt>
      <trkpt lat="44.56541" lon="-0.8853">
        <ele>6</ele>
        <time>2015-10-09T18:50:12Z</time>
      </trkpt>
      <trkpt lat="44.56529" lon="-0.88513">
        <ele>5</ele>
        <time>2015-10-09T18:50:16Z</time>
      </trkpt>
      <trkpt lat="44.5651" lon="-0.88489">
        <ele>5</ele>
        <time>2015-10-09T18:50:21Z</time>
      </trkpt>
      <trkpt lat="44.5649" lon="-0.88465">
        <ele>4</ele>
        <time>2015-10-09T18:50:26Z</time>
      </trkpt>
      <trkpt lat="44.56483" lon="-0.88452">
        <ele>4</ele>
        <time>2015-10-09T18:50:29Z</time>
      </trkpt>
      <trkpt lat="44.56465" lon="-0.88425">
        <ele>4</ele>
        <time>2015-10-09T18:50:34Z</time>
      </trkpt>
      <trkpt lat="44.56452" lon="-0.88405">
        <ele>4</ele>
        <time>2015-10-09T18:50:38Z</time>
      </trkpt>
      <trkpt lat="44.56445" lon="-0.88391">
        <ele>4</ele>
        <time>2015-10-09T18:50:41Z</time>
      </trkpt>
      <trkpt lat="44.56427" lon="-0.88373">
        <ele>4</ele>
        <time>2015-10-09T18:50:45Z</time>
      </trkpt>
      <trkpt lat="44.56412" lon="-0.88352">
        <ele>4</ele>
        <time>2015-10-09T18:50:49Z</time>
      </trkpt>
      <trkpt lat="44.56399" lon="-0.88334">
        <ele>4</ele>
        <time>2015-10-09T18:50:53Z</time>
      </trkpt>
      <trkpt lat="44.56387" lon="-0.88317">
        <ele>4</ele>
        <time>2015-10-09T18:50:57Z</time>
      </trkpt>
      <trkpt lat="44.56376" lon="-0.88303">
        <ele>5</ele>
        <time>2015-10-09T18:51:00Z</time>
      </trkpt>
      <trkpt lat="44.56362" lon="-0.88284">
        <ele>5</ele>
        <time>2015-10-09T18:51:04Z</time>
      </trkpt>
      <trkpt lat="44.56349" lon="-0.88263">
        <ele>5</ele>
        <time>2015-10-09T18:51:08Z</time>
      </trkpt>
      <trkpt lat="44.56331" lon="-0.88243">
        <ele>6</ele>
        <time>2015-10-09T18:51:12Z</time>
      </trkpt>
      <trkpt lat="44.56314" lon="-0.88222">
        <ele>6</ele>
        <time>2015-10-09T18:51:17Z</time>
      </trkpt>
      <trkpt lat="44.56301" lon="-0.88208">
        <ele>7</ele>
        <time>2015-10-09T18:51:21Z</time>
      </trkpt>
      <trkpt lat="44.56293" lon="-0.88192">
        <ele>8</ele>
        <time>2015-10-09T18:51:25Z</time>
      </trkpt>
      <trkpt lat="44.56285" lon="-0.88185">
        <ele>9</ele>
        <time>2015-10-09T18:51:32Z</time>
      </trkpt>
      <trkpt lat="44.5628" lon="-0.88176">
        <ele>8</ele>
        <time>2015-10-09T18:51:48Z</time>
      </trkpt>
      <trkpt lat="44.56266" lon="-0.88187">
        <ele>7</ele>
        <time>2015-10-09T18:51:52Z</time>
      </trkpt>
      <trkpt lat="44.56251" lon="-0.88203">
        <ele>7</ele>
        <time>2015-10-09T18:51:56Z</time>
      </trkpt>
      <trkpt lat="44.5624" lon="-0.88219">
        <ele>8</ele>
        <time>2015-10-09T18:52:00Z</time>
      </trkpt>
      <trkpt lat="44.56234" lon="-0.88234">
        <ele>8</ele>
        <time>2015-10-09T18:52:04Z</time>
      </trkpt>
      <trkpt lat="44.56224" lon="-0.88248">
        <ele>9</ele>
        <time>2015-10-09T18:52:08Z</time>
      </trkpt>
      <trkpt lat="44.56221" lon="-0.8826">
        <ele>10</ele>
        <time>2015-10-09T18:52:11Z</time>
      </trkpt>
      <trkpt lat="44.56212" lon="-0.88276">
        <ele>10</ele>
        <time>2015-10-09T18:52:15Z</time>
      </trkpt>
      <trkpt lat="44.56207" lon="-0.88304">
        <ele>10</ele>
        <time>2015-10-09T18:52:20Z</time>
      </trkpt>
      <trkpt lat="44.56198" lon="-0.88327">
        <ele>11</ele>
        <time>2015-10-09T18:52:24Z</time>
      </trkpt>
      <trkpt lat="44.56179" lon="-0.88352">
        <ele>11</ele>
        <time>2015-10-09T18:52:29Z</time>
      </trkpt>
      <trkpt lat="44.56168" lon="-0.88368">
        <ele>11</ele>
        <time>2015-10-09T18:52:32Z</time>
      </trkpt>
      <trkpt lat="44.56152" lon="-0.88384">
        <ele>11</ele>
        <time>2015-10-09T18:52:36Z</time>
      </trkpt>
      <trkpt lat="44.56145" lon="-0.88402">
        <ele>12</ele>
        <time>2015-10-09T18:52:40Z</time>
      </trkpt>
      <trkpt lat="44.56136" lon="-0.88418">
        <ele>12</ele>
        <time>2015-10-09T18:52:44Z</time>
      </trkpt>
      <trkpt lat="44.56133" lon="-0.88423">
        <ele>12</ele>
        <time>2015-10-09T18:52:46Z</time>
      </trkpt>
      <trkpt lat="44.56127" lon="-0.88437">
        <ele>12</ele>
        <time>2015-10-09T18:52:49Z</time>
      </trkpt>
      <trkpt lat="44.56113" lon="-0.88458">
        <ele>12</ele>
        <time>2015-10-09T18:52:53Z</time>
      </trkpt>
      <trkpt lat="44.56099" lon="-0.88484">
        <ele>12</ele>
        <time>2015-10-09T18:52:58Z</time>
      </trkpt>
      <trkpt lat="44.56088" lon="-0.88502">
        <ele>12</ele>
        <time>2015-10-09T18:53:02Z</time>
      </trkpt>
      <trkpt lat="44.56077" lon="-0.88516">
        <ele>12</ele>
        <time>2015-10-09T18:53:05Z</time>
      </trkpt>
      <trkpt lat="44.56066" lon="-0.88525">
        <ele>11</ele>
        <time>2015-10-09T18:53:09Z</time>
      </trkpt>
      <trkpt lat="44.56054" lon="-0.88521">
        <ele>11</ele>
        <time>2015-10-09T18:53:13Z</time>
      </trkpt>
      <trkpt lat="44.56035" lon="-0.88512">
        <ele>11</ele>
        <time>2015-10-09T18:53:17Z</time>
      </trkpt>
      <trkpt lat="44.56019" lon="-0.885">
        <ele>12</ele>
        <time>2015-10-09T18:53:21Z</time>
      </trkpt>
      <trkpt lat="44.56" lon="-0.88487">
        <ele>13</ele>
        <time>2015-10-09T18:53:25Z</time>
      </trkpt>
      <trkpt lat="44.55976" lon="-0.88467">
        <ele>14</ele>
        <time>2015-10-09T18:53:30Z</time>
      </trkpt>
      <trkpt lat="44.55965" lon="-0.88456">
        <ele>14</ele>
        <time>2015-10-09T18:53:34Z</time>
      </trkpt>
      <trkpt lat="44.55944" lon="-0.8843">
        <ele>16</ele>
        <time>2015-10-09T18:53:39Z</time>
      </trkpt>
      <trkpt lat="44.55931" lon="-0.8841">
        <ele>17</ele>
        <time>2015-10-09T18:53:43Z</time>
      </trkpt>
      <trkpt lat="44.55919" lon="-0.88396">
        <ele>17</ele>
        <time>2015-10-09T18:53:46Z</time>
      </trkpt>
      <trkpt lat="44.55904" lon="-0.88372">
        <ele>19</ele>
        <time>2015-10-09T18:53:51Z</time>
      </trkpt>
      <trkpt lat="44.55894" lon="-0.88357">
        <ele>19</ele>
        <time>2015-10-09T18:53:54Z</time>
      </trkpt>
      <trkpt lat="44.55881" lon="-0.88338">
        <ele>20</ele>
        <time>2015-10-09T18:53:58Z</time>
      </trkpt>
      <trkpt lat="44.55869" lon="-0.88323">
        <ele>21</ele>
        <time>2015-10-09T18:54:02Z</time>
      </trkpt>
      <trkpt lat="44.55855" lon="-0.88307">
        <ele>21</ele>
        <time>2015-10-09T18:54:06Z</time>
      </trkpt>
      <trkpt lat="44.55839" lon="-0.88287">
        <ele>22</ele>
        <time>2015-10-09T18:54:11Z</time>
      </trkpt>
      <trkpt lat="44.55822" lon="-0.88265">
        <ele>23</ele>
        <time>2015-10-09T18:54:15Z</time>
      </trkpt>
      <trkpt lat="44.55807" lon="-0.88246">
        <ele>23</ele>
        <time>2015-10-09T18:54:20Z</time>
      </trkpt>
      <trkpt lat="44.55796" lon="-0.8823">
        <ele>24</ele>
        <time>2015-10-09T18:54:24Z</time>
      </trkpt>
      <trkpt lat="44.55785" lon="-0.88216">
        <ele>25</ele>
        <time>2015-10-09T18:54:28Z</time>
      </trkpt>
      <trkpt lat="44.55771" lon="-0.88198">
        <ele>26</ele>
        <time>2015-10-09T18:54:33Z</time>
      </trkpt>
      <trkpt lat="44.5576" lon="-0.88188">
        <ele>27</ele>
        <time>2015-10-09T18:54:37Z</time>
      </trkpt>
      <trkpt lat="44.55741" lon="-0.88163">
        <ele>28</ele>
        <time>2015-10-09T18:54:42Z</time>
      </trkpt>
      <trkpt lat="44.55728" lon="-0.88137">
        <ele>29</ele>
        <time>2015-10-09T18:54:47Z</time>
      </trkpt>
      <trkpt lat="44.5572" lon="-0.8811">
        <ele>30</ele>
        <time>2015-10-09T18:54:51Z</time>
      </trkpt>
      <trkpt lat="44.55713" lon="-0.88093">
        <ele>31</ele>
        <time>2015-10-09T18:54:54Z</time>
      </trkpt>
      <trkpt lat="44.55706" lon="-0.88077">
        <ele>32</ele>
        <time>2015-10-09T18:54:57Z</time>
      </trkpt>
      <trkpt lat="44.557" lon="-0.88053">
        <ele>33</ele>
        <time>2015-10-09T18:55:02Z</time>
      </trkpt>
      <trkpt lat="44.55691" lon="-0.88027">
        <ele>35</ele>
        <time>2015-10-09T18:55:07Z</time>
      </trkpt>
      <trkpt lat="44.55686" lon="-0.88001">
        <ele>37</ele>
        <time>2015-10-09T18:55:11Z</time>
      </trkpt>
      <trkpt lat="44.55681" lon="-0.87975">
        <ele>40</ele>
        <time>2015-10-09T18:55:16Z</time>
      </trkpt>
      <trkpt lat="44.55681" lon="-0.87955">
        <ele>41</ele>
        <time>2015-10-09T18:55:20Z</time>
      </trkpt>
      <trkpt lat="44.55679" lon="-0.87932">
        <ele>43</ele>
        <time>2015-10-09T18:55:24Z</time>
      </trkpt>
      <trkpt lat="44.55675" lon="-0.87914">
        <ele>44</ele>
        <time>2015-10-09T18:55:28Z</time>
      </trkpt>
      <trkpt lat="44.55675" lon="-0.87899">
        <ele>44</ele>
        <time>2015-10-09T18:55:32Z</time>
      </trkpt>
      <trkpt lat="44.55671" lon="-0.87868">
        <ele>45</ele>
        <time>2015-10-09T18:55:36Z</time>
      </trkpt>
      <trkpt lat="44.55663" lon="-0.87849">
        <ele>45</ele>
        <time>2015-10-09T18:55:39Z</time>
      </trkpt>
      <trkpt lat="44.55645" lon="-0.87816">
        <ele>47</ele>
        <time>2015-10-09T18:55:44Z</time>
      </trkpt>
      <trkpt lat="44.55633" lon="-0.87794">
        <ele>47</ele>
        <time>2015-10-09T18:55:49Z</time>
      </trkpt>
      <trkpt lat="44.55625" lon="-0.87779">
        <ele>47</ele>
        <time>2015-10-09T18:55:53Z</time>
      </trkpt>
      <trkpt lat="44.55616" lon="-0.87761">
        <ele>47</ele>
        <time>2015-10-09T18:55:58Z</time>
      </trkpt>
      <trkpt lat="44.55603" lon="-0.87747">
        <ele>47</ele>
        <time>2015-10-09T18:56:02Z</time>
      </trkpt>
      <trkpt lat="44.55593" lon="-0.8773">
        <ele>48</ele>
        <time>2015-10-09T18:56:06Z</time>
      </trkpt>
      <trkpt lat="44.55586" lon="-0.87719">
        <ele>48</ele>
        <time>2015-10-09T18:56:09Z</time>
      </trkpt>
      <trkpt lat="44.5558" lon="-0.87703">
        <ele>49</ele>
        <time>2015-10-09T18:56:14Z</time>
      </trkpt>
      <trkpt lat="44.55575" lon="-0.8769">
        <ele>50</ele>
        <time>2015-10-09T18:56:17Z</time>
      </trkpt>
      <trkpt lat="44.55565" lon="-0.87665">
        <ele>51</ele>
        <time>2015-10-09T18:56:22Z</time>
      </trkpt>
      <trkpt lat="44.55555" lon="-0.87645">
        <ele>52</ele>
        <time>2015-10-09T18:56:27Z</time>
      </trkpt>
      <trkpt lat="44.55549" lon="-0.87624">
        <ele>54</ele>
        <time>2015-10-09T18:56:32Z</time>
      </trkpt>
      <trkpt lat="44.55547" lon="-0.87611">
        <ele>55</ele>
        <time>2015-10-09T18:56:36Z</time>
      </trkpt>
      <trkpt lat="44.55546" lon="-0.87583">
        <ele>57</ele>
        <time>2015-10-09T18:56:40Z</time>
      </trkpt>
      <trkpt lat="44.55542" lon="-0.87561">
        <ele>58</ele>
        <time>2015-10-09T18:56:44Z</time>
      </trkpt>
      <trkpt lat="44.55539" lon="-0.87538">
        <ele>59</ele>
        <time>2015-10-09T18:56:48Z</time>
      </trkpt>
      <trkpt lat="44.55538" lon="-0.87511">
        <ele>60</ele>
        <time>2015-10-09T18:56:52Z</time>
      </trkpt>
      <trkpt lat="44.55539" lon="-0.87491">
        <ele>59</ele>
        <time>2015-10-09T18:56:55Z</time>
      </trkpt>
      <trkpt lat="44.55536" lon="-0.8747">
        <ele>60</ele>
        <time>2015-10-09T18:56:59Z</time>
      </trkpt>
      <trkpt lat="44.55532" lon="-0.87444">
        <ele>60</ele>
        <time>2015-10-09T18:57:04Z</time>
      </trkpt>
      <trkpt lat="44.55529" lon="-0.87422">
        <ele>60</ele>
        <time>2015-10-09T18:57:08Z</time>
      </trkpt>
      <trkpt lat="44.55525" lon="-0.87396">
        <ele>59</ele>
        <time>2015-10-09T18:57:12Z</time>
      </trkpt>
      <trkpt lat="44.55526" lon="-0.8738">
        <ele>60</ele>
        <time>2015-10-09T18:57:15Z</time>
      </trkpt>
      <trkpt lat="44.5553" lon="-0.87357">
        <ele>60</ele>
        <time>2015-10-09T18:57:19Z</time>
      </trkpt>
      <trkpt lat="44.5553" lon="-0.87336">
        <ele>60</ele>
        <time>2015-10-09T18:57:23Z</time>
      </trkpt>
      <trkpt lat="44.55529" lon="-0.87301">
        <ele>60</ele>
        <time>2015-10-09T18:57:28Z</time>
      </trkpt>
      <trkpt lat="44.55526" lon="-0.87268">
        <ele>60</ele>
        <time>2015-10-09T18:57:33Z</time>
      </trkpt>
      <trkpt lat="44.55529" lon="-0.87249">
        <ele>60</ele>
        <time>2015-10-09T18:57:37Z</time>
      </trkpt>
      <trkpt lat="44.55527" lon="-0.87232">
        <ele>61</ele>
        <time>2015-10-09T18:57:41Z</time>
      </trkpt>
      <trkpt lat="44.55526" lon="-0.87209">
        <ele>62</ele>
        <time>2015-10-09T18:57:45Z</time>
      </trkpt>
      <trkpt lat="44.55527" lon="-0.87182">
        <ele>62</ele>
        <time>2015-10-09T18:57:49Z</time>
      </trkpt>
      <trkpt lat="44.55524" lon="-0.87163">
        <ele>62</ele>
        <time>2015-10-09T18:57:53Z</time>
      </trkpt>
      <trkpt lat="44.55522" lon="-0.87144">
        <ele>62</ele>
        <time>2015-10-09T18:57:57Z</time>
      </trkpt>
      <trkpt lat="44.55519" lon="-0.87131">
        <ele>62</ele>
        <time>2015-10-09T18:58:01Z</time>
      </trkpt>
      <trkpt lat="44.55516" lon="-0.87115">
        <ele>59</ele>
        <time>2015-10-09T18:58:05Z</time>
      </trkpt>
      <trkpt lat="44.55502" lon="-0.87106">
        <ele>58</ele>
        <time>2015-10-09T18:58:09Z</time>
      </trkpt>
      <trkpt lat="44.55488" lon="-0.87097">
        <ele>57</ele>
        <time>2015-10-09T18:58:13Z</time>
      </trkpt>
      <trkpt lat="44.55472" lon="-0.87087">
        <ele>56</ele>
        <time>2015-10-09T18:58:17Z</time>
      </trkpt>
      <trkpt lat="44.5546" lon="-0.87082">
        <ele>55</ele>
        <time>2015-10-09T18:58:20Z</time>
      </trkpt>
      <trkpt lat="44.55445" lon="-0.87077">
        <ele>55</ele>
        <time>2015-10-09T18:58:23Z</time>
      </trkpt>
      <trkpt lat="44.55426" lon="-0.87068">
        <ele>54</ele>
        <time>2015-10-09T18:58:27Z</time>
      </trkpt>
      <trkpt lat="44.55411" lon="-0.87061">
        <ele>54</ele>
        <time>2015-10-09T18:58:30Z</time>
      </trkpt>
      <trkpt lat="44.55389" lon="-0.87049">
        <ele>53</ele>
        <time>2015-10-09T18:58:34Z</time>
      </trkpt>
      <trkpt lat="44.55374" lon="-0.87042">
        <ele>52</ele>
        <time>2015-10-09T18:58:37Z</time>
      </trkpt>
      <trkpt lat="44.55353" lon="-0.87033">
        <ele>51</ele>
        <time>2015-10-09T18:58:41Z</time>
      </trkpt>
      <trkpt lat="44.55328" lon="-0.87022">
        <ele>50</ele>
        <time>2015-10-09T18:58:46Z</time>
      </trkpt>
      <trkpt lat="44.55308" lon="-0.87015">
        <ele>48</ele>
        <time>2015-10-09T18:58:50Z</time>
      </trkpt>
      <trkpt lat="44.55281" lon="-0.87007">
        <ele>45</ele>
        <time>2015-10-09T18:58:55Z</time>
      </trkpt>
      <trkpt lat="44.55261" lon="-0.86998">
        <ele>43</ele>
        <time>2015-10-09T18:58:59Z</time>
      </trkpt>
      <trkpt lat="44.55235" lon="-0.86993">
        <ele>43</ele>
        <time>2015-10-09T18:59:03Z</time>
      </trkpt>
      <trkpt lat="44.55223" lon="-0.87">
        <ele>41</ele>
        <time>2015-10-09T18:59:07Z</time>
      </trkpt>
      <trkpt lat="44.552" lon="-0.87013">
        <ele>39</ele>
        <time>2015-10-09T18:59:11Z</time>
      </trkpt>
      <trkpt lat="44.55179" lon="-0.87013">
        <ele>37</ele>
        <time>2015-10-09T18:59:15Z</time>
      </trkpt>
      <trkpt lat="44.5516" lon="-0.87017">
        <ele>36</ele>
        <time>2015-10-09T18:59:19Z</time>
      </trkpt>
      <trkpt lat="44.55143" lon="-0.87036">
        <ele>33</ele>
        <time>2015-10-09T18:59:23Z</time>
      </trkpt>
      <trkpt lat="44.55122" lon="-0.87053">
        <ele>32</ele>
        <time>2015-10-09T18:59:28Z</time>
      </trkpt>
      <trkpt lat="44.55093" lon="-0.87071">
        <ele>31</ele>
        <time>2015-10-09T18:59:33Z</time>
      </trkpt>
      <trkpt lat="44.55079" lon="-0.87079">
        <ele>29</ele>
        <time>2015-10-09T18:59:37Z</time>
      </trkpt>
      <trkpt lat="44.55051" lon="-0.87095">
        <ele>28</ele>
        <time>2015-10-09T18:59:41Z</time>
      </trkpt>
      <trkpt lat="44.5503" lon="-0.87111">
        <ele>27</ele>
        <time>2015-10-09T18:59:45Z</time>
      </trkpt>
      <trkpt lat="44.55023" lon="-0.8712">
        <ele>25</ele>
        <time>2015-10-09T18:59:49Z</time>
      </trkpt>
      <trkpt lat="44.55011" lon="-0.87128">
        <ele>24</ele>
        <time>2015-10-09T18:59:53Z</time>
      </trkpt>
      <trkpt lat="44.54995" lon="-0.87142">
        <ele>22</ele>
        <time>2015-10-09T18:59:57Z</time>
      </trkpt>
      <trkpt lat="44.54985" lon="-0.87148">
        <ele>22</ele>
        <time>2015-10-09T19:00:00Z</time>
      </trkpt>
      <trkpt lat="44.54951" lon="-0.87165">
        <ele>20</ele>
        <time>2015-10-09T19:00:04Z</time>
      </trkpt>
      <trkpt lat="44.54932" lon="-0.87177">
        <ele>19</ele>
        <time>2015-10-09T19:00:07Z</time>
      </trkpt>
      <trkpt lat="44.54914" lon="-0.87196">
        <ele>18</ele>
        <time>2015-10-09T19:00:11Z</time>
      </trkpt>
      <trkpt lat="44.54895" lon="-0.87216">
        <ele>17</ele>
        <time>2015-10-09T19:00:15Z</time>
      </trkpt>
      <trkpt lat="44.54874" lon="-0.87238">
        <ele>15</ele>
        <time>2015-10-09T19:00:20Z</time>
      </trkpt>
      <trkpt lat="44.54864" lon="-0.87247">
        <ele>14</ele>
        <time>2015-10-09T19:00:24Z</time>
      </trkpt>
      <trkpt lat="44.54853" lon="-0.87249">
        <ele>12</ele>
        <time>2015-10-09T19:00:29Z</time>
      </trkpt>
      <trkpt lat="44.5484" lon="-0.87258">
        <ele>10</ele>
        <time>2015-10-09T19:00:34Z</time>
      </trkpt>
      <trkpt lat="44.5483" lon="-0.8727">
        <ele>8</ele>
        <time>2015-10-09T19:00:39Z</time>
      </trkpt>
      <trkpt lat="44.54825" lon="-0.87281">
        <ele>6</ele>
        <time>2015-10-09T19:00:42Z</time>
      </trkpt>
      <trkpt lat="44.54813" lon="-0.87296">
        <ele>5</ele>
        <time>2015-10-09T19:00:46Z</time>
      </trkpt>
      <trkpt lat="44.54798" lon="-0.87308">
        <ele>4</ele>
        <time>2015-10-09T19:00:50Z</time>
      </trkpt>
      <trkpt lat="44.54794" lon="-0.87321">
        <ele>3</ele>
        <time>2015-10-09T19:00:54Z</time>
      </trkpt>
      <trkpt lat="44.54802" lon="-0.87336">
        <ele>3</ele>
        <time>2015-10-09T19:00:58Z</time>
      </trkpt>
      <trkpt lat="44.54813" lon="-0.8736">
        <ele>2</ele>
        <time>2015-10-09T19:01:02Z</time>
      </trkpt>
      <trkpt lat="44.54829" lon="-0.87382">
        <ele>1</ele>
        <time>2015-10-09T19:01:07Z</time>
      </trkpt>
      <trkpt lat="44.54839" lon="-0.87398">
        <ele>1</ele>
        <time>2015-10-09T19:01:11Z</time>
      </trkpt>
      <trkpt lat="44.54853" lon="-0.87423">
        <ele>15</ele>
        <time>2015-10-09T19:01:15Z</time>
      </trkpt>
      <trkpt lat="44.5486" lon="-0.87441">
        <ele>17.2</ele>
        <time>2015-10-09T19:01:19Z</time>
      </trkpt>
      <trkpt lat="44.54865" lon="-0.87455">
        <ele>17.9</ele>
        <time>2015-10-09T19:01:23Z</time>
      </trkpt>
      <trkpt lat="44.54873" lon="-0.87477">
        <ele>-1</ele>
        <time>2015-10-09T19:01:27Z</time>
      </trkpt>
      <trkpt lat="44.54875" lon="-0.87493">
        <ele>-1</ele>
        <time>2015-10-09T19:01:31Z</time>
      </trkpt>
      <trkpt lat="44.54878" lon="-0.87515">
        <ele>-2</ele>
        <time>2015-10-09T19:01:36Z</time>
      </trkpt>
      <trkpt lat="44.54884" lon="-0.87535">
        <ele>-2</ele>
        <time>2015-10-09T19:01:41Z</time>
      </trkpt>
      <trkpt lat="44.54886" lon="-0.87542">
        <ele>-3</ele>
        <time>2015-10-09T19:01:44Z</time>
      </trkpt>
      <trkpt lat="44.549" lon="-0.87567">
        <ele>-3</ele>
        <time>2015-10-09T19:01:48Z</time>
      </trkpt>
      <trkpt lat="44.54908" lon="-0.87582">
        <ele>-4</ele>
        <time>2015-10-09T19:01:51Z</time>
      </trkpt>
      <trkpt lat="44.54922" lon="-0.87612">
        <ele>-4</ele>
        <time>2015-10-09T19:01:56Z</time>
      </trkpt>
      <trkpt lat="44.54932" lon="-0.87637">
        <ele>-5</ele>
        <time>2015-10-09T19:02:00Z</time>
      </trkpt>
      <trkpt lat="44.54942" lon="-0.87658">
        <ele>-6</ele>
        <time>2015-10-09T19:02:04Z</time>
      </trkpt>
      <trkpt lat="44.54951" lon="-0.8768">
        <ele>-6</ele>
        <time>2015-10-09T19:02:08Z</time>
      </trkpt>
      <trkpt lat="44.54978" lon="-0.87706">
        <ele>-7</ele>
        <time>2015-10-09T19:02:12Z</time>
      </trkpt>
      <trkpt lat="44.54996" lon="-0.87725">
        <ele>-7</ele>
        <time>2015-10-09T19:02:15Z</time>
      </trkpt>
      <trkpt lat="44.55017" lon="-0.87751">
        <ele>-8</ele>
        <time>2015-10-09T19:02:20Z</time>
      </trkpt>
      <trkpt lat="44.55028" lon="-0.87773">
        <ele>-9</ele>
        <time>2015-10-09T19:02:25Z</time>
      </trkpt>
      <trkpt lat="44.5503" lon="-0.87788">
        <ele>-9</ele>
        <time>2015-10-09T19:02:29Z</time>
      </trkpt>
      <trkpt lat="44.55035" lon="-0.87805">
        <ele>-10</ele>
        <time>2015-10-09T19:02:33Z</time>
      </trkpt>
      <trkpt lat="44.5504" lon="-0.87821">
        <ele>-11</ele>
        <time>2015-10-09T19:02:38Z</time>
      </trkpt>
      <trkpt lat="44.55045" lon="-0.87832">
        <ele>-11</ele>
        <time>2015-10-09T19:02:41Z</time>
      </trkpt>
      <trkpt lat="44.55049" lon="-0.87844">
        <ele>-12</ele>
        <time>2015-10-09T19:02:45Z</time>
      </trkpt>
      <trkpt lat="44.55056" lon="-0.87866">
        <ele>-13</ele>
        <time>2015-10-09T19:02:50Z</time>
      </trkpt>
      <trkpt lat="44.55057" lon="-0.87884">
        <ele>-14</ele>
        <time>2015-10-09T19:02:54Z</time>
      </trkpt>
      <trkpt lat="44.55068" lon="-0.87904">
        <ele>-14</ele>
        <time>2015-10-09T19:02:58Z</time>
      </trkpt>
      <trkpt lat="44.55077" lon="-0.87923">
        <ele>-15</ele>
        <time>2015-10-09T19:03:03Z</time>
      </trkpt>
      <trkpt lat="44.5508" lon="-0.87936">
        <ele>-16</ele>
        <time>2015-10-09T19:03:06Z</time>
      </trkpt>
      <trkpt lat="44.55081" lon="-0.87944">
        <ele>-16</ele>
        <time>2015-10-09T19:03:09Z</time>
      </trkpt>
      <trkpt lat="44.55083" lon="-0.8797">
        <ele>-17</ele>
        <time>2015-10-09T19:03:14Z</time>
      </trkpt>
      <trkpt lat="44.55088" lon="-0.87987">
        <ele>-17</ele>
        <time>2015-10-09T19:03:18Z</time>
      </trkpt>
      <trkpt lat="44.55089" lon="-0.88022">
        <ele>-18</ele>
        <time>2015-10-09T19:03:23Z</time>
      </trkpt>
      <trkpt lat="44.55091" lon="-0.88032">
        <ele>-18</ele>
        <time>2015-10-09T19:03:25Z</time>
      </trkpt>
      <trkpt lat="44.55091" lon="-0.88055">
        <ele>-18</ele>
        <time>2015-10-09T19:03:29Z</time>
      </trkpt>
      <trkpt lat="44.55094" lon="-0.88073">
        <ele>-18</ele>
        <time>2015-10-09T19:03:32Z</time>
      </trkpt>
      <trkpt lat="44.55107" lon="-0.88108">
        <ele>-19</ele>
        <time>2015-10-09T19:03:37Z</time>
      </trkpt>
      <trkpt lat="44.55102" lon="-0.88116">
        <ele>-20</ele>
        <time>2015-10-09T19:03:41Z</time>
      </trkpt>
      <trkpt lat="44.55095" lon="-0.88124">
        <ele>-21</ele>
        <time>2015-10-09T19:03:47Z</time>
      </trkpt>
      <trkpt lat="44.5509" lon="-0.88131">
        <ele>-22</ele>
        <time>2015-10-09T19:03:51Z</time>
      </trkpt>
      <trkpt lat="44.55079" lon="-0.88135">
        <ele>-23</ele>
        <time>2015-10-09T19:03:54Z</time>
      </trkpt>
      <trkpt lat="44.55075" lon="-0.88142">
        <ele>-23</ele>
        <time>2015-10-09T19:03:57Z</time>
      </trkpt>
      <trkpt lat="44.55066" lon="-0.88151">
        <ele>-24</ele>
        <time>2015-10-09T19:04:01Z</time>
      </trkpt>
      <trkpt lat="44.55063" lon="-0.88162">
        <ele>-24</ele>
        <time>2015-10-09T19:04:05Z</time>
      </trkpt>
      <trkpt lat="44.55057" lon="-0.88174">
        <ele>-25</ele>
        <time>2015-10-09T19:04:09Z</time>
      </trkpt>
      <trkpt lat="44.55052" lon="-0.88186">
        <ele>-25</ele>
        <time>2015-10-09T19:04:13Z</time>
      </trkpt>
      <trkpt lat="44.5505" lon="-0.88196">
        <ele>-25</ele>
        <time>2015-10-09T19:04:18Z</time>
      </trkpt>
      <trkpt lat="44.55062" lon="-0.8821">
        <ele>-26</ele>
        <time>2015-10-09T19:04:23Z</time>
      </trkpt>
      <trkpt lat="44.55073" lon="-0.88224">
        <ele>-26</ele>
        <time>2015-10-09T19:04:27Z</time>
      </trkpt>
      <trkpt lat="44.55088" lon="-0.88241">
        <ele>-27</ele>
        <time>2015-10-09T19:04:31Z</time>
      </trkpt>
      <trkpt lat="44.55089" lon="-0.88251">
        <ele>-28</ele>
        <time>2015-10-09T19:04:36Z</time>
      </trkpt>
      <trkpt lat="44.55085" lon="-0.88265">
        <ele>-29</ele>
        <time>2015-10-09T19:04:41Z</time>
      </trkpt>
      <trkpt lat="44.55076" lon="-0.88274">
        <ele>-29</ele>
        <time>2015-10-09T19:04:44Z</time>
      </trkpt>
      <trkpt lat="44.55069" lon="-0.88294">
        <ele>-30</ele>
        <time>2015-10-09T19:04:49Z</time>
      </trkpt>
      <trkpt lat="44.55066" lon="-0.88304">
        <ele>-30</ele>
        <time>2015-10-09T19:04:52Z</time>
      </trkpt>
      <trkpt lat="44.55061" lon="-0.88316">
        <ele>-30</ele>
        <time>2015-10-09T19:04:57Z</time>
      </trkpt>
      <trkpt lat="44.55057" lon="-0.88326">
        <ele>-30</ele>
        <time>2015-10-09T19:05:01Z</time>
      </trkpt>
      <trkpt lat="44.55043" lon="-0.88344">
        <ele>-30</ele>
        <time>2015-10-09T19:05:05Z</time>
      </trkpt>
      <trkpt lat="44.55046" lon="-0.88372">
        <ele>-31</ele>
        <time>2015-10-09T19:05:09Z</time>
      </trkpt>
      <trkpt lat="44.55051" lon="-0.88394">
        <ele>-31</ele>
        <time>2015-10-09T19:05:12Z</time>
      </trkpt>
      <trkpt lat="44.55049" lon="-0.88422">
        <ele>-32</ele>
        <time>2015-10-09T19:05:17Z</time>
      </trkpt>
      <trkpt lat="44.55039" lon="-0.88443">
        <ele>-32</ele>
        <time>2015-10-09T19:05:22Z</time>
      </trkpt>
      <trkpt lat="44.55025" lon="-0.88456">
        <ele>-33</ele>
        <time>2015-10-09T19:05:26Z</time>
      </trkpt>
      <trkpt lat="44.55019" lon="-0.88467">
        <ele>-33</ele>
        <time>2015-10-09T19:05:29Z</time>
      </trkpt>
      <trkpt lat="44.55008" lon="-0.88489">
        <ele>-33</ele>
        <time>2015-10-09T19:05:34Z</time>
      </trkpt>
      <trkpt lat="44.55008" lon="-0.88509">
        <ele>-33</ele>
        <time>2015-10-09T19:05:37Z</time>
      </trkpt>
      <trkpt lat="44.55009" lon="-0.88544">
        <ele>-34</ele>
        <time>2015-10-09T19:05:42Z</time>
      </trkpt>
      <trkpt lat="44.55011" lon="-0.88573">
        <ele>-34</ele>
        <time>2015-10-09T19:05:46Z</time>
      </trkpt>
      <trkpt lat="44.55017" lon="-0.88589">
        <ele>-35</ele>
        <time>2015-10-09T19:05:49Z</time>
      </trkpt>
      <trkpt lat="44.55016" lon="-0.88597">
        <ele>-36</ele>
        <time>2015-10-09T19:05:54Z</time>
      </trkpt>
      <trkpt lat="44.55019" lon="-0.88604">
        <ele>-36</ele>
        <time>2015-10-09T19:05:57Z</time>
      </trkpt>
      <trkpt lat="44.55026" lon="-0.88618">
        <ele>-37</ele>
        <time>2015-10-09T19:06:01Z</time>
      </trkpt>
      <trkpt lat="44.55033" lon="-0.88632">
        <ele>-38</ele>
        <time>2015-10-09T19:06:06Z</time>
      </trkpt>
      <trkpt lat="44.55034" lon="-0.88642">
        <ele>-40</ele>
        <time>2015-10-09T19:06:22Z</time>
      </trkpt>
      <trkpt lat="44.55032" lon="-0.88652">
        <ele>-41</ele>
        <time>2015-10-09T19:06:30Z</time>
      </trkpt>
      <trkpt lat="44.55035" lon="-0.88663">
        <ele>-41</ele>
        <time>2015-10-09T19:06:36Z</time>
      </trkpt>
      <trkpt lat="44.55034" lon="-0.88677">
        <ele>-41</ele>
        <time>2015-10-09T19:06:40Z</time>
      </trkpt>
      <trkpt lat="44.55029" lon="-0.8869">
        <ele>-41</ele>
        <time>2015-10-09T19:06:44Z</time>
      </trkpt>
      <trkpt lat="44.55027" lon="-0.88708">
        <ele>-42</ele>
        <time>2015-10-09T19:06:48Z</time>
      </trkpt>
      <trkpt lat="44.55025" lon="-0.8873">
        <ele>-41</ele>
        <time>2015-10-09T19:06:53Z</time>
      </trkpt>
      <trkpt lat="44.55028" lon="-0.88754">
        <ele>-42</ele>
        <time>2015-10-09T19:06:57Z</time>
      </trkpt>
      <trkpt lat="44.55032" lon="-0.88771">
        <ele>-42</ele>
        <time>2015-10-09T19:07:00Z</time>
      </trkpt>
      <trkpt lat="44.55026" lon="-0.88787">
        <ele>-42</ele>
        <time>2015-10-09T19:07:05Z</time>
      </trkpt>
      <trkpt lat="44.5501" lon="-0.88788">
        <ele>-42</ele>
        <time>2015-10-09T19:07:10Z</time>
      </trkpt>
      <trkpt lat="44.54996" lon="-0.88798">
        <ele>-42</ele>
        <time>2015-10-09T19:07:15Z</time>
      </trkpt>
      <trkpt lat="44.5499" lon="-0.88804">
        <ele>-42</ele>
        <time>2015-10-09T19:07:18Z</time>
      </trkpt>
      <trkpt lat="44.54986" lon="-0.88818">
        <ele>-41</ele>
        <time>2015-10-09T19:07:21Z</time>
      </trkpt>
      <trkpt lat="44.54975" lon="-0.88837">
        <ele>-41</ele>
        <time>2015-10-09T19:07:26Z</time>
      </trkpt>
      <trkpt lat="44.54975" lon="-0.8885">
        <ele>-40</ele>
        <time>2015-10-09T19:07:31Z</time>
      </trkpt>
      <trkpt lat="44.54977" lon="-0.88857">
        <ele>-39</ele>
        <time>2015-10-09T19:07:38Z</time>
      </trkpt>
      <trkpt lat="44.54985" lon="-0.88871">
        <ele>-39</ele>
        <time>2015-10-09T19:07:42Z</time>
      </trkpt>
      <trkpt lat="44.54999" lon="-0.88892">
        <ele>-38</ele>
        <time>2015-10-09T19:07:47Z</time>
      </trkpt>
      <trkpt lat="44.55009" lon="-0.88908">
        <ele>-38</ele>
        <time>2015-10-09T19:07:51Z</time>
      </trkpt>
      <trkpt lat="44.55011" lon="-0.8892">
        <ele>-39</ele>
        <time>2015-10-09T19:07:55Z</time>
      </trkpt>
      <trkpt lat="44.55013" lon="-0.88931">
        <ele>-39</ele>
        <time>2015-10-09T19:08:01Z</time>
      </trkpt>
      <trkpt lat="44.55012" lon="-0.88943">
        <ele>-40</ele>
        <time>2015-10-09T19:08:13Z</time>
      </trkpt>
      <trkpt lat="44.55009" lon="-0.88953">
        <ele>-40</ele>
        <time>2015-10-09T19:08:20Z</time>
      </trkpt>
      <trkpt lat="44.55004" lon="-0.88965">
        <ele>-41</ele>
        <time>2015-10-09T19:08:29Z</time>
      </trkpt>
      <trkpt lat="44.55001" lon="-0.88974">
        <ele>-41</ele>
        <time>2015-10-09T19:08:37Z</time>
      </trkpt>
      <trkpt lat="44.54998" lon="-0.88985">
        <ele>-41</ele>
        <time>2015-10-09T19:08:45Z</time>
      </trkpt>
      <trkpt lat="44.54997" lon="-0.88991">
        <ele>-41</ele>
        <time>2015-10-09T19:08:49Z</time>
      </trkpt>
      <trkpt lat="44.54994" lon="-0.89009">
        <ele>-41</ele>
        <time>2015-10-09T19:08:54Z</time>
      </trkpt>
      <trkpt lat="44.5499" lon="-0.89029">
        <ele>-41</ele>
        <time>2015-10-09T19:08:59Z</time>
      </trkpt>
      <trkpt lat="44.54983" lon="-0.89045">
        <ele>-41</ele>
        <time>2015-10-09T19:09:03Z</time>
      </trkpt>
      <trkpt lat="44.54975" lon="-0.89057">
        <ele>-42</ele>
        <time>2015-10-09T19:09:06Z</time>
      </trkpt>
      <trkpt lat="44.54965" lon="-0.89071">
        <ele>-42</ele>
        <time>2015-10-09T19:09:10Z</time>
      </trkpt>
      <trkpt lat="44.54958" lon="-0.89077">
        <ele>-42</ele>
        <time>2015-10-09T19:09:13Z</time>
      </trkpt>
      <trkpt lat="44.54957" lon="-0.89087">
        <ele>-43</ele>
        <time>2015-10-09T19:09:44Z</time>
      </trkpt>
      <trkpt lat="44.54954" lon="-0.89098">
        <ele>-42</ele>
        <time>2015-10-09T19:09:49Z</time>
      </trkpt>
      <trkpt lat="44.54953" lon="-0.8911">
        <ele>-42</ele>
        <time>2015-10-09T19:09:54Z</time>
      </trkpt>
      <trkpt lat="44.54955" lon="-0.89124">
        <ele>-42</ele>
        <time>2015-10-09T19:09:58Z</time>
      </trkpt>
      <trkpt lat="44.54957" lon="-0.8914">
        <ele>-41</ele>
        <time>2015-10-09T19:10:03Z</time>
      </trkpt>
      <trkpt lat="44.54959" lon="-0.89159">
        <ele>-41</ele>
        <time>2015-10-09T19:10:06Z</time>
      </trkpt>
      <trkpt lat="44.54963" lon="-0.89181">
        <ele>-41</ele>
        <time>2015-10-09T19:10:10Z</time>
      </trkpt>
      <trkpt lat="44.5497" lon="-0.89193">
        <ele>-40</ele>
        <time>2015-10-09T19:10:14Z</time>
      </trkpt>
      <trkpt lat="44.54979" lon="-0.89198">
        <ele>-40</ele>
        <time>2015-10-09T19:10:17Z</time>
      </trkpt>
      <trkpt lat="44.5499" lon="-0.89201">
        <ele>-40</ele>
        <time>2015-10-09T19:10:21Z</time>
      </trkpt>
      <trkpt lat="44.55002" lon="-0.89199">
        <ele>-40</ele>
        <time>2015-10-09T19:10:25Z</time>
      </trkpt>
      <trkpt lat="44.55014" lon="-0.89196">
        <ele>-40</ele>
        <time>2015-10-09T19:10:29Z</time>
      </trkpt>
      <trkpt lat="44.55028" lon="-0.89197">
        <ele>-38</ele>
        <time>2015-10-09T19:10:33Z</time>
      </trkpt>
      <trkpt lat="44.55045" lon="-0.89197">
        <ele>-35</ele>
        <time>2015-10-09T19:10:37Z</time>
      </trkpt>
      <trkpt lat="44.55058" lon="-0.89202">
        <ele>-33</ele>
        <time>2015-10-09T19:10:42Z</time>
      </trkpt>
      <trkpt lat="44.55069" lon="-0.89203">
        <ele>-32</ele>
        <time>2015-10-09T19:10:46Z</time>
      </trkpt>
      <trkpt lat="44.55083" lon="-0.89205">
        <ele>-30</ele>
        <time>2015-10-09T19:10:50Z</time>
      </trkpt>
      <trkpt lat="44.55098" lon="-0.89209">
        <ele>-30</ele>
        <time>2015-10-09T19:10:54Z</time>
      </trkpt>
      <trkpt lat="44.55112" lon="-0.89214">
        <ele>-30</ele>
        <time>2015-10-09T19:10:58Z</time>
      </trkpt>
      <trkpt lat="44.55123" lon="-0.89217">
        <ele>-30</ele>
        <time>2015-10-09T19:11:03Z</time>
      </trkpt>
      <trkpt lat="44.55133" lon="-0.89217">
        <ele>-30</ele>
        <time>2015-10-09T19:11:07Z</time>
      </trkpt>
      <trkpt lat="44.55143" lon="-0.89217">
        <ele>-30</ele>
        <time>2015-10-09T19:11:11Z</time>
      </trkpt>
      <trkpt lat="44.55156" lon="-0.89213">
        <ele>-30</ele>
        <time>2015-10-09T19:11:16Z</time>
      </trkpt>
      <trkpt lat="44.55169" lon="-0.89208">
        <ele>-31</ele>
        <time>2015-10-09T19:11:20Z</time>
      </trkpt>
      <trkpt lat="44.55177" lon="-0.89206">
        <ele>-32</ele>
        <time>2015-10-09T19:11:24Z</time>
      </trkpt>
      <trkpt lat="44.55182" lon="-0.89209">
        <ele>-32</ele>
        <time>2015-10-09T19:11:29Z</time>
      </trkpt>
      <trkpt lat="44.552" lon="-0.8922">
        <ele>-33</ele>
        <time>2015-10-09T19:11:34Z</time>
      </trkpt>
      <trkpt lat="44.55214" lon="-0.89225">
        <ele>-33</ele>
        <time>2015-10-09T19:11:38Z</time>
      </trkpt>
      <trkpt lat="44.55224" lon="-0.89229">
        <ele>-33</ele>
        <time>2015-10-09T19:11:42Z</time>
      </trkpt>
      <trkpt lat="44.55236" lon="-0.89233">
        <ele>-33</ele>
        <time>2015-10-09T19:11:46Z</time>
      </trkpt>
      <trkpt lat="44.55247" lon="-0.8924">
        <ele>-32</ele>
        <time>2015-10-09T19:11:50Z</time>
      </trkpt>
      <trkpt lat="44.55261" lon="-0.89246">
        <ele>-32</ele>
        <time>2015-10-09T19:11:54Z</time>
      </trkpt>
      <trkpt lat="44.55272" lon="-0.89256">
        <ele>-32</ele>
        <time>2015-10-09T19:11:58Z</time>
      </trkpt>
      <trkpt lat="44.55277" lon="-0.89263">
        <ele>-32</ele>
        <time>2015-10-09T19:12:01Z</time>
      </trkpt>
      <trkpt lat="44.55282" lon="-0.8927">
        <ele>-31</ele>
        <time>2015-10-09T19:12:05Z</time>
      </trkpt>
      <trkpt lat="44.55295" lon="-0.8928">
        <ele>-30</ele>
        <time>2015-10-09T19:12:10Z</time>
      </trkpt>
      <trkpt lat="44.55307" lon="-0.89286">
        <ele>-30</ele>
        <time>2015-10-09T19:12:14Z</time>
      </trkpt>
      <trkpt lat="44.55317" lon="-0.89291">
        <ele>-30</ele>
        <time>2015-10-09T19:12:18Z</time>
      </trkpt>
      <trkpt lat="44.55329" lon="-0.89298">
        <ele>-30</ele>
        <time>2015-10-09T19:12:22Z</time>
      </trkpt>
      <trkpt lat="44.55337" lon="-0.89301">
        <ele>-29</ele>
        <time>2015-10-09T19:12:26Z</time>
      </trkpt>
      <trkpt lat="44.55343" lon="-0.89306">
        <ele>-29</ele>
        <time>2015-10-09T19:12:31Z</time>
      </trkpt>
      <trkpt lat="44.55356" lon="-0.89314">
        <ele>-28</ele>
        <time>2015-10-09T19:12:35Z</time>
      </trkpt>
      <trkpt lat="44.55361" lon="-0.89322">
        <ele>-28</ele>
        <time>2015-10-09T19:12:38Z</time>
      </trkpt>
      <trkpt lat="44.55368" lon="-0.89326">
        <ele>-27</ele>
        <time>2015-10-09T19:12:41Z</time>
      </trkpt>
      <trkpt lat="44.55378" lon="-0.89336">
        <ele>-27</ele>
        <time>2015-10-09T19:12:46Z</time>
      </trkpt>
      <trkpt lat="44.55386" lon="-0.89345">
        <ele>-26</ele>
        <time>2015-10-09T19:12:50Z</time>
      </trkpt>
      <trkpt lat="44.55392" lon="-0.89352">
        <ele>-26</ele>
        <time>2015-10-09T19:12:54Z</time>
      </trkpt>
      <trkpt lat="44.55399" lon="-0.89359">
        <ele>-25</ele>
        <time>2015-10-09T19:12:58Z</time>
      </trkpt>
      <trkpt lat="44.55408" lon="-0.89368">
        <ele>-24</ele>
        <time>2015-10-09T19:13:03Z</time>
      </trkpt>
      <trkpt lat="44.55417" lon="-0.89378">
        <ele>-24</ele>
        <time>2015-10-09T19:13:07Z</time>
      </trkpt>
      <trkpt lat="44.55422" lon="-0.89385">
        <ele>-24</ele>
        <time>2015-10-09T19:13:11Z</time>
      </trkpt>
      <trkpt lat="44.55425" lon="-0.89394">
        <ele>-23</ele>
        <time>2015-10-09T19:13:16Z</time>
      </trkpt>
      <trkpt lat="44.55428" lon="-0.89404">
        <ele>-23</ele>
        <time>2015-10-09T19:13:20Z</time>
      </trkpt>
      <trkpt lat="44.55432" lon="-0.89412">
        <ele>-22</ele>
        <time>2015-10-09T19:13:26Z</time>
      </trkpt>
      <trkpt lat="44.55435" lon="-0.8942">
        <ele>-22</ele>
        <time>2015-10-09T19:13:31Z</time>
      </trkpt>
      <trkpt lat="44.55444" lon="-0.89444">
        <ele>-22</ele>
        <time>2015-10-09T19:13:35Z</time>
      </trkpt>
      <trkpt lat="44.55448" lon="-0.89458">
        <ele>-21</ele>
        <time>2015-10-09T19:13:38Z</time>
      </trkpt>
      <trkpt lat="44.55454" lon="-0.8947">
        <ele>-21</ele>
        <time>2015-10-09T19:13:43Z</time>
      </trkpt>
      <trkpt lat="44.55459" lon="-0.89479">
        <ele>-21</ele>
        <time>2015-10-09T19:13:46Z</time>
      </trkpt>
      <trkpt lat="44.55467" lon="-0.89489">
        <ele>-21</ele>
        <time>2015-10-09T19:13:50Z</time>
      </trkpt>
      <trkpt lat="44.55476" lon="-0.89498">
        <ele>-21</ele>
        <time>2015-10-09T19:13:54Z</time>
      </trkpt>
      <trkpt lat="44.55485" lon="-0.89503">
        <ele>-21</ele>
        <time>2015-10-09T19:13:58Z</time>
      </trkpt>
      <trkpt lat="44.55493" lon="-0.89511">
        <ele>-21</ele>
        <time>2015-10-09T19:14:03Z</time>
      </trkpt>
      <trkpt lat="44.55501" lon="-0.8952">
        <ele>-21</ele>
        <time>2015-10-09T19:14:06Z</time>
      </trkpt>
      <trkpt lat="44.55512" lon="-0.89529">
        <ele>-21</ele>
        <time>2015-10-09T19:14:11Z</time>
      </trkpt>
      <trkpt lat="44.55519" lon="-0.89534">
        <ele>-21</ele>
        <time>2015-10-09T19:14:15Z</time>
      </trkpt>
      <trkpt lat="44.55535" lon="-0.89541">
        <ele>-21</ele>
        <time>2015-10-09T19:14:20Z</time>
      </trkpt>
      <trkpt lat="44.5555" lon="-0.89545">
        <ele>-20</ele>
        <time>2015-10-09T19:14:24Z</time>
      </trkpt>
      <trkpt lat="44.55564" lon="-0.89551">
        <ele>-20</ele>
        <time>2015-10-09T19:14:28Z</time>
      </trkpt>
      <trkpt lat="44.55583" lon="-0.89564">
        <ele>-20</ele>
        <time>2015-10-09T19:14:33Z</time>
      </trkpt>
      <trkpt lat="44.55596" lon="-0.89562">
        <ele>-20</ele>
        <time>2015-10-09T19:14:36Z</time>
      </trkpt>
      <trkpt lat="44.55608" lon="-0.89568">
        <ele>-20</ele>
        <time>2015-10-09T19:14:40Z</time>
      </trkpt>
      <trkpt lat="44.55623" lon="-0.89571">
        <ele>-22</ele>
        <time>2015-10-09T19:14:44Z</time>
      </trkpt>
      <trkpt lat="44.55635" lon="-0.89582">
        <ele>-22</ele>
        <time>2015-10-09T19:14:48Z</time>
      </trkpt>
      <trkpt lat="44.55648" lon="-0.89595">
        <ele>-22</ele>
        <time>2015-10-09T19:14:53Z</time>
      </trkpt>
      <trkpt lat="44.55657" lon="-0.89606">
        <ele>-22</ele>
        <time>2015-10-09T19:14:57Z</time>
      </trkpt>
      <trkpt lat="44.55666" lon="-0.89621">
        <ele>-22</ele>
        <time>2015-10-09T19:15:01Z</time>
      </trkpt>
      <trkpt lat="44.55672" lon="-0.89628">
        <ele>-22</ele>
        <time>2015-10-09T19:15:04Z</time>
      </trkpt>
      <trkpt lat="44.55681" lon="-0.8964">
        <ele>-21</ele>
        <time>2015-10-09T19:15:08Z</time>
      </trkpt>
      <trkpt lat="44.55696" lon="-0.89646">
        <ele>-21</ele>
        <time>2015-10-09T19:15:13Z</time>
      </trkpt>
      <trkpt lat="44.55709" lon="-0.89648">
        <ele>-20</ele>
        <time>2015-10-09T19:15:17Z</time>
      </trkpt>
      <trkpt lat="44.55714" lon="-0.89649">
        <ele>-20</ele>
        <time>2015-10-09T19:15:19Z</time>
      </trkpt>
      <trkpt lat="44.55721" lon="-0.89651">
        <ele>-20</ele>
        <time>2015-10-09T19:15:22Z</time>
      </trkpt>
      <trkpt lat="44.55739" lon="-0.89654">
        <ele>-20</ele>
        <time>2015-10-09T19:15:27Z</time>
      </trkpt>
      <trkpt lat="44.55749" lon="-0.89653">
        <ele>-20</ele>
        <time>2015-10-09T19:15:30Z</time>
      </trkpt>
      <trkpt lat="44.55757" lon="-0.89648">
        <ele>-18</ele>
        <time>2015-10-09T19:15:34Z</time>
      </trkpt>
      <trkpt lat="44.55773" lon="-0.89647">
        <ele>-19</ele>
        <time>2015-10-09T19:15:38Z</time>
      </trkpt>
      <trkpt lat="44.55789" lon="-0.89647">
        <ele>-18</ele>
        <time>2015-10-09T19:15:43Z</time>
      </trkpt>
      <trkpt lat="44.55812" lon="-0.89655">
        <ele>-18</ele>
        <time>2015-10-09T19:15:48Z</time>
      </trkpt>
      <trkpt lat="44.55829" lon="-0.89661">
        <ele>-18</ele>
        <time>2015-10-09T19:15:52Z</time>
      </trkpt>
      <trkpt lat="44.55849" lon="-0.89661">
        <ele>-17</ele>
        <time>2015-10-09T19:15:57Z</time>
      </trkpt>
      <trkpt lat="44.55862" lon="-0.89661">
        <ele>-15</ele>
        <time>2015-10-09T19:16:00Z</time>
      </trkpt>
      <trkpt lat="44.55877" lon="-0.89661">
        <ele>-13</ele>
        <time>2015-10-09T19:16:04Z</time>
      </trkpt>
      <trkpt lat="44.55891" lon="-0.89662">
        <ele>-12</ele>
        <time>2015-10-09T19:16:08Z</time>
      </trkpt>
      <trkpt lat="44.55902" lon="-0.89663">
        <ele>-12</ele>
        <time>2015-10-09T19:16:11Z</time>
      </trkpt>
      <trkpt lat="44.55914" lon="-0.89668">
        <ele>-12</ele>
        <time>2015-10-09T19:16:15Z</time>
      </trkpt>
      <trkpt lat="44.5593" lon="-0.89671">
        <ele>-13</ele>
        <time>2015-10-09T19:16:20Z</time>
      </trkpt>
      <trkpt lat="44.55944" lon="-0.8968">
        <ele>-12</ele>
        <time>2015-10-09T19:16:24Z</time>
      </trkpt>
      <trkpt lat="44.5596" lon="-0.89685">
        <ele>-11</ele>
        <time>2015-10-09T19:16:28Z</time>
      </trkpt>
      <trkpt lat="44.55969" lon="-0.89683">
        <ele>-11</ele>
        <time>2015-10-09T19:16:31Z</time>
      </trkpt>
      <trkpt lat="44.55986" lon="-0.89675">
        <ele>-14</ele>
        <time>2015-10-09T19:16:36Z</time>
      </trkpt>
      <trkpt lat="44.56005" lon="-0.89669">
        <ele>-15</ele>
        <time>2015-10-09T19:16:41Z</time>
      </trkpt>
      <trkpt lat="44.56014" lon="-0.89669">
        <ele>-14</ele>
        <time>2015-10-09T19:16:45Z</time>
      </trkpt>
      <trkpt lat="44.56035" lon="-0.89673">
        <ele>-12</ele>
        <time>2015-10-09T19:16:50Z</time>
      </trkpt>
      <trkpt lat="44.56047" lon="-0.89679">
        <ele>-11</ele>
        <time>2015-10-09T19:16:54Z</time>
      </trkpt>
      <trkpt lat="44.56065" lon="-0.89683">
        <ele>-8</ele>
        <time>2015-10-09T19:16:59Z</time>
      </trkpt>
      <trkpt lat="44.56074" lon="-0.89684">
        <ele>-6</ele>
        <time>2015-10-09T19:17:02Z</time>
      </trkpt>
      <trkpt lat="44.56086" lon="-0.89683">
        <ele>-6</ele>
        <time>2015-10-09T19:17:06Z</time>
      </trkpt>
      <trkpt lat="44.56093" lon="-0.89683">
        <ele>-5</ele>
        <time>2015-10-09T19:17:09Z</time>
      </trkpt>
      <trkpt lat="44.56106" lon="-0.89683">
        <ele>-5</ele>
        <time>2015-10-09T19:17:13Z</time>
      </trkpt>
      <trkpt lat="44.56108" lon="-0.89684">
        <ele>-5</ele>
        <time>2015-10-09T19:17:15Z</time>
      </trkpt>
      <trkpt lat="44.56124" lon="-0.89687">
        <ele>-8</ele>
        <time>2015-10-09T19:17:19Z</time>
      </trkpt>
      <trkpt lat="44.56136" lon="-0.89694">
        <ele>-8</ele>
        <time>2015-10-09T19:17:23Z</time>
      </trkpt>
      <trkpt lat="44.56149" lon="-0.89695">
        <ele>-11</ele>
        <time>2015-10-09T19:17:27Z</time>
      </trkpt>
      <trkpt lat="44.5616" lon="-0.89695">
        <ele>-16</ele>
        <time>2015-10-09T19:17:30Z</time>
      </trkpt>
      <trkpt lat="44.56168" lon="-0.89704">
        <ele>-17</ele>
        <time>2015-10-09T19:17:34Z</time>
      </trkpt>
      <trkpt lat="44.56178" lon="-0.89717">
        <ele>-18</ele>
        <time>2015-10-09T19:17:39Z</time>
      </trkpt>
      <trkpt lat="44.5619" lon="-0.89724">
        <ele>-20</ele>
        <time>2015-10-09T19:17:44Z</time>
      </trkpt>
      <trkpt lat="44.56197" lon="-0.89733">
        <ele>-20</ele>
        <time>2015-10-09T19:17:48Z</time>
      </trkpt>
      <trkpt lat="44.56205" lon="-0.89743">
        <ele>-20</ele>
        <time>2015-10-09T19:17:53Z</time>
      </trkpt>
      <trkpt lat="44.56212" lon="-0.89749">
        <ele>-21</ele>
        <time>2015-10-09T19:17:57Z</time>
      </trkpt>
      <trkpt lat="44.56219" lon="-0.89758">
        <ele>-20</ele>
        <time>2015-10-09T19:18:02Z</time>
      </trkpt>
      <trkpt lat="44.56225" lon="-0.89764">
        <ele>-19</ele>
        <time>2015-10-09T19:18:08Z</time>
      </trkpt>
      <trkpt lat="44.56229" lon="-0.89772">
        <ele>-19</ele>
        <time>2015-10-09T19:18:25Z</time>
      </trkpt>
      <trkpt lat="44.56236" lon="-0.89778">
        <ele>-24</ele>
        <time>2015-10-09T19:18:30Z</time>
      </trkpt>
      <trkpt lat="44.56236" lon="-0.89786">
        <ele>-33</ele>
        <time>2015-10-09T19:22:06Z</time>
      </trkpt>
      <trkpt lat="44.56244" lon="-0.89793">
        <ele>-40</ele>
        <time>2015-10-09T19:22:11Z</time>
      </trkpt>
      <trkpt lat="44.5625" lon="-0.89793">
        <ele>-40</ele>
        <time>2015-10-09T19:22:16Z</time>
      </trkpt>
      <trkpt lat="44.56261" lon="-0.89793">
        <ele>-39</ele>
        <time>2015-10-09T19:22:20Z</time>
      </trkpt>
      <trkpt lat="44.56267" lon="-0.89794">
        <ele>-39</ele>
        <time>2015-10-09T19:22:23Z</time>
      </trkpt>
      <trkpt lat="44.56277" lon="-0.89796">
        <ele>-39</ele>
        <time>2015-10-09T19:22:28Z</time>
      </trkpt>
      <trkpt lat="44.56284" lon="-0.89796">
        <ele>-38</ele>
        <time>2015-10-09T19:22:32Z</time>
      </trkpt>
      <trkpt lat="44.56293" lon="-0.89795">
        <ele>-37</ele>
        <time>2015-10-09T19:22:35Z</time>
      </trkpt>
      <trkpt lat="44.563" lon="-0.89796">
        <ele>-36</ele>
        <time>2015-10-09T19:22:39Z</time>
      </trkpt>
      <trkpt lat="44.56313" lon="-0.89794">
        <ele>-36</ele>
        <time>2015-10-09T19:22:44Z</time>
      </trkpt>
      <trkpt lat="44.56325" lon="-0.89788">
        <ele>-36</ele>
        <time>2015-10-09T19:22:49Z</time>
      </trkpt>
      <trkpt lat="44.56327" lon="-0.89784">
        <ele>-35</ele>
        <time>2015-10-09T19:22:53Z</time>
      </trkpt>
      <trkpt lat="44.56339" lon="-0.89771">
        <ele>-34</ele>
        <time>2015-10-09T19:22:58Z</time>
      </trkpt>
      <trkpt lat="44.56347" lon="-0.89768">
        <ele>-33</ele>
        <time>2015-10-09T19:23:03Z</time>
      </trkpt>
      <trkpt lat="44.56355" lon="-0.89764">
        <ele>-33</ele>
        <time>2015-10-09T19:23:07Z</time>
      </trkpt>
      <trkpt lat="44.56366" lon="-0.89748">
        <ele>-32</ele>
        <time>2015-10-09T19:23:11Z</time>
      </trkpt>
      <trkpt lat="44.56373" lon="-0.89738">
        <ele>-31</ele>
        <time>2015-10-09T19:23:14Z</time>
      </trkpt>
      <trkpt lat="44.56383" lon="-0.89721">
        <ele>-30</ele>
        <time>2015-10-09T19:23:18Z</time>
      </trkpt>
      <trkpt lat="44.56391" lon="-0.89708">
        <ele>-29</ele>
        <time>2015-10-09T19:23:22Z</time>
      </trkpt>
      <trkpt lat="44.56395" lon="-0.89689">
        <ele>-29</ele>
        <time>2015-10-09T19:23:27Z</time>
      </trkpt>
      <trkpt lat="44.56397" lon="-0.89676">
        <ele>-29</ele>
        <time>2015-10-09T19:23:30Z</time>
      </trkpt>
      <trkpt lat="44.56399" lon="-0.89657">
        <ele>-29</ele>
        <time>2015-10-09T19:23:35Z</time>
      </trkpt>
      <trkpt lat="44.56403" lon="-0.89646">
        <ele>-28</ele>
        <time>2015-10-09T19:23:38Z</time>
      </trkpt>
      <trkpt lat="44.56408" lon="-0.89635">
        <ele>-28</ele>
        <time>2015-10-09T19:23:42Z</time>
      </trkpt>
      <trkpt lat="44.56417" lon="-0.89625">
        <ele>-26</ele>
        <time>2015-10-09T19:23:47Z</time>
      </trkpt>
      <trkpt lat="44.56432" lon="-0.89619">
        <ele>-24</ele>
        <time>2015-10-09T19:23:51Z</time>
      </trkpt>
      <trkpt lat="44.56446" lon="-0.89609">
        <ele>-22</ele>
        <time>2015-10-09T19:23:55Z</time>
      </trkpt>
      <trkpt lat="44.56455" lon="-0.89601">
        <ele>-21</ele>
        <time>2015-10-09T19:23:58Z</time>
      </trkpt>
      <trkpt lat="44.56461" lon="-0.89599">
        <ele>-20</ele>
        <time>2015-10-09T19:24:00Z</time>
      </trkpt>
      <trkpt lat="44.56471" lon="-0.89592">
        <ele>-18</ele>
        <time>2015-10-09T19:24:05Z</time>
      </trkpt>
      <trkpt lat="44.5648" lon="-0.89592">
        <ele>-17</ele>
        <time>2015-10-09T19:24:08Z</time>
      </trkpt>
      <trkpt lat="44.56491" lon="-0.89587">
        <ele>-16</ele>
        <time>2015-10-09T19:24:12Z</time>
      </trkpt>
      <trkpt lat="44.56504" lon="-0.89584">
        <ele>-16</ele>
        <time>2015-10-09T19:24:17Z</time>
      </trkpt>
      <trkpt lat="44.56518" lon="-0.89588">
        <ele>-15</ele>
        <time>2015-10-09T19:24:21Z</time>
      </trkpt>
      <trkpt lat="44.56524" lon="-0.89596">
        <ele>-14</ele>
        <time>2015-10-09T19:24:25Z</time>
      </trkpt>
      <trkpt lat="44.56536" lon="-0.89607">
        <ele>-13</ele>
        <time>2015-10-09T19:24:29Z</time>
      </trkpt>
      <trkpt lat="44.56546" lon="-0.89612">
        <ele>-13</ele>
        <time>2015-10-09T19:24:32Z</time>
      </trkpt>
      <trkpt lat="44.56562" lon="-0.89613">
        <ele>-14</ele>
        <time>2015-10-09T19:24:36Z</time>
      </trkpt>
      <trkpt lat="44.56571" lon="-0.89619">
        <ele>-13</ele>
        <time>2015-10-09T19:24:39Z</time>
      </trkpt>
      <trkpt lat="44.56584" lon="-0.8963">
        <ele>-11</ele>
        <time>2015-10-09T19:24:44Z</time>
      </trkpt>
      <trkpt lat="44.56588" lon="-0.89643">
        <ele>-10</ele>
        <time>2015-10-09T19:24:48Z</time>
      </trkpt>
      <trkpt lat="44.56595" lon="-0.89653">
        <ele>-9</ele>
        <time>2015-10-09T19:24:51Z</time>
      </trkpt>
      <trkpt lat="44.56602" lon="-0.8966">
        <ele>-9</ele>
        <time>2015-10-09T19:24:54Z</time>
      </trkpt>
      <trkpt lat="44.56612" lon="-0.89677">
        <ele>-8</ele>
        <time>2015-10-09T19:24:59Z</time>
      </trkpt>
      <trkpt lat="44.56621" lon="-0.89693">
        <ele>-8</ele>
        <time>2015-10-09T19:25:03Z</time>
      </trkpt>
      <trkpt lat="44.56626" lon="-0.89704">
        <ele>-8</ele>
        <time>2015-10-09T19:25:06Z</time>
      </trkpt>
      <trkpt lat="44.56629" lon="-0.89711">
        <ele>-8</ele>
        <time>2015-10-09T19:25:08Z</time>
      </trkpt>
      <trkpt lat="44.56632" lon="-0.8972">
        <ele>-8</ele>
        <time>2015-10-09T19:25:11Z</time>
      </trkpt>
      <trkpt lat="44.56641" lon="-0.89743">
        <ele>-8</ele>
        <time>2015-10-09T19:25:15Z</time>
      </trkpt>
      <trkpt lat="44.56646" lon="-0.8976">
        <ele>-8</ele>
        <time>2015-10-09T19:25:19Z</time>
      </trkpt>
      <trkpt lat="44.56649" lon="-0.8978">
        <ele>-7</ele>
        <time>2015-10-09T19:25:23Z</time>
      </trkpt>
      <trkpt lat="44.56656" lon="-0.89795">
        <ele>-13</ele>
        <time>2015-10-09T19:25:27Z</time>
      </trkpt>
      <trkpt lat="44.5666" lon="-0.89812">
        <ele>-13</ele>
        <time>2015-10-09T19:25:31Z</time>
      </trkpt>
      <trkpt lat="44.56667" lon="-0.89841">
        <ele>-14</ele>
        <time>2015-10-09T19:25:36Z</time>
      </trkpt>
      <trkpt lat="44.56665" lon="-0.89851">
        <ele>-15</ele>
        <time>2015-10-09T19:25:40Z</time>
      </trkpt>
      <trkpt lat="44.56667" lon="-0.89864">
        <ele>-16</ele>
        <time>2015-10-09T19:25:44Z</time>
      </trkpt>
      <trkpt lat="44.56671" lon="-0.89876">
        <ele>-16</ele>
        <time>2015-10-09T19:25:47Z</time>
      </trkpt>
      <trkpt lat="44.56678" lon="-0.89891">
        <ele>-16</ele>
        <time>2015-10-09T19:25:51Z</time>
      </trkpt>
      <trkpt lat="44.56683" lon="-0.89905">
        <ele>-17</ele>
        <time>2015-10-09T19:25:55Z</time>
      </trkpt>
      <trkpt lat="44.56693" lon="-0.89935">
        <ele>-17</ele>
        <time>2015-10-09T19:25:59Z</time>
      </trkpt>
      <trkpt lat="44.567" lon="-0.89956">
        <ele>-19</ele>
        <time>2015-10-09T19:26:04Z</time>
      </trkpt>
      <trkpt lat="44.56706" lon="-0.89971">
        <ele>-21</ele>
        <time>2015-10-09T19:26:08Z</time>
      </trkpt>
      <trkpt lat="44.56713" lon="-0.89983">
        <ele>-21</ele>
        <time>2015-10-09T19:26:12Z</time>
      </trkpt>
      <trkpt lat="44.56714" lon="-0.89992">
        <ele>-22</ele>
        <time>2015-10-09T19:26:16Z</time>
      </trkpt>
      <trkpt lat="44.56717" lon="-0.90002">
        <ele>-22</ele>
        <time>2015-10-09T19:26:20Z</time>
      </trkpt>
      <trkpt lat="44.56719" lon="-0.90016">
        <ele>-23</ele>
        <time>2015-10-09T19:26:25Z</time>
      </trkpt>
      <trkpt lat="44.56721" lon="-0.90021">
        <ele>-23</ele>
        <time>2015-10-09T19:26:28Z</time>
      </trkpt>
      <trkpt lat="44.56723" lon="-0.90035">
        <ele>-23</ele>
        <time>2015-10-09T19:26:30Z</time>
      </trkpt>
      <trkpt lat="44.56724" lon="-0.9005">
        <ele>-23</ele>
        <time>2015-10-09T19:26:35Z</time>
      </trkpt>
      <trkpt lat="44.56727" lon="-0.90064">
        <ele>-24</ele>
        <time>2015-10-09T19:26:39Z</time>
      </trkpt>
      <trkpt lat="44.56729" lon="-0.90081">
        <ele>-24</ele>
        <time>2015-10-09T19:26:43Z</time>
      </trkpt>
      <trkpt lat="44.56729" lon="-0.90093">
        <ele>-24</ele>
        <time>2015-10-09T19:26:48Z</time>
      </trkpt>
      <trkpt lat="44.56732" lon="-0.90107">
        <ele>-24</ele>
        <time>2015-10-09T19:26:52Z</time>
      </trkpt>
      <trkpt lat="44.56732" lon="-0.90118">
        <ele>-24</ele>
        <time>2015-10-09T19:26:56Z</time>
      </trkpt>
      <trkpt lat="44.56737" lon="-0.90135">
        <ele>-24</ele>
        <time>2015-10-09T19:27:00Z</time>
      </trkpt>
      <trkpt lat="44.5674" lon="-0.90142">
        <ele>-23</ele>
        <time>2015-10-09T19:27:04Z</time>
      </trkpt>
      <trkpt lat="44.5674" lon="-0.90152">
        <ele>-23</ele>
        <time>2015-10-09T19:27:08Z</time>
      </trkpt>
      <trkpt lat="44.5674" lon="-0.9016">
        <ele>-23</ele>
        <time>2015-10-09T19:27:13Z</time>
      </trkpt>
      <trkpt lat="44.5674" lon="-0.9017">
        <ele>-23</ele>
        <time>2015-10-09T19:27:17Z</time>
      </trkpt>
      <trkpt lat="44.56741" lon="-0.90182">
        <ele>-23</ele>
        <time>2015-10-09T19:27:21Z</time>
      </trkpt>
      <trkpt lat="44.56743" lon="-0.9019">
        <ele>-23</ele>
        <time>2015-10-09T19:27:24Z</time>
      </trkpt>
      <trkpt lat="44.56749" lon="-0.90207">
        <ele>-23</ele>
        <time>2015-10-09T19:27:28Z</time>
      </trkpt>
      <trkpt lat="44.56754" lon="-0.90217">
        <ele>-22</ele>
        <time>2015-10-09T19:27:33Z</time>
      </trkpt>
      <trkpt lat="44.56763" lon="-0.90231">
        <ele>-22</ele>
        <time>2015-10-09T19:27:38Z</time>
      </trkpt>
      <trkpt lat="44.56764" lon="-0.90235">
        <ele>-22</ele>
        <time>2015-10-09T19:27:41Z</time>
      </trkpt>
      <trkpt lat="44.56767" lon="-0.90244">
        <ele>-22</ele>
        <time>2015-10-09T19:27:47Z</time>
      </trkpt>
      <trkpt lat="44.56775" lon="-0.90273">
        <ele>-23</ele>
        <time>2015-10-09T19:27:50Z</time>
      </trkpt>
      <trkpt lat="44.5678" lon="-0.90282">
        <ele>-23</ele>
        <time>2015-10-09T19:27:53Z</time>
      </trkpt>
      <trkpt lat="44.56783" lon="-0.9029">
        <ele>-23</ele>
        <time>2015-10-09T19:27:57Z</time>
      </trkpt>
      <trkpt lat="44.56788" lon="-0.903">
        <ele>-23</ele>
        <time>2015-10-09T19:28:08Z</time>
      </trkpt>
      <trkpt lat="44.56787" lon="-0.90304">
        <ele>-24</ele>
        <time>2015-10-09T19:28:28Z</time>
      </trkpt>
      <trkpt lat="44.56786" lon="-0.90318">
        <ele>-26</ele>
        <time>2015-10-09T19:28:33Z</time>
      </trkpt>
      <trkpt lat="44.56789" lon="-0.90327">
        <ele>-27</ele>
        <time>2015-10-09T19:28:55Z</time>
      </trkpt>
      <trkpt lat="44.56795" lon="-0.90339">
        <ele>-28</ele>
        <time>2015-10-09T19:29:00Z</time>
      </trkpt>
      <trkpt lat="44.56805" lon="-0.90352">
        <ele>-28</ele>
        <time>2015-10-09T19:29:05Z</time>
      </trkpt>
      <trkpt lat="44.56815" lon="-0.90362">
        <ele>-29</ele>
        <time>2015-10-09T19:29:10Z</time>
      </trkpt>
      <trkpt lat="44.56824" lon="-0.90369">
        <ele>-30</ele>
        <time>2015-10-09T19:29:14Z</time>
      </trkpt>
      <trkpt lat="44.56831" lon="-0.90376">
        <ele>-30</ele>
        <time>2015-10-09T19:29:18Z</time>
      </trkpt>
      <trkpt lat="44.56843" lon="-0.90394">
        <ele>-31</ele>
        <time>2015-10-09T19:29:23Z</time>
      </trkpt>
      <trkpt lat="44.56851" lon="-0.90402">
        <ele>-31</ele>
        <time>2015-10-09T19:29:27Z</time>
      </trkpt>
      <trkpt lat="44.56855" lon="-0.90408">
        <ele>-30</ele>
        <time>2015-10-09T19:29:30Z</time>
      </trkpt>
      <trkpt lat="44.56865" lon="-0.90416">
        <ele>-30</ele>
        <time>2015-10-09T19:29:35Z</time>
      </trkpt>
      <trkpt lat="44.56878" lon="-0.90428">
        <ele>-29</ele>
        <time>2015-10-09T19:29:40Z</time>
      </trkpt>
      <trkpt lat="44.56885" lon="-0.90437">
        <ele>-30</ele>
        <time>2015-10-09T19:29:44Z</time>
      </trkpt>
      <trkpt lat="44.56892" lon="-0.9045">
        <ele>-31</ele>
        <time>2015-10-09T19:29:49Z</time>
      </trkpt>
      <trkpt lat="44.56899" lon="-0.90454">
        <ele>-31</ele>
        <time>2015-10-09T19:29:54Z</time>
      </trkpt>
      <trkpt lat="44.56905" lon="-0.90461">
        <ele>-32</ele>
        <time>2015-10-09T19:29:59Z</time>
      </trkpt>
      <trkpt lat="44.56911" lon="-0.90467">
        <ele>-32</ele>
        <time>2015-10-09T19:30:04Z</time>
      </trkpt>
      <trkpt lat="44.5692" lon="-0.9047">
        <ele>-32</ele>
        <time>2015-10-09T19:30:08Z</time>
      </trkpt>
      <trkpt lat="44.56926" lon="-0.90467">
        <ele>-32</ele>
        <time>2015-10-09T19:30:12Z</time>
      </trkpt>
      <trkpt lat="44.56934" lon="-0.90465">
        <ele>-32</ele>
        <time>2015-10-09T19:30:34Z</time>
      </trkpt>
      <trkpt lat="44.56944" lon="-0.90454">
        <ele>-34</ele>
        <time>2015-10-09T19:30:38Z</time>
      </trkpt>
      <trkpt lat="44.5695" lon="-0.90463">
        <ele>-35</ele>
        <time>2015-10-09T19:30:52Z</time>
      </trkpt>
      <trkpt lat="44.56957" lon="-0.90459">
        <ele>-35</ele>
        <time>2015-10-09T19:31:21Z</time>
      </trkpt>
      <trkpt lat="44.56964" lon="-0.90453">
        <ele>-35</ele>
        <time>2015-10-09T19:31:39Z</time>
      </trkpt>
      <trkpt lat="44.56972" lon="-0.90451">
        <ele>-36</ele>
        <time>2015-10-09T19:31:48Z</time>
      </trkpt>
      <trkpt lat="44.56966" lon="-0.90443">
        <ele>-38</ele>
        <time>2015-10-09T19:32:09Z</time>
      </trkpt>
      <trkpt lat="44.56968" lon="-0.90432">
        <ele>-40</ele>
        <time>2015-10-09T19:32:48Z</time>
      </trkpt>
      <trkpt lat="44.56976" lon="-0.9043">
        <ele>-39</ele>
        <time>2015-10-09T19:32:53Z</time>
      </trkpt>
      <trkpt lat="44.56989" lon="-0.90432">
        <ele>-37</ele>
        <time>2015-10-09T19:32:58Z</time>
      </trkpt>
      <trkpt lat="44.56997" lon="-0.90429">
        <ele>-35</ele>
        <time>2015-10-09T19:33:05Z</time>
      </trkpt>
      <trkpt lat="44.57006" lon="-0.90425">
        <ele>-33</ele>
        <time>2015-10-09T19:33:10Z</time>
      </trkpt>
      <trkpt lat="44.57011" lon="-0.90424">
        <ele>-32</ele>
        <time>2015-10-09T19:33:14Z</time>
      </trkpt>
      <trkpt lat="44.57024" lon="-0.90424">
        <ele>-29</ele>
        <time>2015-10-09T19:33:19Z</time>
      </trkpt>
      <trkpt lat="44.57035" lon="-0.90423">
        <ele>-27</ele>
        <time>2015-10-09T19:33:23Z</time>
      </trkpt>
      <trkpt lat="44.57044" lon="-0.90424">
        <ele>-25</ele>
        <time>2015-10-09T19:33:27Z</time>
      </trkpt>
      <trkpt lat="44.57047" lon="-0.90425">
        <ele>-24</ele>
        <time>2015-10-09T19:33:29Z</time>
      </trkpt>
      <trkpt lat="44.57055" lon="-0.90425">
        <ele>-23</ele>
        <time>2015-10-09T19:33:32Z</time>
      </trkpt>
      <trkpt lat="44.57067" lon="-0.90428">
        <ele>-21</ele>
        <time>2015-10-09T19:33:36Z</time>
      </trkpt>
      <trkpt lat="44.57076" lon="-0.9043">
        <ele>-19</ele>
        <time>2015-10-09T19:33:39Z</time>
      </trkpt>
      <trkpt lat="44.57086" lon="-0.90433">
        <ele>-17</ele>
        <time>2015-10-09T19:33:43Z</time>
      </trkpt>
      <trkpt lat="44.57094" lon="-0.90435">
        <ele>-15</ele>
        <time>2015-10-09T19:33:47Z</time>
      </trkpt>
      <trkpt lat="44.57105" lon="-0.90439">
        <ele>-13</ele>
        <time>2015-10-09T19:33:52Z</time>
      </trkpt>
      <trkpt lat="44.57117" lon="-0.90441">
        <ele>-11</ele>
        <time>2015-10-09T19:33:56Z</time>
      </trkpt>
      <trkpt lat="44.57125" lon="-0.90448">
        <ele>-10</ele>
        <time>2015-10-09T19:34:00Z</time>
      </trkpt>
      <trkpt lat="44.57133" lon="-0.90458">
        <ele>-8</ele>
        <time>2015-10-09T19:34:04Z</time>
      </trkpt>
      <trkpt lat="44.57142" lon="-0.90472">
        <ele>-7</ele>
        <time>2015-10-09T19:34:09Z</time>
      </trkpt>
      <trkpt lat="44.57147" lon="-0.90477">
        <ele>-5</ele>
        <time>2015-10-09T19:34:13Z</time>
      </trkpt>
      <trkpt lat="44.57154" lon="-0.90483">
        <ele>-4</ele>
        <time>2015-10-09T19:34:17Z</time>
      </trkpt>
      <trkpt lat="44.57159" lon="-0.90487">
        <ele>-3</ele>
        <time>2015-10-09T19:34:21Z</time>
      </trkpt>
      <trkpt lat="44.57166" lon="-0.90495">
        <ele>9</ele>
        <time>2015-10-09T19:34:26Z</time>
      </trkpt>
      <trkpt lat="44.57172" lon="-0.90502">
        <ele>8.9</ele>
        <time>2015-10-09T19:34:30Z</time>
      </trkpt>
      <trkpt lat="44.57183" lon="-0.90508">
        <ele>2</ele>
        <time>2015-10-09T19:34:35Z</time>
      </trkpt>
      <trkpt lat="44.57195" lon="-0.9052">
        <ele>4</ele>
        <time>2015-10-09T19:34:39Z</time>
      </trkpt>
      <trkpt lat="44.57206" lon="-0.9053">
        <ele>6</ele>
        <time>2015-10-09T19:34:43Z</time>
      </trkpt>
      <trkpt lat="44.57217" lon="-0.90541">
        <ele>7</ele>
        <time>2015-10-09T19:34:47Z</time>
      </trkpt>
      <trkpt lat="44.57229" lon="-0.90554">
        <ele>8</ele>
        <time>2015-10-09T19:34:51Z</time>
      </trkpt>
      <trkpt lat="44.57241" lon="-0.90566">
        <ele>9</ele>
        <time>2015-10-09T19:34:55Z</time>
      </trkpt>
      <trkpt lat="44.57247" lon="-0.90574">
        <ele>11</ele>
        <time>2015-10-09T19:34:59Z</time>
      </trkpt>
      <trkpt lat="44.57253" lon="-0.90582">
        <ele>12</ele>
        <time>2015-10-09T19:35:03Z</time>
      </trkpt>
      <trkpt lat="44.57259" lon="-0.90586">
        <ele>13</ele>
        <time>2015-10-09T19:35:08Z</time>
      </trkpt>
      <trkpt lat="44.57265" lon="-0.90589">
        <ele>14</ele>
        <time>2015-10-09T19:35:11Z</time>
      </trkpt>
      <trkpt lat="44.57257" lon="-0.90591">
        <ele>8</ele>
        <time>2015-10-09T19:35:33Z</time>
      </trkpt>
      <trkpt lat="44.57255" lon="-0.90605">
        <ele>7</ele>
        <time>2015-10-09T19:35:38Z</time>
      </trkpt>
      <trkpt lat="44.57265" lon="-0.90628">
        <ele>6</ele>
        <time>2015-10-09T19:35:43Z</time>
      </trkpt>
      <trkpt lat="44.57274" lon="-0.90639">
        <ele>6</ele>
        <time>2015-10-09T19:35:47Z</time>
      </trkpt>
      <trkpt lat="44.57284" lon="-0.90656">
        <ele>6</ele>
        <time>2015-10-09T19:35:51Z</time>
      </trkpt>
      <trkpt lat="44.57294" lon="-0.9067">
        <ele>6</ele>
        <time>2015-10-09T19:35:55Z</time>
      </trkpt>
      <trkpt lat="44.57305" lon="-0.90682">
        <ele>6</ele>
        <time>2015-10-09T19:35:59Z</time>
      </trkpt>
      <trkpt lat="44.57315" lon="-0.90691">
        <ele>7</ele>
        <time>2015-10-09T19:36:02Z</time>
      </trkpt>
      <trkpt lat="44.57324" lon="-0.907">
        <ele>8</ele>
        <time>2015-10-09T19:36:06Z</time>
      </trkpt>
      <trkpt lat="44.5734" lon="-0.90712">
        <ele>9</ele>
        <time>2015-10-09T19:36:10Z</time>
      </trkpt>
      <trkpt lat="44.57356" lon="-0.90722">
        <ele>11</ele>
        <time>2015-10-09T19:36:15Z</time>
      </trkpt>
      <trkpt lat="44.57371" lon="-0.90733">
        <ele>12</ele>
        <time>2015-10-09T19:36:19Z</time>
      </trkpt>
      <trkpt lat="44.57387" lon="-0.90741">
        <ele>13</ele>
        <time>2015-10-09T19:36:23Z</time>
      </trkpt>
      <trkpt lat="44.574" lon="-0.90746">
        <ele>13</ele>
        <time>2015-10-09T19:36:27Z</time>
      </trkpt>
      <trkpt lat="44.57414" lon="-0.90756">
        <ele>13</ele>
        <time>2015-10-09T19:36:31Z</time>
      </trkpt>
      <trkpt lat="44.57426" lon="-0.90766">
        <ele>14</ele>
        <time>2015-10-09T19:36:36Z</time>
      </trkpt>
      <trkpt lat="44.57434" lon="-0.90774">
        <ele>15</ele>
        <time>2015-10-09T19:36:40Z</time>
      </trkpt>
      <trkpt lat="44.57443" lon="-0.90777">
        <ele>16</ele>
        <time>2015-10-09T19:36:44Z</time>
      </trkpt>
      <trkpt lat="44.5745" lon="-0.90779">
        <ele>17</ele>
        <time>2015-10-09T19:36:48Z</time>
      </trkpt>
      <trkpt lat="44.57459" lon="-0.90783">
        <ele>18</ele>
        <time>2015-10-09T19:36:52Z</time>
      </trkpt>
      <trkpt lat="44.57464" lon="-0.90787">
        <ele>18</ele>
        <time>2015-10-09T19:36:55Z</time>
      </trkpt>
      <trkpt lat="44.57474" lon="-0.90793">
        <ele>20</ele>
        <time>2015-10-09T19:37:00Z</time>
      </trkpt>
      <trkpt lat="44.57485" lon="-0.908">
        <ele>21</ele>
        <time>2015-10-09T19:37:05Z</time>
      </trkpt>
      <trkpt lat="44.57493" lon="-0.90803">
        <ele>21</ele>
        <time>2015-10-09T19:37:10Z</time>
      </trkpt>
      <trkpt lat="44.57499" lon="-0.90806">
        <ele>23</ele>
        <time>2015-10-09T19:37:16Z</time>
      </trkpt>
      <trkpt lat="44.57506" lon="-0.90815">
        <ele>23</ele>
        <time>2015-10-09T19:37:20Z</time>
      </trkpt>
      <trkpt lat="44.57513" lon="-0.90814">
        <ele>24</ele>
        <time>2015-10-09T19:37:25Z</time>
      </trkpt>
      <trkpt lat="44.57519" lon="-0.90825">
        <ele>23</ele>
        <time>2015-10-09T19:37:29Z</time>
      </trkpt>
      <trkpt lat="44.57523" lon="-0.90833">
        <ele>23</ele>
        <time>2015-10-09T19:37:33Z</time>
      </trkpt>
      <trkpt lat="44.57526" lon="-0.90842">
        <ele>23</ele>
        <time>2015-10-09T19:37:37Z</time>
      </trkpt>
      <trkpt lat="44.57532" lon="-0.90849">
        <ele>22</ele>
        <time>2015-10-09T19:37:44Z</time>
      </trkpt>
      <trkpt lat="44.57535" lon="-0.90856">
        <ele>22</ele>
        <time>2015-10-09T19:37:49Z</time>
      </trkpt>
      <trkpt lat="44.5754" lon="-0.90862">
        <ele>23</ele>
        <time>2015-10-09T19:37:53Z</time>
      </trkpt>
      <trkpt lat="44.57545" lon="-0.90867">
        <ele>23</ele>
        <time>2015-10-09T19:37:58Z</time>
      </trkpt>
      <trkpt lat="44.57554" lon="-0.90879">
        <ele>23</ele>
        <time>2015-10-09T19:38:03Z</time>
      </trkpt>
      <trkpt lat="44.57558" lon="-0.90889">
        <ele>23</ele>
        <time>2015-10-09T19:38:07Z</time>
      </trkpt>
      <trkpt lat="44.57565" lon="-0.90898">
        <ele>22</ele>
        <time>2015-10-09T19:38:11Z</time>
      </trkpt>
      <trkpt lat="44.57572" lon="-0.90904">
        <ele>20</ele>
        <time>2015-10-09T19:38:16Z</time>
      </trkpt>
      <trkpt lat="44.57582" lon="-0.90917">
        <ele>19</ele>
        <time>2015-10-09T19:38:21Z</time>
      </trkpt>
      <trkpt lat="44.57589" lon="-0.90929">
        <ele>19</ele>
        <time>2015-10-09T19:38:25Z</time>
      </trkpt>
      <trkpt lat="44.57597" lon="-0.9094">
        <ele>20</ele>
        <time>2015-10-09T19:38:30Z</time>
      </trkpt>
      <trkpt lat="44.57602" lon="-0.90945">
        <ele>20</ele>
        <time>2015-10-09T19:38:33Z</time>
      </trkpt>
      <trkpt lat="44.57609" lon="-0.90953">
        <ele>20</ele>
        <time>2015-10-09T19:38:37Z</time>
      </trkpt>
      <trkpt lat="44.57616" lon="-0.90961">
        <ele>20</ele>
        <time>2015-10-09T19:38:41Z</time>
      </trkpt>
      <trkpt lat="44.57624" lon="-0.90971">
        <ele>20</ele>
        <time>2015-10-09T19:38:45Z</time>
      </trkpt>
      <trkpt lat="44.57629" lon="-0.90977">
        <ele>20</ele>
        <time>2015-10-09T19:38:49Z</time>
      </trkpt>
      <trkpt lat="44.57635" lon="-0.90984">
        <ele>17</ele>
        <time>2015-10-09T19:39:03Z</time>
      </trkpt>
      <trkpt lat="44.5764" lon="-0.90992">
        <ele>16</ele>
        <time>2015-10-09T19:39:10Z</time>
      </trkpt>
      <trkpt lat="44.57643" lon="-0.91002">
        <ele>15</ele>
        <time>2015-10-09T19:39:16Z</time>
      </trkpt>
      <trkpt lat="44.57647" lon="-0.91013">
        <ele>14</ele>
        <time>2015-10-09T19:39:23Z</time>
      </trkpt>
      <trkpt lat="44.5765" lon="-0.9102">
        <ele>14</ele>
        <time>2015-10-09T19:39:28Z</time>
      </trkpt>
      <trkpt lat="44.57653" lon="-0.91034">
        <ele>13</ele>
        <time>2015-10-09T19:39:31Z</time>
      </trkpt>
      <trkpt lat="44.57658" lon="-0.91043">
        <ele>13</ele>
        <time>2015-10-09T19:39:36Z</time>
      </trkpt>
      <trkpt lat="44.57664" lon="-0.91051">
        <ele>13</ele>
        <time>2015-10-09T19:39:40Z</time>
      </trkpt>
      <trkpt lat="44.57671" lon="-0.91059">
        <ele>12</ele>
        <time>2015-10-09T19:39:44Z</time>
      </trkpt>
      <trkpt lat="44.57678" lon="-0.91065">
        <ele>12</ele>
        <time>2015-10-09T19:39:48Z</time>
      </trkpt>
      <trkpt lat="44.57682" lon="-0.91071">
        <ele>11</ele>
        <time>2015-10-09T19:39:51Z</time>
      </trkpt>
      <trkpt lat="44.57687" lon="-0.91078">
        <ele>11</ele>
        <time>2015-10-09T19:39:55Z</time>
      </trkpt>
      <trkpt lat="44.57695" lon="-0.91085">
        <ele>11</ele>
        <time>2015-10-09T19:39:59Z</time>
      </trkpt>
      <trkpt lat="44.57703" lon="-0.91091">
        <ele>10</ele>
        <time>2015-10-09T19:40:03Z</time>
      </trkpt>
      <trkpt lat="44.57711" lon="-0.91097">
        <ele>10</ele>
        <time>2015-10-09T19:40:08Z</time>
      </trkpt>
      <trkpt lat="44.57717" lon="-0.91105">
        <ele>9</ele>
        <time>2015-10-09T19:40:14Z</time>
      </trkpt>
      <trkpt lat="44.57723" lon="-0.91112">
        <ele>9</ele>
        <time>2015-10-09T19:40:19Z</time>
      </trkpt>
      <trkpt lat="44.57731" lon="-0.91114">
        <ele>9</ele>
        <time>2015-10-09T19:40:23Z</time>
      </trkpt>
      <trkpt lat="44.57738" lon="-0.91116">
        <ele>8</ele>
        <time>2015-10-09T19:40:27Z</time>
      </trkpt>
      <trkpt lat="44.57746" lon="-0.91125">
        <ele>8</ele>
        <time>2015-10-09T19:40:31Z</time>
      </trkpt>
      <trkpt lat="44.57752" lon="-0.91132">
        <ele>8</ele>
        <time>2015-10-09T19:40:34Z</time>
      </trkpt>
      <trkpt lat="44.57757" lon="-0.91141">
        <ele>7</ele>
        <time>2015-10-09T19:40:40Z</time>
      </trkpt>
      <trkpt lat="44.57764" lon="-0.9115">
        <ele>7</ele>
        <time>2015-10-09T19:40:45Z</time>
      </trkpt>
      <trkpt lat="44.57771" lon="-0.91156">
        <ele>6</ele>
        <time>2015-10-09T19:40:50Z</time>
      </trkpt>
      <trkpt lat="44.57778" lon="-0.91161">
        <ele>6</ele>
        <time>2015-10-09T19:40:55Z</time>
      </trkpt>
      <trkpt lat="44.57783" lon="-0.91169">
        <ele>6</ele>
        <time>2015-10-09T19:40:59Z</time>
      </trkpt>
      <trkpt lat="44.57791" lon="-0.91175">
        <ele>5</ele>
        <time>2015-10-09T19:41:06Z</time>
      </trkpt>
      <trkpt lat="44.57789" lon="-0.91178">
        <ele>5</ele>
        <time>2015-10-09T19:41:19Z</time>
      </trkpt>
      <trkpt lat="44.57793" lon="-0.9119">
        <ele>6</ele>
        <time>2015-10-09T19:41:24Z</time>
      </trkpt>
      <trkpt lat="44.57796" lon="-0.91192">
        <ele>5</ele>
        <time>2015-10-09T19:41:34Z</time>
      </trkpt>
      <trkpt lat="44.57805" lon="-0.912">
        <ele>3</ele>
        <time>2015-10-09T19:41:38Z</time>
      </trkpt>
      <trkpt lat="44.57811" lon="-0.91206">
        <ele>3</ele>
        <time>2015-10-09T19:41:43Z</time>
      </trkpt>
      <trkpt lat="44.57821" lon="-0.91215">
        <ele>2</ele>
        <time>2015-10-09T19:41:48Z</time>
      </trkpt>
      <trkpt lat="44.57824" lon="-0.9122">
        <ele>2</ele>
        <time>2015-10-09T19:41:51Z</time>
      </trkpt>
      <trkpt lat="44.57829" lon="-0.91226">
        <ele>1</ele>
        <time>2015-10-09T19:41:55Z</time>
      </trkpt>
      <trkpt lat="44.57837" lon="-0.91232">
        <ele>10.5</ele>
        <time>2015-10-09T19:42:00Z</time>
      </trkpt>
      <trkpt lat="44.57847" lon="-0.91238">
        <ele>-1</ele>
        <time>2015-10-09T19:42:04Z</time>
      </trkpt>
      <trkpt lat="44.57853" lon="-0.91244">
        <ele>-1</ele>
        <time>2015-10-09T19:42:08Z</time>
      </trkpt>
      <trkpt lat="44.57858" lon="-0.91252">
        <ele>-1</ele>
        <time>2015-10-09T19:42:12Z</time>
      </trkpt>
      <trkpt lat="44.57866" lon="-0.91249">
        <ele>-2</ele>
        <time>2015-10-09T19:42:18Z</time>
      </trkpt>
      <trkpt lat="44.57873" lon="-0.91251">
        <ele>-1</ele>
        <time>2015-10-09T19:42:22Z</time>
      </trkpt>
      <trkpt lat="44.57877" lon="-0.91253">
        <ele>-1</ele>
        <time>2015-10-09T19:42:25Z</time>
      </trkpt>
      <trkpt lat="44.57886" lon="-0.91258">
        <ele>-1</ele>
        <time>2015-10-09T19:42:29Z</time>
      </trkpt>
      <trkpt lat="44.57898" lon="-0.91262">
        <ele>9.1</ele>
        <time>2015-10-09T19:42:33Z</time>
      </trkpt>
      <trkpt lat="44.57916" lon="-0.91259">
        <ele>8.4</ele>
        <time>2015-10-09T19:42:38Z</time>
      </trkpt>
      <trkpt lat="44.57931" lon="-0.91261">
        <ele>2</ele>
        <time>2015-10-09T19:42:42Z</time>
      </trkpt>
      <trkpt lat="44.57949" lon="-0.91263">
        <ele>5</ele>
        <time>2015-10-09T19:42:47Z</time>
      </trkpt>
      <trkpt lat="44.57957" lon="-0.91267">
        <ele>6</ele>
        <time>2015-10-09T19:42:50Z</time>
      </trkpt>
      <trkpt lat="44.57965" lon="-0.91276">
        <ele>7</ele>
        <time>2015-10-09T19:42:55Z</time>
      </trkpt>
      <trkpt lat="44.57974" lon="-0.91285">
        <ele>8</ele>
        <time>2015-10-09T19:42:59Z</time>
      </trkpt>
      <trkpt lat="44.57989" lon="-0.913">
        <ele>8</ele>
        <time>2015-10-09T19:43:04Z</time>
      </trkpt>
      <trkpt lat="44.57997" lon="-0.91304">
        <ele>9</ele>
        <time>2015-10-09T19:43:07Z</time>
      </trkpt>
      <trkpt lat="44.58005" lon="-0.91307">
        <ele>11</ele>
        <time>2015-10-09T19:43:11Z</time>
      </trkpt>
      <trkpt lat="44.58014" lon="-0.91314">
        <ele>13</ele>
        <time>2015-10-09T19:43:15Z</time>
      </trkpt>
      <trkpt lat="44.58021" lon="-0.91317">
        <ele>15</ele>
        <time>2015-10-09T19:43:19Z</time>
      </trkpt>
      <trkpt lat="44.58029" lon="-0.91322">
        <ele>16</ele>
        <time>2015-10-09T19:43:22Z</time>
      </trkpt>
      <trkpt lat="44.58039" lon="-0.91328">
        <ele>18</ele>
        <time>2015-10-09T19:43:26Z</time>
      </trkpt>
      <trkpt lat="44.58053" lon="-0.91331">
        <ele>21</ele>
        <time>2015-10-09T19:43:31Z</time>
      </trkpt>
      <trkpt lat="44.5806" lon="-0.91333">
        <ele>22</ele>
        <time>2015-10-09T19:43:34Z</time>
      </trkpt>
      <trkpt lat="44.58065" lon="-0.91335">
        <ele>23</ele>
        <time>2015-10-09T19:43:36Z</time>
      </trkpt>
      <trkpt lat="44.58069" lon="-0.91338">
        <ele>24</ele>
        <time>2015-10-09T19:43:39Z</time>
      </trkpt>
      <trkpt lat="44.58083" lon="-0.91341">
        <ele>27</ele>
        <time>2015-10-09T19:43:44Z</time>
      </trkpt>
      <trkpt lat="44.58096" lon="-0.91346">
        <ele>30</ele>
        <time>2015-10-09T19:43:48Z</time>
      </trkpt>
      <trkpt lat="44.58112" lon="-0.91352">
        <ele>33</ele>
        <time>2015-10-09T19:43:53Z</time>
      </trkpt>
      <trkpt lat="44.58119" lon="-0.91357">
        <ele>34</ele>
        <time>2015-10-09T19:43:56Z</time>
      </trkpt>
      <trkpt lat="44.58126" lon="-0.91358">
        <ele>34</ele>
        <time>2015-10-09T19:44:00Z</time>
      </trkpt>
      <trkpt lat="44.58131" lon="-0.91367">
        <ele>35</ele>
        <time>2015-10-09T19:44:07Z</time>
      </trkpt>
      <trkpt lat="44.58136" lon="-0.91379">
        <ele>36</ele>
        <time>2015-10-09T19:44:11Z</time>
      </trkpt>
      <trkpt lat="44.58138" lon="-0.91389">
        <ele>38</ele>
        <time>2015-10-09T19:44:14Z</time>
      </trkpt>
      <trkpt lat="44.58143" lon="-0.914">
        <ele>38</ele>
        <time>2015-10-09T19:44:19Z</time>
      </trkpt>
      <trkpt lat="44.58153" lon="-0.91416">
        <ele>40</ele>
        <time>2015-10-09T19:44:24Z</time>
      </trkpt>
      <trkpt lat="44.5816" lon="-0.91424">
        <ele>40</ele>
        <time>2015-10-09T19:44:27Z</time>
      </trkpt>
      <trkpt lat="44.58166" lon="-0.91445">
        <ele>41</ele>
        <time>2015-10-09T19:44:32Z</time>
      </trkpt>
      <trkpt lat="44.58177" lon="-0.91462">
        <ele>43</ele>
        <time>2015-10-09T19:44:37Z</time>
      </trkpt>
      <trkpt lat="44.58184" lon="-0.91472">
        <ele>44</ele>
        <time>2015-10-09T19:44:41Z</time>
      </trkpt>
      <trkpt lat="44.58196" lon="-0.91491">
        <ele>44</ele>
        <time>2015-10-09T19:44:46Z</time>
      </trkpt>
      <trkpt lat="44.58205" lon="-0.91503">
        <ele>45</ele>
        <time>2015-10-09T19:44:50Z</time>
      </trkpt>
      <trkpt lat="44.58214" lon="-0.91513">
        <ele>45</ele>
        <time>2015-10-09T19:44:53Z</time>
      </trkpt>
      <trkpt lat="44.58225" lon="-0.91524">
        <ele>47</ele>
        <time>2015-10-09T19:44:57Z</time>
      </trkpt>
      <trkpt lat="44.58232" lon="-0.91527">
        <ele>49</ele>
        <time>2015-10-09T19:45:02Z</time>
      </trkpt>
      <trkpt lat="44.58242" lon="-0.91533">
        <ele>49</ele>
        <time>2015-10-09T19:45:06Z</time>
      </trkpt>
      <trkpt lat="44.58249" lon="-0.9154">
        <ele>50</ele>
        <time>2015-10-09T19:45:10Z</time>
      </trkpt>
      <trkpt lat="44.58258" lon="-0.91549">
        <ele>51</ele>
        <time>2015-10-09T19:45:15Z</time>
      </trkpt>
      <trkpt lat="44.58266" lon="-0.91557">
        <ele>50</ele>
        <time>2015-10-09T19:45:19Z</time>
      </trkpt>
      <trkpt lat="44.58271" lon="-0.91565">
        <ele>51</ele>
        <time>2015-10-09T19:45:23Z</time>
      </trkpt>
      <trkpt lat="44.58277" lon="-0.91565">
        <ele>53</ele>
        <time>2015-10-09T19:45:30Z</time>
      </trkpt>
      <trkpt lat="44.58284" lon="-0.91569">
        <ele>54</ele>
        <time>2015-10-09T19:45:35Z</time>
      </trkpt>
      <trkpt lat="44.5829" lon="-0.91574">
        <ele>54</ele>
        <time>2015-10-09T19:45:39Z</time>
      </trkpt>
      <trkpt lat="44.58298" lon="-0.91584">
        <ele>54</ele>
        <time>2015-10-09T19:45:44Z</time>
      </trkpt>
      <trkpt lat="44.58306" lon="-0.91591">
        <ele>54</ele>
        <time>2015-10-09T19:45:47Z</time>
      </trkpt>
      <trkpt lat="44.58312" lon="-0.916">
        <ele>55</ele>
        <time>2015-10-09T19:45:51Z</time>
      </trkpt>
      <trkpt lat="44.58319" lon="-0.91607">
        <ele>55</ele>
        <time>2015-10-09T19:45:56Z</time>
      </trkpt>
      <trkpt lat="44.58325" lon="-0.91615">
        <ele>56</ele>
        <time>2015-10-09T19:46:03Z</time>
      </trkpt>
      <trkpt lat="44.58332" lon="-0.91623">
        <ele>56</ele>
        <time>2015-10-09T19:46:07Z</time>
      </trkpt>
      <trkpt lat="44.58339" lon="-0.91629">
        <ele>55</ele>
        <time>2015-10-09T19:46:11Z</time>
      </trkpt>
      <trkpt lat="44.58345" lon="-0.91638">
        <ele>55</ele>
        <time>2015-10-09T19:46:18Z</time>
      </trkpt>
      <trkpt lat="44.58351" lon="-0.91647">
        <ele>56</ele>
        <time>2015-10-09T19:46:24Z</time>
      </trkpt>
      <trkpt lat="44.58357" lon="-0.91657">
        <ele>55</ele>
        <time>2015-10-09T19:46:29Z</time>
      </trkpt>
      <trkpt lat="44.58361" lon="-0.91667">
        <ele>54</ele>
        <time>2015-10-09T19:46:33Z</time>
      </trkpt>
      <trkpt lat="44.58366" lon="-0.91677">
        <ele>54</ele>
        <time>2015-10-09T19:46:37Z</time>
      </trkpt>
      <trkpt lat="44.58369" lon="-0.91684">
        <ele>54</ele>
        <time>2015-10-09T19:46:39Z</time>
      </trkpt>
      <trkpt lat="44.58373" lon="-0.91697">
        <ele>54</ele>
        <time>2015-10-09T19:46:43Z</time>
      </trkpt>
      <trkpt lat="44.58378" lon="-0.91706">
        <ele>54</ele>
        <time>2015-10-09T19:46:46Z</time>
      </trkpt>
      <trkpt lat="44.58388" lon="-0.91725">
        <ele>54</ele>
        <time>2015-10-09T19:46:50Z</time>
      </trkpt>
      <trkpt lat="44.58393" lon="-0.91735">
        <ele>54</ele>
        <time>2015-10-09T19:46:54Z</time>
      </trkpt>
      <trkpt lat="44.58408" lon="-0.91753">
        <ele>54</ele>
        <time>2015-10-09T19:46:59Z</time>
      </trkpt>
      <trkpt lat="44.58412" lon="-0.91763">
        <ele>53</ele>
        <time>2015-10-09T19:47:02Z</time>
      </trkpt>
      <trkpt lat="44.58418" lon="-0.91775">
        <ele>53</ele>
        <time>2015-10-09T19:47:05Z</time>
      </trkpt>
      <trkpt lat="44.58424" lon="-0.91792">
        <ele>53</ele>
        <time>2015-10-09T19:47:09Z</time>
      </trkpt>
      <trkpt lat="44.58429" lon="-0.91804">
        <ele>53</ele>
        <time>2015-10-09T19:47:14Z</time>
      </trkpt>
      <trkpt lat="44.58436" lon="-0.91813">
        <ele>53</ele>
        <time>2015-10-09T19:47:19Z</time>
      </trkpt>
      <trkpt lat="44.58442" lon="-0.91821">
        <ele>55</ele>
        <time>2015-10-09T19:47:25Z</time>
      </trkpt>
      <trkpt lat="44.58443" lon="-0.9183">
        <ele>49</ele>
        <time>2015-10-09T19:48:26Z</time>
      </trkpt>
      <trkpt lat="44.58444" lon="-0.91842">
        <ele>48</ele>
        <time>2015-10-09T19:48:31Z</time>
      </trkpt>
      <trkpt lat="44.58438" lon="-0.91852">
        <ele>46</ele>
        <time>2015-10-09T19:48:36Z</time>
      </trkpt>
      <trkpt lat="44.58439" lon="-0.91864">
        <ele>44</ele>
        <time>2015-10-09T19:48:41Z</time>
      </trkpt>
      <trkpt lat="44.58434" lon="-0.91867">
        <ele>44</ele>
        <time>2015-10-09T19:48:45Z</time>
      </trkpt>
      <trkpt lat="44.58422" lon="-0.91868">
        <ele>43</ele>
        <time>2015-10-09T19:48:50Z</time>
      </trkpt>
      <trkpt lat="44.58413" lon="-0.91868">
        <ele>43</ele>
        <time>2015-10-09T19:48:53Z</time>
      </trkpt>
      <trkpt lat="44.58404" lon="-0.91871">
        <ele>43</ele>
        <time>2015-10-09T19:48:58Z</time>
      </trkpt>
      <trkpt lat="44.58395" lon="-0.91868">
        <ele>43</ele>
        <time>2015-10-09T19:49:02Z</time>
      </trkpt>
      <trkpt lat="44.58386" lon="-0.91861">
        <ele>40</ele>
        <time>2015-10-09T19:49:06Z</time>
      </trkpt>
      <trkpt lat="44.58386" lon="-0.91868">
        <ele>34</ele>
        <time>2015-10-09T19:49:10Z</time>
      </trkpt>
      <trkpt lat="44.58385" lon="-0.91883">
        <ele>29</ele>
        <time>2015-10-09T19:49:15Z</time>
      </trkpt>
      <trkpt lat="44.5838" lon="-0.9189">
        <ele>24</ele>
        <time>2015-10-09T19:49:19Z</time>
      </trkpt>
      <trkpt lat="44.58376" lon="-0.91898">
        <ele>20</ele>
        <time>2015-10-09T19:49:23Z</time>
      </trkpt>
      <trkpt lat="44.58374" lon="-0.91907">
        <ele>16</ele>
        <time>2015-10-09T19:49:28Z</time>
      </trkpt>
      <trkpt lat="44.58367" lon="-0.91917">
        <ele>12</ele>
        <time>2015-10-09T19:49:33Z</time>
      </trkpt>
      <trkpt lat="44.58357" lon="-0.91919">
        <ele>10</ele>
        <time>2015-10-09T19:49:37Z</time>
      </trkpt>
      <trkpt lat="44.58349" lon="-0.91923">
        <ele>8</ele>
        <time>2015-10-09T19:49:41Z</time>
      </trkpt>
      <trkpt lat="44.58348" lon="-0.91929">
        <ele>6</ele>
        <time>2015-10-09T19:49:56Z</time>
      </trkpt>
      <trkpt lat="44.58349" lon="-0.91938">
        <ele>11.9</ele>
        <time>2015-10-09T19:50:24Z</time>
      </trkpt>
      <trkpt lat="44.58337" lon="-0.91949">
        <ele>-3</ele>
        <time>2015-10-09T19:50:28Z</time>
      </trkpt>
      <trkpt lat="44.58322" lon="-0.91954">
        <ele>-5</ele>
        <time>2015-10-09T19:50:32Z</time>
      </trkpt>
      <trkpt lat="44.58307" lon="-0.91963">
        <ele>-6</ele>
        <time>2015-10-09T19:50:36Z</time>
      </trkpt>
      <trkpt lat="44.5829" lon="-0.91968">
        <ele>-7</ele>
        <time>2015-10-09T19:50:40Z</time>
      </trkpt>
      <trkpt lat="44.58277" lon="-0.91977">
        <ele>-9</ele>
        <time>2015-10-09T19:50:45Z</time>
      </trkpt>
      <trkpt lat="44.58266" lon="-0.91984">
        <ele>-11</ele>
        <time>2015-10-09T19:50:49Z</time>
      </trkpt>
      <trkpt lat="44.5826" lon="-0.91987">
        <ele>-13</ele>
        <time>2015-10-09T19:50:53Z</time>
      </trkpt>
      <trkpt lat="44.5826" lon="-0.92013">
        <ele>-14</ele>
        <time>2015-10-09T19:50:58Z</time>
      </trkpt>
      <trkpt lat="44.58252" lon="-0.92024">
        <ele>-14</ele>
        <time>2015-10-09T19:51:02Z</time>
      </trkpt>
      <trkpt lat="44.5824" lon="-0.92032">
        <ele>-14</ele>
        <time>2015-10-09T19:51:06Z</time>
      </trkpt>
      <trkpt lat="44.58231" lon="-0.92037">
        <ele>-15</ele>
        <time>2015-10-09T19:51:09Z</time>
      </trkpt>
      <trkpt lat="44.58221" lon="-0.92042">
        <ele>-18</ele>
        <time>2015-10-09T19:51:13Z</time>
      </trkpt>
      <trkpt lat="44.5821" lon="-0.92051">
        <ele>-20</ele>
        <time>2015-10-09T19:51:17Z</time>
      </trkpt>
      <trkpt lat="44.582" lon="-0.92059">
        <ele>-21</ele>
        <time>2015-10-09T19:51:20Z</time>
      </trkpt>
      <trkpt lat="44.58187" lon="-0.9207">
        <ele>-24</ele>
        <time>2015-10-09T19:51:24Z</time>
      </trkpt>
      <trkpt lat="44.58177" lon="-0.92077">
        <ele>-26</ele>
        <time>2015-10-09T19:51:27Z</time>
      </trkpt>
      <trkpt lat="44.58163" lon="-0.92088">
        <ele>-28</ele>
        <time>2015-10-09T19:51:32Z</time>
      </trkpt>
      <trkpt lat="44.58151" lon="-0.92094">
        <ele>-29</ele>
        <time>2015-10-09T19:51:36Z</time>
      </trkpt>
      <trkpt lat="44.58143" lon="-0.92101">
        <ele>-30</ele>
        <time>2015-10-09T19:51:39Z</time>
      </trkpt>
      <trkpt lat="44.5814" lon="-0.9211">
        <ele>-31</ele>
        <time>2015-10-09T19:51:51Z</time>
      </trkpt>
      <trkpt lat="44.58146" lon="-0.9212">
        <ele>-32</ele>
        <time>2015-10-09T19:51:57Z</time>
      </trkpt>
      <trkpt lat="44.5815" lon="-0.92124">
        <ele>-32</ele>
        <time>2015-10-09T19:52:00Z</time>
      </trkpt>
      <trkpt lat="44.58155" lon="-0.92128">
        <ele>-32</ele>
        <time>2015-10-09T19:52:04Z</time>
      </trkpt>
      <trkpt lat="44.58168" lon="-0.92138">
        <ele>-32</ele>
        <time>2015-10-09T19:52:09Z</time>
      </trkpt>
      <trkpt lat="44.58176" lon="-0.9214">
        <ele>-31</ele>
        <time>2015-10-09T19:52:13Z</time>
      </trkpt>
      <trkpt lat="44.58186" lon="-0.92148">
        <ele>-30</ele>
        <time>2015-10-09T19:52:17Z</time>
      </trkpt>
      <trkpt lat="44.58197" lon="-0.92158">
        <ele>-30</ele>
        <time>2015-10-09T19:52:20Z</time>
      </trkpt>
      <trkpt lat="44.58211" lon="-0.92171">
        <ele>-30</ele>
        <time>2015-10-09T19:52:24Z</time>
      </trkpt>
      <trkpt lat="44.58219" lon="-0.92188">
        <ele>-30</ele>
        <time>2015-10-09T19:52:29Z</time>
      </trkpt>
      <trkpt lat="44.58228" lon="-0.92211">
        <ele>-30</ele>
        <time>2015-10-09T19:52:33Z</time>
      </trkpt>
      <trkpt lat="44.58237" lon="-0.92232">
        <ele>-30</ele>
        <time>2015-10-09T19:52:37Z</time>
      </trkpt>
      <trkpt lat="44.58247" lon="-0.92255">
        <ele>-30</ele>
        <time>2015-10-09T19:52:42Z</time>
      </trkpt>
      <trkpt lat="44.58253" lon="-0.92274">
        <ele>-30</ele>
        <time>2015-10-09T19:52:46Z</time>
      </trkpt>
      <trkpt lat="44.58259" lon="-0.92293">
        <ele>-30</ele>
        <time>2015-10-09T19:52:50Z</time>
      </trkpt>
      <trkpt lat="44.58274" lon="-0.92331">
        <ele>-30</ele>
        <time>2015-10-09T19:52:55Z</time>
      </trkpt>
      <trkpt lat="44.58285" lon="-0.92351">
        <ele>-30</ele>
        <time>2015-10-09T19:52:59Z</time>
      </trkpt>
      <trkpt lat="44.58298" lon="-0.92371">
        <ele>-30</ele>
        <time>2015-10-09T19:53:03Z</time>
      </trkpt>
      <trkpt lat="44.58307" lon="-0.92384">
        <ele>-30</ele>
        <time>2015-10-09T19:53:06Z</time>
      </trkpt>
      <trkpt lat="44.58317" lon="-0.92405">
        <ele>-30</ele>
        <time>2015-10-09T19:53:11Z</time>
      </trkpt>
      <trkpt lat="44.58323" lon="-0.92421">
        <ele>-29</ele>
        <time>2015-10-09T19:53:15Z</time>
      </trkpt>
      <trkpt lat="44.58329" lon="-0.92438">
        <ele>-29</ele>
        <time>2015-10-09T19:53:19Z</time>
      </trkpt>
      <trkpt lat="44.58332" lon="-0.92446">
        <ele>-29</ele>
        <time>2015-10-09T19:53:21Z</time>
      </trkpt>
      <trkpt lat="44.58336" lon="-0.92455">
        <ele>-29</ele>
        <time>2015-10-09T19:53:25Z</time>
      </trkpt>
      <trkpt lat="44.58359" lon="-0.92502">
        <ele>-29</ele>
        <time>2015-10-09T19:53:30Z</time>
      </trkpt>
      <trkpt lat="44.58367" lon="-0.92522">
        <ele>-29</ele>
        <time>2015-10-09T19:53:34Z</time>
      </trkpt>
      <trkpt lat="44.58376" lon="-0.92539">
        <ele>-29</ele>
        <time>2015-10-09T19:53:39Z</time>
      </trkpt>
      <trkpt lat="44.5838" lon="-0.92547">
        <ele>-28</ele>
        <time>2015-10-09T19:53:43Z</time>
      </trkpt>
      <trkpt lat="44.58389" lon="-0.92557">
        <ele>-27</ele>
        <time>2015-10-09T19:53:47Z</time>
      </trkpt>
      <trkpt lat="44.58396" lon="-0.92567">
        <ele>-27</ele>
        <time>2015-10-09T19:53:51Z</time>
      </trkpt>
      <trkpt lat="44.58401" lon="-0.92574">
        <ele>-27</ele>
        <time>2015-10-09T19:53:54Z</time>
      </trkpt>
      <trkpt lat="44.5841" lon="-0.92583">
        <ele>-27</ele>
        <time>2015-10-09T19:53:58Z</time>
      </trkpt>
      <trkpt lat="44.58419" lon="-0.92592">
        <ele>-27</ele>
        <time>2015-10-09T19:54:03Z</time>
      </trkpt>
      <trkpt lat="44.58428" lon="-0.92604">
        <ele>-27</ele>
        <time>2015-10-09T19:54:07Z</time>
      </trkpt>
      <trkpt lat="44.58434" lon="-0.92612">
        <ele>-26</ele>
        <time>2015-10-09T19:54:12Z</time>
      </trkpt>
      <trkpt lat="44.58439" lon="-0.92619">
        <ele>-26</ele>
        <time>2015-10-09T19:54:16Z</time>
      </trkpt>
      <trkpt lat="44.58456" lon="-0.92639">
        <ele>-25</ele>
        <time>2015-10-09T19:54:21Z</time>
      </trkpt>
      <trkpt lat="44.58469" lon="-0.92664">
        <ele>-25</ele>
        <time>2015-10-09T19:54:25Z</time>
      </trkpt>
      <trkpt lat="44.58479" lon="-0.92672">
        <ele>-25</ele>
        <time>2015-10-09T19:54:29Z</time>
      </trkpt>
      <trkpt lat="44.58493" lon="-0.92684">
        <ele>-24</ele>
        <time>2015-10-09T19:54:33Z</time>
      </trkpt>
      <trkpt lat="44.58506" lon="-0.92697">
        <ele>-23</ele>
        <time>2015-10-09T19:54:37Z</time>
      </trkpt>
      <trkpt lat="44.58519" lon="-0.92707">
        <ele>-22</ele>
        <time>2015-10-09T19:54:41Z</time>
      </trkpt>
      <trkpt lat="44.58527" lon="-0.92715">
        <ele>-22</ele>
        <time>2015-10-09T19:54:44Z</time>
      </trkpt>
      <trkpt lat="44.5854" lon="-0.92727">
        <ele>-21</ele>
        <time>2015-10-09T19:54:49Z</time>
      </trkpt>
      <trkpt lat="44.58548" lon="-0.92732">
        <ele>-20</ele>
        <time>2015-10-09T19:54:53Z</time>
      </trkpt>
      <trkpt lat="44.58558" lon="-0.9274">
        <ele>-19</ele>
        <time>2015-10-09T19:54:58Z</time>
      </trkpt>
      <trkpt lat="44.58562" lon="-0.92743">
        <ele>-19</ele>
        <time>2015-10-09T19:55:00Z</time>
      </trkpt>
      <trkpt lat="44.58572" lon="-0.92751">
        <ele>-18</ele>
        <time>2015-10-09T19:55:05Z</time>
      </trkpt>
      <trkpt lat="44.58578" lon="-0.92758">
        <ele>-18</ele>
        <time>2015-10-09T19:55:09Z</time>
      </trkpt>
      <trkpt lat="44.58583" lon="-0.92765">
        <ele>-18</ele>
        <time>2015-10-09T19:55:13Z</time>
      </trkpt>
      <trkpt lat="44.58589" lon="-0.9277">
        <ele>-18</ele>
        <time>2015-10-09T19:55:17Z</time>
      </trkpt>
      <trkpt lat="44.58596" lon="-0.9278">
        <ele>-18</ele>
        <time>2015-10-09T19:55:21Z</time>
      </trkpt>
      <trkpt lat="44.58602" lon="-0.92788">
        <ele>-19</ele>
        <time>2015-10-09T19:55:25Z</time>
      </trkpt>
      <trkpt lat="44.58609" lon="-0.92795">
        <ele>-18</ele>
        <time>2015-10-09T19:55:29Z</time>
      </trkpt>
      <trkpt lat="44.58614" lon="-0.92801">
        <ele>-18</ele>
        <time>2015-10-09T19:55:33Z</time>
      </trkpt>
      <trkpt lat="44.58622" lon="-0.92807">
        <ele>-19</ele>
        <time>2015-10-09T19:55:38Z</time>
      </trkpt>
      <trkpt lat="44.5863" lon="-0.92812">
        <ele>-18</ele>
        <time>2015-10-09T19:55:59Z</time>
      </trkpt>
      <trkpt lat="44.58638" lon="-0.92812">
        <ele>-17</ele>
        <time>2015-10-09T19:56:02Z</time>
      </trkpt>
      <trkpt lat="44.58652" lon="-0.92819">
        <ele>-17</ele>
        <time>2015-10-09T19:56:07Z</time>
      </trkpt>
      <trkpt lat="44.58661" lon="-0.92826">
        <ele>-17</ele>
        <time>2015-10-09T19:56:11Z</time>
      </trkpt>
      <trkpt lat="44.58668" lon="-0.92833">
        <ele>-17</ele>
        <time>2015-10-09T19:56:15Z</time>
      </trkpt>
      <trkpt lat="44.58676" lon="-0.92841">
        <ele>-17</ele>
        <time>2015-10-09T19:56:20Z</time>
      </trkpt>
      <trkpt lat="44.58682" lon="-0.92845">
        <ele>-17</ele>
        <time>2015-10-09T19:56:27Z</time>
      </trkpt>
      <trkpt lat="44.58691" lon="-0.92846">
        <ele>-16</ele>
        <time>2015-10-09T19:56:37Z</time>
      </trkpt>
      <trkpt lat="44.58697" lon="-0.92847">
        <ele>-15</ele>
        <time>2015-10-09T19:56:40Z</time>
      </trkpt>
      <trkpt lat="44.58706" lon="-0.92846">
        <ele>-14</ele>
        <time>2015-10-09T19:56:44Z</time>
      </trkpt>
      <trkpt lat="44.58711" lon="-0.92848">
        <ele>-13</ele>
        <time>2015-10-09T19:56:48Z</time>
      </trkpt>
      <trkpt lat="44.58717" lon="-0.92852">
        <ele>-13</ele>
        <time>2015-10-09T19:56:52Z</time>
      </trkpt>
      <trkpt lat="44.58722" lon="-0.92859">
        <ele>-12</ele>
        <time>2015-10-09T19:56:58Z</time>
      </trkpt>
      <trkpt lat="44.5873" lon="-0.92864">
        <ele>-12</ele>
        <time>2015-10-09T19:57:02Z</time>
      </trkpt>
      <trkpt lat="44.58738" lon="-0.92868">
        <ele>-11</ele>
        <time>2015-10-09T19:57:06Z</time>
      </trkpt>
      <trkpt lat="44.58745" lon="-0.92876">
        <ele>-10</ele>
        <time>2015-10-09T19:57:10Z</time>
      </trkpt>
      <trkpt lat="44.58751" lon="-0.92884">
        <ele>-10</ele>
        <time>2015-10-09T19:57:14Z</time>
      </trkpt>
      <trkpt lat="44.5876" lon="-0.9289">
        <ele>-10</ele>
        <time>2015-10-09T19:57:18Z</time>
      </trkpt>
      <trkpt lat="44.58769" lon="-0.92897">
        <ele>-10</ele>
        <time>2015-10-09T19:57:23Z</time>
      </trkpt>
      <trkpt lat="44.58776" lon="-0.92903">
        <ele>-9</ele>
        <time>2015-10-09T19:57:27Z</time>
      </trkpt>
      <trkpt lat="44.58784" lon="-0.92909">
        <ele>-9</ele>
        <time>2015-10-09T19:57:32Z</time>
      </trkpt>
      <trkpt lat="44.58789" lon="-0.92916">
        <ele>-9</ele>
        <time>2015-10-09T19:57:35Z</time>
      </trkpt>
      <trkpt lat="44.58795" lon="-0.92925">
        <ele>-9</ele>
        <time>2015-10-09T19:57:39Z</time>
      </trkpt>
      <trkpt lat="44.58801" lon="-0.92934">
        <ele>-9</ele>
        <time>2015-10-09T19:57:45Z</time>
      </trkpt>
      <trkpt lat="44.58807" lon="-0.92938">
        <ele>-9</ele>
        <time>2015-10-09T19:57:49Z</time>
      </trkpt>
      <trkpt lat="44.58813" lon="-0.92943">
        <ele>-9</ele>
        <time>2015-10-09T19:57:53Z</time>
      </trkpt>
      <trkpt lat="44.58819" lon="-0.92948">
        <ele>-9</ele>
        <time>2015-10-09T19:57:57Z</time>
      </trkpt>
      <trkpt lat="44.58827" lon="-0.92955">
        <ele>-9</ele>
        <time>2015-10-09T19:58:02Z</time>
      </trkpt>
      <trkpt lat="44.58833" lon="-0.92964">
        <ele>-9</ele>
        <time>2015-10-09T19:58:06Z</time>
      </trkpt>
      <trkpt lat="44.58839" lon="-0.92975">
        <ele>-9</ele>
        <time>2015-10-09T19:58:11Z</time>
      </trkpt>
      <trkpt lat="44.58845" lon="-0.92982">
        <ele>-9</ele>
        <time>2015-10-09T19:58:16Z</time>
      </trkpt>
      <trkpt lat="44.58851" lon="-0.9299">
        <ele>-8</ele>
        <time>2015-10-09T19:58:23Z</time>
      </trkpt>
      <trkpt lat="44.58857" lon="-0.93">
        <ele>-8</ele>
        <time>2015-10-09T19:58:29Z</time>
      </trkpt>
      <trkpt lat="44.58864" lon="-0.93008">
        <ele>-8</ele>
        <time>2015-10-09T19:58:33Z</time>
      </trkpt>
      <trkpt lat="44.58872" lon="-0.93019">
        <ele>-8</ele>
        <time>2015-10-09T19:58:38Z</time>
      </trkpt>
      <trkpt lat="44.58882" lon="-0.9303">
        <ele>-8</ele>
        <time>2015-10-09T19:58:43Z</time>
      </trkpt>
      <trkpt lat="44.58888" lon="-0.93038">
        <ele>-7</ele>
        <time>2015-10-09T19:58:47Z</time>
      </trkpt>
      <trkpt lat="44.58896" lon="-0.93044">
        <ele>-7</ele>
        <time>2015-10-09T19:58:52Z</time>
      </trkpt>
      <trkpt lat="44.58902" lon="-0.93051">
        <ele>-7</ele>
        <time>2015-10-09T19:58:56Z</time>
      </trkpt>
      <trkpt lat="44.58909" lon="-0.93057">
        <ele>-7</ele>
        <time>2015-10-09T19:58:59Z</time>
      </trkpt>
      <trkpt lat="44.58918" lon="-0.93067">
        <ele>-6</ele>
        <time>2015-10-09T19:59:04Z</time>
      </trkpt>
      <trkpt lat="44.58927" lon="-0.93075">
        <ele>-6</ele>
        <time>2015-10-09T19:59:08Z</time>
      </trkpt>
      <trkpt lat="44.58938" lon="-0.93084">
        <ele>-6</ele>
        <time>2015-10-09T19:59:12Z</time>
      </trkpt>
      <trkpt lat="44.58947" lon="-0.93091">
        <ele>-5</ele>
        <time>2015-10-09T19:59:15Z</time>
      </trkpt>
      <trkpt lat="44.58961" lon="-0.9311">
        <ele>-5</ele>
        <time>2015-10-09T19:59:19Z</time>
      </trkpt>
      <trkpt lat="44.58977" lon="-0.93132">
        <ele>-5</ele>
        <time>2015-10-09T19:59:24Z</time>
      </trkpt>
      <trkpt lat="44.58989" lon="-0.93147">
        <ele>-5</ele>
        <time>2015-10-09T19:59:29Z</time>
      </trkpt>
      <trkpt lat="44.58997" lon="-0.93157">
        <ele>-5</ele>
        <time>2015-10-09T19:59:32Z</time>
      </trkpt>
      <trkpt lat="44.59007" lon="-0.93172">
        <ele>-5</ele>
        <time>2015-10-09T19:59:36Z</time>
      </trkpt>
      <trkpt lat="44.59014" lon="-0.93181">
        <ele>-5</ele>
        <time>2015-10-09T19:59:40Z</time>
      </trkpt>
      <trkpt lat="44.59026" lon="-0.93197">
        <ele>-5</ele>
        <time>2015-10-09T19:59:44Z</time>
      </trkpt>
      <trkpt lat="44.59034" lon="-0.93212">
        <ele>-5</ele>
        <time>2015-10-09T19:59:47Z</time>
      </trkpt>
      <trkpt lat="44.59039" lon="-0.93235">
        <ele>-5</ele>
        <time>2015-10-09T19:59:52Z</time>
      </trkpt>
      <trkpt lat="44.59039" lon="-0.93249">
        <ele>-5</ele>
        <time>2015-10-09T19:59:56Z</time>
      </trkpt>
      <trkpt lat="44.5903" lon="-0.93259">
        <ele>-4</ele>
        <time>2015-10-09T20:00:00Z</time>
      </trkpt>
      <trkpt lat="44.59026" lon="-0.93269">
        <ele>-4</ele>
        <time>2015-10-09T20:00:04Z</time>
      </trkpt>
      <trkpt lat="44.59021" lon="-0.9328">
        <ele>-4</ele>
        <time>2015-10-09T20:00:09Z</time>
      </trkpt>
      <trkpt lat="44.59021" lon="-0.93288">
        <ele>-4</ele>
        <time>2015-10-09T20:00:12Z</time>
      </trkpt>
      <trkpt lat="44.59038" lon="-0.93336">
        <ele>-4</ele>
        <time>2015-10-09T20:00:17Z</time>
      </trkpt>
      <trkpt lat="44.59041" lon="-0.93352">
        <ele>-4</ele>
        <time>2015-10-09T20:00:20Z</time>
      </trkpt>
      <trkpt lat="44.59046" lon="-0.93375">
        <ele>-4</ele>
        <time>2015-10-09T20:00:25Z</time>
      </trkpt>
      <trkpt lat="44.59045" lon="-0.93387">
        <ele>-4</ele>
        <time>2015-10-09T20:00:30Z</time>
      </trkpt>
      <trkpt lat="44.59046" lon="-0.93393">
        <ele>-4</ele>
        <time>2015-10-09T20:00:36Z</time>
      </trkpt>
      <trkpt lat="44.59049" lon="-0.93405">
        <ele>-4</ele>
        <time>2015-10-09T20:00:40Z</time>
      </trkpt>
      <trkpt lat="44.59053" lon="-0.93417">
        <ele>-3</ele>
        <time>2015-10-09T20:00:45Z</time>
      </trkpt>
      <trkpt lat="44.59054" lon="-0.93425">
        <ele>-3</ele>
        <time>2015-10-09T20:00:48Z</time>
      </trkpt>
      <trkpt lat="44.59056" lon="-0.93433">
        <ele>-3</ele>
        <time>2015-10-09T20:00:50Z</time>
      </trkpt>
      <trkpt lat="44.59061" lon="-0.93443">
        <ele>-3</ele>
        <time>2015-10-09T20:00:54Z</time>
      </trkpt>
      <trkpt lat="44.59071" lon="-0.93454">
        <ele>-3</ele>
        <time>2015-10-09T20:00:58Z</time>
      </trkpt>
      <trkpt lat="44.59085" lon="-0.93471">
        <ele>-4</ele>
        <time>2015-10-09T20:01:02Z</time>
      </trkpt>
      <trkpt lat="44.59104" lon="-0.93492">
        <ele>-5</ele>
        <time>2015-10-09T20:01:07Z</time>
      </trkpt>
      <trkpt lat="44.5912" lon="-0.93508">
        <ele>-7</ele>
        <time>2015-10-09T20:01:11Z</time>
      </trkpt>
      <trkpt lat="44.59136" lon="-0.93524">
        <ele>-7</ele>
        <time>2015-10-09T20:01:15Z</time>
      </trkpt>
      <trkpt lat="44.59156" lon="-0.93537">
        <ele>-7</ele>
        <time>2015-10-09T20:01:19Z</time>
      </trkpt>
      <trkpt lat="44.59169" lon="-0.93547">
        <ele>-7</ele>
        <time>2015-10-09T20:01:23Z</time>
      </trkpt>
      <trkpt lat="44.59182" lon="-0.9356">
        <ele>-7</ele>
        <time>2015-10-09T20:01:27Z</time>
      </trkpt>
      <trkpt lat="44.59196" lon="-0.9357">
        <ele>-7</ele>
        <time>2015-10-09T20:01:31Z</time>
      </trkpt>
      <trkpt lat="44.59208" lon="-0.93584">
        <ele>-6</ele>
        <time>2015-10-09T20:01:34Z</time>
      </trkpt>
      <trkpt lat="44.5922" lon="-0.936">
        <ele>-7</ele>
        <time>2015-10-09T20:01:38Z</time>
      </trkpt>
      <trkpt lat="44.59235" lon="-0.93613">
        <ele>-7</ele>
        <time>2015-10-09T20:01:42Z</time>
      </trkpt>
      <trkpt lat="44.59248" lon="-0.93625">
        <ele>-6</ele>
        <time>2015-10-09T20:01:46Z</time>
      </trkpt>
      <trkpt lat="44.59261" lon="-0.93638">
        <ele>-6</ele>
        <time>2015-10-09T20:01:50Z</time>
      </trkpt>
      <trkpt lat="44.59272" lon="-0.9365">
        <ele>-6</ele>
        <time>2015-10-09T20:01:53Z</time>
      </trkpt>
      <trkpt lat="44.59289" lon="-0.93668">
        <ele>-6</ele>
        <time>2015-10-09T20:01:58Z</time>
      </trkpt>
      <trkpt lat="44.59299" lon="-0.9368">
        <ele>-5</ele>
        <time>2015-10-09T20:02:01Z</time>
      </trkpt>
      <trkpt lat="44.59307" lon="-0.93688">
        <ele>-5</ele>
        <time>2015-10-09T20:02:04Z</time>
      </trkpt>
      <trkpt lat="44.5932" lon="-0.93696">
        <ele>-5</ele>
        <time>2015-10-09T20:02:08Z</time>
      </trkpt>
      <trkpt lat="44.5933" lon="-0.93705">
        <ele>-5</ele>
        <time>2015-10-09T20:02:11Z</time>
      </trkpt>
      <trkpt lat="44.59344" lon="-0.93717">
        <ele>-5</ele>
        <time>2015-10-09T20:02:15Z</time>
      </trkpt>
      <trkpt lat="44.59362" lon="-0.93733">
        <ele>-5</ele>
        <time>2015-10-09T20:02:19Z</time>
      </trkpt>
      <trkpt lat="44.59383" lon="-0.93748">
        <ele>-5</ele>
        <time>2015-10-09T20:02:24Z</time>
      </trkpt>
      <trkpt lat="44.59395" lon="-0.93756">
        <ele>-5</ele>
        <time>2015-10-09T20:02:28Z</time>
      </trkpt>
      <trkpt lat="44.59421" lon="-0.93775">
        <ele>-5</ele>
        <time>2015-10-09T20:02:33Z</time>
      </trkpt>
      <trkpt lat="44.59437" lon="-0.93788">
        <ele>-5</ele>
        <time>2015-10-09T20:02:37Z</time>
      </trkpt>
      <trkpt lat="44.59454" lon="-0.938">
        <ele>-5</ele>
        <time>2015-10-09T20:02:41Z</time>
      </trkpt>
      <trkpt lat="44.59475" lon="-0.93815">
        <ele>-5</ele>
        <time>2015-10-09T20:02:46Z</time>
      </trkpt>
      <trkpt lat="44.59494" lon="-0.93829">
        <ele>-5</ele>
        <time>2015-10-09T20:02:51Z</time>
      </trkpt>
      <trkpt lat="44.59509" lon="-0.93839">
        <ele>-6</ele>
        <time>2015-10-09T20:02:55Z</time>
      </trkpt>
      <trkpt lat="44.59522" lon="-0.93848">
        <ele>-6</ele>
        <time>2015-10-09T20:02:59Z</time>
      </trkpt>
      <trkpt lat="44.59542" lon="-0.93862">
        <ele>-6</ele>
        <time>2015-10-09T20:03:04Z</time>
      </trkpt>
      <trkpt lat="44.59554" lon="-0.9387">
        <ele>-6</ele>
        <time>2015-10-09T20:03:08Z</time>
      </trkpt>
      <trkpt lat="44.59573" lon="-0.93886">
        <ele>-6</ele>
        <time>2015-10-09T20:03:13Z</time>
      </trkpt>
      <trkpt lat="44.59587" lon="-0.93901">
        <ele>-7</ele>
        <time>2015-10-09T20:03:16Z</time>
      </trkpt>
      <trkpt lat="44.59605" lon="-0.93916">
        <ele>-6</ele>
        <time>2015-10-09T20:03:21Z</time>
      </trkpt>
      <trkpt lat="44.59614" lon="-0.93925">
        <ele>-6</ele>
        <time>2015-10-09T20:03:25Z</time>
      </trkpt>
      <trkpt lat="44.59632" lon="-0.93937">
        <ele>-6</ele>
        <time>2015-10-09T20:03:30Z</time>
      </trkpt>
      <trkpt lat="44.5964" lon="-0.93946">
        <ele>-6</ele>
        <time>2015-10-09T20:03:34Z</time>
      </trkpt>
      <trkpt lat="44.59656" lon="-0.93965">
        <ele>-6</ele>
        <time>2015-10-09T20:03:39Z</time>
      </trkpt>
      <trkpt lat="44.59669" lon="-0.93979">
        <ele>-6</ele>
        <time>2015-10-09T20:03:43Z</time>
      </trkpt>
      <trkpt lat="44.59681" lon="-0.94">
        <ele>-5</ele>
        <time>2015-10-09T20:03:47Z</time>
      </trkpt>
      <trkpt lat="44.59697" lon="-0.94018">
        <ele>-6</ele>
        <time>2015-10-09T20:03:52Z</time>
      </trkpt>
      <trkpt lat="44.59711" lon="-0.94021">
        <ele>-7</ele>
        <time>2015-10-09T20:03:55Z</time>
      </trkpt>
      <trkpt lat="44.59727" lon="-0.9402">
        <ele>-7</ele>
        <time>2015-10-09T20:03:59Z</time>
      </trkpt>
      <trkpt lat="44.59748" lon="-0.94009">
        <ele>-6</ele>
        <time>2015-10-09T20:04:04Z</time>
      </trkpt>
      <trkpt lat="44.59766" lon="-0.93999">
        <ele>-5</ele>
        <time>2015-10-09T20:04:08Z</time>
      </trkpt>
      <trkpt lat="44.59783" lon="-0.93993">
        <ele>-5</ele>
        <time>2015-10-09T20:04:12Z</time>
      </trkpt>
      <trkpt lat="44.598" lon="-0.93989">
        <ele>-4</ele>
        <time>2015-10-09T20:04:16Z</time>
      </trkpt>
      <trkpt lat="44.59814" lon="-0.93983">
        <ele>-4</ele>
        <time>2015-10-09T20:04:20Z</time>
      </trkpt>
      <trkpt lat="44.59838" lon="-0.93984">
        <ele>-3</ele>
        <time>2015-10-09T20:04:25Z</time>
      </trkpt>
      <trkpt lat="44.59849" lon="-0.93988">
        <ele>-2</ele>
        <time>2015-10-09T20:04:27Z</time>
      </trkpt>
      <trkpt lat="44.59863" lon="-0.93988">
        <ele>-2</ele>
        <time>2015-10-09T20:04:30Z</time>
      </trkpt>
      <trkpt lat="44.59885" lon="-0.93986">
        <ele>8.6</ele>
        <time>2015-10-09T20:04:35Z</time>
      </trkpt>
      <trkpt lat="44.59903" lon="-0.93988">
        <ele>1</ele>
        <time>2015-10-09T20:04:39Z</time>
      </trkpt>
      <trkpt lat="44.59921" lon="-0.9399">
        <ele>5</ele>
        <time>2015-10-09T20:04:43Z</time>
      </trkpt>
      <trkpt lat="44.59936" lon="-0.93991">
        <ele>9</ele>
        <time>2015-10-09T20:04:46Z</time>
      </trkpt>
      <trkpt lat="44.59953" lon="-0.93992">
        <ele>12</ele>
        <time>2015-10-09T20:04:50Z</time>
      </trkpt>
      <trkpt lat="44.59972" lon="-0.93992">
        <ele>16</ele>
        <time>2015-10-09T20:04:54Z</time>
      </trkpt>
      <trkpt lat="44.59985" lon="-0.9399">
        <ele>18</ele>
        <time>2015-10-09T20:04:57Z</time>
      </trkpt>
      <trkpt lat="44.60003" lon="-0.93982">
        <ele>20</ele>
        <time>2015-10-09T20:05:01Z</time>
      </trkpt>
      <trkpt lat="44.60022" lon="-0.93974">
        <ele>22</ele>
        <time>2015-10-09T20:05:05Z</time>
      </trkpt>
      <trkpt lat="44.60034" lon="-0.93967">
        <ele>24</ele>
        <time>2015-10-09T20:05:08Z</time>
      </trkpt>
      <trkpt lat="44.60056" lon="-0.93954">
        <ele>22</ele>
        <time>2015-10-09T20:05:12Z</time>
      </trkpt>
      <trkpt lat="44.60074" lon="-0.93933">
        <ele>17</ele>
        <time>2015-10-09T20:05:16Z</time>
      </trkpt>
      <trkpt lat="44.60095" lon="-0.93907">
        <ele>15</ele>
        <time>2015-10-09T20:05:21Z</time>
      </trkpt>
      <trkpt lat="44.6011" lon="-0.93884">
        <ele>12</ele>
        <time>2015-10-09T20:05:26Z</time>
      </trkpt>
      <trkpt lat="44.60119" lon="-0.93867">
        <ele>11</ele>
        <time>2015-10-09T20:05:29Z</time>
      </trkpt>
      <trkpt lat="44.60131" lon="-0.93847">
        <ele>11</ele>
        <time>2015-10-09T20:05:33Z</time>
      </trkpt>
      <trkpt lat="44.60141" lon="-0.93829">
        <ele>10</ele>
        <time>2015-10-09T20:05:37Z</time>
      </trkpt>
      <trkpt lat="44.60154" lon="-0.93808">
        <ele>9</ele>
        <time>2015-10-09T20:05:42Z</time>
      </trkpt>
      <trkpt lat="44.60166" lon="-0.9379">
        <ele>8</ele>
        <time>2015-10-09T20:05:46Z</time>
      </trkpt>
      <trkpt lat="44.60179" lon="-0.93775">
        <ele>7</ele>
        <time>2015-10-09T20:05:50Z</time>
      </trkpt>
      <trkpt lat="44.60195" lon="-0.93761">
        <ele>6</ele>
        <time>2015-10-09T20:05:54Z</time>
      </trkpt>
      <trkpt lat="44.60217" lon="-0.93747">
        <ele>5</ele>
        <time>2015-10-09T20:05:59Z</time>
      </trkpt>
      <trkpt lat="44.60228" lon="-0.93741">
        <ele>5</ele>
        <time>2015-10-09T20:06:03Z</time>
      </trkpt>
      <trkpt lat="44.60236" lon="-0.93731">
        <ele>5</ele>
        <time>2015-10-09T20:06:08Z</time>
      </trkpt>
      <trkpt lat="44.60236" lon="-0.93723">
        <ele>5</ele>
        <time>2015-10-09T20:06:11Z</time>
      </trkpt>
      <trkpt lat="44.60236" lon="-0.93712">
        <ele>6</ele>
        <time>2015-10-09T20:06:15Z</time>
      </trkpt>
      <trkpt lat="44.60236" lon="-0.937">
        <ele>6</ele>
        <time>2015-10-09T20:06:19Z</time>
      </trkpt>
      <trkpt lat="44.60237" lon="-0.9368">
        <ele>6</ele>
        <time>2015-10-09T20:06:24Z</time>
      </trkpt>
      <trkpt lat="44.60239" lon="-0.93664">
        <ele>6</ele>
        <time>2015-10-09T20:06:27Z</time>
      </trkpt>
      <trkpt lat="44.60239" lon="-0.93641">
        <ele>6</ele>
        <time>2015-10-09T20:06:31Z</time>
      </trkpt>
      <trkpt lat="44.60237" lon="-0.93616">
        <ele>6</ele>
        <time>2015-10-09T20:06:35Z</time>
      </trkpt>
      <trkpt lat="44.60231" lon="-0.93592">
        <ele>6</ele>
        <time>2015-10-09T20:06:39Z</time>
      </trkpt>
      <trkpt lat="44.60222" lon="-0.9357">
        <ele>7</ele>
        <time>2015-10-09T20:06:43Z</time>
      </trkpt>
      <trkpt lat="44.60218" lon="-0.9356">
        <ele>7</ele>
        <time>2015-10-09T20:06:46Z</time>
      </trkpt>
      <trkpt lat="44.60205" lon="-0.93529">
        <ele>9</ele>
        <time>2015-10-09T20:06:51Z</time>
      </trkpt>
      <trkpt lat="44.60201" lon="-0.93519">
        <ele>9</ele>
        <time>2015-10-09T20:06:53Z</time>
      </trkpt>
      <trkpt lat="44.60197" lon="-0.93508">
        <ele>10</ele>
        <time>2015-10-09T20:06:56Z</time>
      </trkpt>
      <trkpt lat="44.60186" lon="-0.9348">
        <ele>11</ele>
        <time>2015-10-09T20:07:00Z</time>
      </trkpt>
      <trkpt lat="44.60175" lon="-0.93453">
        <ele>12</ele>
        <time>2015-10-09T20:07:05Z</time>
      </trkpt>
      <trkpt lat="44.60169" lon="-0.93431">
        <ele>12</ele>
        <time>2015-10-09T20:07:09Z</time>
      </trkpt>
      <trkpt lat="44.60168" lon="-0.93393">
        <ele>12</ele>
        <time>2015-10-09T20:07:14Z</time>
      </trkpt>
      <trkpt lat="44.60171" lon="-0.93362">
        <ele>11</ele>
        <time>2015-10-09T20:07:18Z</time>
      </trkpt>
      <trkpt lat="44.60174" lon="-0.93338">
        <ele>11</ele>
        <time>2015-10-09T20:07:22Z</time>
      </trkpt>
      <trkpt lat="44.60178" lon="-0.93317">
        <ele>12</ele>
        <time>2015-10-09T20:07:26Z</time>
      </trkpt>
      <trkpt lat="44.60182" lon="-0.93297">
        <ele>11</ele>
        <time>2015-10-09T20:07:30Z</time>
      </trkpt>
      <trkpt lat="44.60185" lon="-0.93274">
        <ele>11</ele>
        <time>2015-10-09T20:07:34Z</time>
      </trkpt>
      <trkpt lat="44.60187" lon="-0.93256">
        <ele>11</ele>
        <time>2015-10-09T20:07:37Z</time>
      </trkpt>
      <trkpt lat="44.6019" lon="-0.9323">
        <ele>11</ele>
        <time>2015-10-09T20:07:41Z</time>
      </trkpt>
      <trkpt lat="44.60193" lon="-0.93201">
        <ele>10</ele>
        <time>2015-10-09T20:07:46Z</time>
      </trkpt>
      <trkpt lat="44.60196" lon="-0.93177">
        <ele>10</ele>
        <time>2015-10-09T20:07:50Z</time>
      </trkpt>
      <trkpt lat="44.60198" lon="-0.93159">
        <ele>9</ele>
        <time>2015-10-09T20:07:53Z</time>
      </trkpt>
      <trkpt lat="44.602" lon="-0.9314">
        <ele>9</ele>
        <time>2015-10-09T20:07:56Z</time>
      </trkpt>
      <trkpt lat="44.60201" lon="-0.93128">
        <ele>9</ele>
        <time>2015-10-09T20:07:59Z</time>
      </trkpt>
      <trkpt lat="44.60205" lon="-0.93105">
        <ele>3</ele>
        <time>2015-10-09T20:08:04Z</time>
      </trkpt>
      <trkpt lat="44.60208" lon="-0.9309">
        <ele>1</ele>
        <time>2015-10-09T20:08:06Z</time>
      </trkpt>
      <trkpt lat="44.60211" lon="-0.93073">
        <ele>14.2</ele>
        <time>2015-10-09T20:08:09Z</time>
      </trkpt>
      <trkpt lat="44.60214" lon="-0.93055">
        <ele>14.3</ele>
        <time>2015-10-09T20:08:13Z</time>
      </trkpt>
      <trkpt lat="44.60218" lon="-0.93031">
        <ele>-3</ele>
        <time>2015-10-09T20:08:16Z</time>
      </trkpt>
      <trkpt lat="44.60221" lon="-0.93">
        <ele>-6</ele>
        <time>2015-10-09T20:08:21Z</time>
      </trkpt>
      <trkpt lat="44.60217" lon="-0.92967">
        <ele>-9</ele>
        <time>2015-10-09T20:08:26Z</time>
      </trkpt>
      <trkpt lat="44.60214" lon="-0.92955">
        <ele>-10</ele>
        <time>2015-10-09T20:08:29Z</time>
      </trkpt>
      <trkpt lat="44.60208" lon="-0.92924">
        <ele>-13</ele>
        <time>2015-10-09T20:08:33Z</time>
      </trkpt>
      <trkpt lat="44.602" lon="-0.92894">
        <ele>-15</ele>
        <time>2015-10-09T20:08:38Z</time>
      </trkpt>
      <trkpt lat="44.60195" lon="-0.92876">
        <ele>-17</ele>
        <time>2015-10-09T20:08:41Z</time>
      </trkpt>
      <trkpt lat="44.6019" lon="-0.92851">
        <ele>-18</ele>
        <time>2015-10-09T20:08:45Z</time>
      </trkpt>
      <trkpt lat="44.60189" lon="-0.92839">
        <ele>-19</ele>
        <time>2015-10-09T20:08:47Z</time>
      </trkpt>
      <trkpt lat="44.60189" lon="-0.92827">
        <ele>-20</ele>
        <time>2015-10-09T20:08:50Z</time>
      </trkpt>
      <trkpt lat="44.60194" lon="-0.92796">
        <ele>-22</ele>
        <time>2015-10-09T20:08:54Z</time>
      </trkpt>
      <trkpt lat="44.60204" lon="-0.92777">
        <ele>-22</ele>
        <time>2015-10-09T20:08:58Z</time>
      </trkpt>
      <trkpt lat="44.60216" lon="-0.92758">
        <ele>-22</ele>
        <time>2015-10-09T20:09:02Z</time>
      </trkpt>
      <trkpt lat="44.60225" lon="-0.92745">
        <ele>-22</ele>
        <time>2015-10-09T20:09:05Z</time>
      </trkpt>
      <trkpt lat="44.60237" lon="-0.92728">
        <ele>-22</ele>
        <time>2015-10-09T20:09:09Z</time>
      </trkpt>
      <trkpt lat="44.60251" lon="-0.92707">
        <ele>-23</ele>
        <time>2015-10-09T20:09:14Z</time>
      </trkpt>
      <trkpt lat="44.6026" lon="-0.92693">
        <ele>-22</ele>
        <time>2015-10-09T20:09:18Z</time>
      </trkpt>
      <trkpt lat="44.60269" lon="-0.92679">
        <ele>-21</ele>
        <time>2015-10-09T20:09:23Z</time>
      </trkpt>
      <trkpt lat="44.60272" lon="-0.92673">
        <ele>-21</ele>
        <time>2015-10-09T20:09:26Z</time>
      </trkpt>
      <trkpt lat="44.60276" lon="-0.92662">
        <ele>-21</ele>
        <time>2015-10-09T20:09:30Z</time>
      </trkpt>
      <trkpt lat="44.60282" lon="-0.9265">
        <ele>-21</ele>
        <time>2015-10-09T20:09:34Z</time>
      </trkpt>
      <trkpt lat="44.60288" lon="-0.92641">
        <ele>-22</ele>
        <time>2015-10-09T20:09:37Z</time>
      </trkpt>
      <trkpt lat="44.60294" lon="-0.92629">
        <ele>-22</ele>
        <time>2015-10-09T20:09:41Z</time>
      </trkpt>
      <trkpt lat="44.60304" lon="-0.92613">
        <ele>-22</ele>
        <time>2015-10-09T20:09:45Z</time>
      </trkpt>
      <trkpt lat="44.6032" lon="-0.92593">
        <ele>-23</ele>
        <time>2015-10-09T20:09:49Z</time>
      </trkpt>
      <trkpt lat="44.60344" lon="-0.92563">
        <ele>-22</ele>
        <time>2015-10-09T20:09:54Z</time>
      </trkpt>
      <trkpt lat="44.60359" lon="-0.92545">
        <ele>-21</ele>
        <time>2015-10-09T20:09:57Z</time>
      </trkpt>
      <trkpt lat="44.60381" lon="-0.92523">
        <ele>-21</ele>
        <time>2015-10-09T20:10:01Z</time>
      </trkpt>
      <trkpt lat="44.60402" lon="-0.92508">
        <ele>-21</ele>
        <time>2015-10-09T20:10:05Z</time>
      </trkpt>
      <trkpt lat="44.60427" lon="-0.92491">
        <ele>-21</ele>
        <time>2015-10-09T20:10:09Z</time>
      </trkpt>
      <trkpt lat="44.60459" lon="-0.92468">
        <ele>-20</ele>
        <time>2015-10-09T20:10:14Z</time>
      </trkpt>
      <trkpt lat="44.60491" lon="-0.92446">
        <ele>-20</ele>
        <time>2015-10-09T20:10:19Z</time>
      </trkpt>
      <trkpt lat="44.60513" lon="-0.92422">
        <ele>-19</ele>
        <time>2015-10-09T20:10:23Z</time>
      </trkpt>
      <trkpt lat="44.60532" lon="-0.92395">
        <ele>-20</ele>
        <time>2015-10-09T20:10:27Z</time>
      </trkpt>
      <trkpt lat="44.60552" lon="-0.92372">
        <ele>-20</ele>
        <time>2015-10-09T20:10:31Z</time>
      </trkpt>
      <trkpt lat="44.60562" lon="-0.92361">
        <ele>-19</ele>
        <time>2015-10-09T20:10:33Z</time>
      </trkpt>
      <trkpt lat="44.60572" lon="-0.92353">
        <ele>-19</ele>
        <time>2015-10-09T20:10:37Z</time>
      </trkpt>
      <trkpt lat="44.60605" lon="-0.9233">
        <ele>-19</ele>
        <time>2015-10-09T20:10:41Z</time>
      </trkpt>
      <trkpt lat="44.60622" lon="-0.92319">
        <ele>-19</ele>
        <time>2015-10-09T20:10:44Z</time>
      </trkpt>
      <trkpt lat="44.60633" lon="-0.92312">
        <ele>-19</ele>
        <time>2015-10-09T20:10:46Z</time>
      </trkpt>
      <trkpt lat="44.60644" lon="-0.92305">
        <ele>-19</ele>
        <time>2015-10-09T20:10:49Z</time>
      </trkpt>
      <trkpt lat="44.6067" lon="-0.92283">
        <ele>-19</ele>
        <time>2015-10-09T20:10:53Z</time>
      </trkpt>
      <trkpt lat="44.60691" lon="-0.92264">
        <ele>-19</ele>
        <time>2015-10-09T20:10:57Z</time>
      </trkpt>
      <trkpt lat="44.60717" lon="-0.9224">
        <ele>-19</ele>
        <time>2015-10-09T20:11:02Z</time>
      </trkpt>
      <trkpt lat="44.60743" lon="-0.9222">
        <ele>-19</ele>
        <time>2015-10-09T20:11:07Z</time>
      </trkpt>
      <trkpt lat="44.60765" lon="-0.92205">
        <ele>-18</ele>
        <time>2015-10-09T20:11:11Z</time>
      </trkpt>
      <trkpt lat="44.60796" lon="-0.92185">
        <ele>-18</ele>
        <time>2015-10-09T20:11:16Z</time>
      </trkpt>
      <trkpt lat="44.60814" lon="-0.92176">
        <ele>-17</ele>
        <time>2015-10-09T20:11:19Z</time>
      </trkpt>
      <trkpt lat="44.60842" lon="-0.92161">
        <ele>-17</ele>
        <time>2015-10-09T20:11:24Z</time>
      </trkpt>
      <trkpt lat="44.60865" lon="-0.9215">
        <ele>-17</ele>
        <time>2015-10-09T20:11:28Z</time>
      </trkpt>
      <trkpt lat="44.6089" lon="-0.92134">
        <ele>-16</ele>
        <time>2015-10-09T20:11:33Z</time>
      </trkpt>
      <trkpt lat="44.60909" lon="-0.92119">
        <ele>-15</ele>
        <time>2015-10-09T20:11:37Z</time>
      </trkpt>
      <trkpt lat="44.60929" lon="-0.92119">
        <ele>-15</ele>
        <time>2015-10-09T20:11:41Z</time>
      </trkpt>
      <trkpt lat="44.6095" lon="-0.92134">
        <ele>-15</ele>
        <time>2015-10-09T20:11:45Z</time>
      </trkpt>
      <trkpt lat="44.6096" lon="-0.92144">
        <ele>-15</ele>
        <time>2015-10-09T20:11:47Z</time>
      </trkpt>
      <trkpt lat="44.60986" lon="-0.92166">
        <ele>-15</ele>
        <time>2015-10-09T20:11:52Z</time>
      </trkpt>
      <trkpt lat="44.61008" lon="-0.9218">
        <ele>-14</ele>
        <time>2015-10-09T20:11:56Z</time>
      </trkpt>
      <trkpt lat="44.61025" lon="-0.9219">
        <ele>-14</ele>
        <time>2015-10-09T20:11:59Z</time>
      </trkpt>
      <trkpt lat="44.6104" lon="-0.92202">
        <ele>-14</ele>
        <time>2015-10-09T20:12:02Z</time>
      </trkpt>
      <trkpt lat="44.61062" lon="-0.92227">
        <ele>-13</ele>
        <time>2015-10-09T20:12:07Z</time>
      </trkpt>
      <trkpt lat="44.61075" lon="-0.92246">
        <ele>-13</ele>
        <time>2015-10-09T20:12:10Z</time>
      </trkpt>
      <trkpt lat="44.61091" lon="-0.92272">
        <ele>-12</ele>
        <time>2015-10-09T20:12:14Z</time>
      </trkpt>
      <trkpt lat="44.61105" lon="-0.92291">
        <ele>-12</ele>
        <time>2015-10-09T20:12:18Z</time>
      </trkpt>
      <trkpt lat="44.61113" lon="-0.92304">
        <ele>-12</ele>
        <time>2015-10-09T20:12:21Z</time>
      </trkpt>
      <trkpt lat="44.61116" lon="-0.92318">
        <ele>-11</ele>
        <time>2015-10-09T20:12:25Z</time>
      </trkpt>
      <trkpt lat="44.61114" lon="-0.92318">
        <ele>-12</ele>
        <time>2015-10-09T20:13:00Z</time>
      </trkpt>
      <trkpt lat="44.61107" lon="-0.92326">
        <ele>-16</ele>
        <time>2015-10-09T20:13:05Z</time>
      </trkpt>
      <trkpt lat="44.61103" lon="-0.92334">
        <ele>-17</ele>
        <time>2015-10-09T20:13:13Z</time>
      </trkpt>
      <trkpt lat="44.61098" lon="-0.92345">
        <ele>-17</ele>
        <time>2015-10-09T20:13:20Z</time>
      </trkpt>
      <trkpt lat="44.6109" lon="-0.92344">
        <ele>-18</ele>
        <time>2015-10-09T20:13:57Z</time>
      </trkpt>
      <trkpt lat="44.61082" lon="-0.9234">
        <ele>-20</ele>
        <time>2015-10-09T20:15:28Z</time>
      </trkpt>
      <trkpt lat="44.6108" lon="-0.92351">
        <ele>-21</ele>
        <time>2015-10-09T20:16:02Z</time>
      </trkpt>
      <trkpt lat="44.61084" lon="-0.92355">
        <ele>-21</ele>
        <time>2015-10-09T20:16:09Z</time>
      </trkpt>
      <trkpt lat="44.61084" lon="-0.92355">
        <ele>-21</ele>
        <time>2015-10-09T20:16:10Z</time>
      </trkpt>
    </trkseg>
  </trk>
</gpx>